Darstellungsparameter: Aktuell verwendete Einstellungen:
Skalierung der Graphiken ... ?
xyx+y,   Skalierungsfaktor:      Skalierung: Modus: x, Faktor: 1
Darstellungszeitraum ... ?
Vom - - bis: - -   Zeitraum: 01.02.2010 - 03.03.2010
Min/Max/Avg-Anzeige ... ?
Zeige MMA aktuell
Zeige MMA Monat
Zeige MMA alles
Zeige --A aktuell
Zeige --A Monat
Zeige --A alles
Keine MMA-Anzeige
MMA:
Average (ber die Originaldaten)
MMA-Basis: 01.02.2010 - 03.03.2010
Quicknavigation für Darstellung... ?
Tage:      1T, 2T, 3T, 5T -1T -2T -3T -5T +1T +2T +3T +5T
Wochen: 1W, 2W, 3W -1W -2W -3W +1W +2W +3W
Monate: 1M, 3M, 6M -1M -3M -6M +1M +3M +6M
Jahre:    1J, 3J, 5J, 10J -1J -3J -5J -10J +1J +3J +5J +10J
Nutze für die Darstellung ... ?
Originaldaten oder Mittelwerte auf ...
Stundenbasis Tagesbasis Wochenbasis
Monatsbasis Jahresbasis      Datenbasis: Original-Daten
Darstellen als:
Statistik (Auto) Statistik J:M      Darstellung:
Zur Graphik,    zurück zur Übersicht aller Sensoren.
 
Tabellarische Datenbersicht: ?
 
Sensor: Nr:Datum:Temp:Abs-Feuchte:Windchill:Wind:
Aussen-T/F 1 01-02-2010 00:10:02 -0.8 C 3.39 g/m*3 -0.8 C 0 km/h
2 01-02-2010 00:22:02 -1 C 3.35 g/m*3 -1 C 0 km/h
3 01-02-2010 00:34:02 -1.1 C 3.32 g/m*3 -1.1 C 0 km/h
4 01-02-2010 00:46:02 -0.7 C 3.42 g/m*3 -0.7 C 0 km/h
5 01-02-2010 00:58:03 -0.7 C 3.37 g/m*3 -0.7 C 0 km/h
6 01-02-2010 01:10:03 -0.6 C 3.35 g/m*3 -0.6 C 0 km/h
7 01-02-2010 01:22:03 -0.5 C 3.37 g/m*3 -0.5 C 0 km/h
8 01-02-2010 01:34:03 -0.5 C 3.37 g/m*3 -0.5 C 0 km/h
9 01-02-2010 01:46:03 -0.4 C 3.35 g/m*3 -0.4 C 0 km/h
10 01-02-2010 01:58:03 -0.4 C 3.35 g/m*3 -0.4 C 0 km/h
11 01-02-2010 02:10:03 -0.6 C 3.25 g/m*3 -0.6 C 0 km/h
12 01-02-2010 02:22:03 -0.8 C 3.25 g/m*3 -0.8 C 0 km/h
13 01-02-2010 02:34:03 -0.8 C 3.25 g/m*3 -0.8 C 0 km/h
14 01-02-2010 02:46:03 -0.8 C 3.25 g/m*3 -0.8 C 0 km/h
15 01-02-2010 02:58:03 -0.8 C 3.25 g/m*3 -0.8 C 0 km/h
16 01-02-2010 03:10:03 -0.7 C 3.28 g/m*3 -0.7 C 0 km/h
17 01-02-2010 03:22:03 -0.8 C 3.25 g/m*3 -0.8 C 0 km/h
18 01-02-2010 03:34:03 -0.8 C 3.25 g/m*3 -0.8 C 0 km/h
19 01-02-2010 03:46:03 -0.7 C 3.32 g/m*3 -0.7 C 0 km/h
20 01-02-2010 03:58:03 -0.8 C 3.25 g/m*3 -0.8 C 0 km/h
21 01-02-2010 04:10:03 -0.8 C 3.25 g/m*3 -0.8 C 0 km/h
22 01-02-2010 04:22:03 -0.9 C 3.28 g/m*3 -0.9 C 0 km/h
23 01-02-2010 04:34:03 -1 C 3.25 g/m*3 -1 C 0 km/h
24 01-02-2010 04:46:03 -0.8 C 3.3 g/m*3 -0.8 C 0 km/h
25 01-02-2010 04:58:03 -0.7 C 3.28 g/m*3 -0.7 C 0 km/h
Sensor: Nr:Datum:Temp:Abs-Feuchte:Windchill:Wind:
Aussen-T/F 26 01-02-2010 05:10:03 -0.7 C 3.28 g/m*3 -0.7 C 0 km/h
27 01-02-2010 05:22:04 -0.6 C 3.3 g/m*3 -0.6 C 0 km/h
28 01-02-2010 05:34:04 -0.5 C 3.32 g/m*3 -0.5 C 0 km/h
29 01-02-2010 05:46:04 -0.4 C 3.35 g/m*3 -0.4 C 0 km/h
30 01-02-2010 05:58:04 -0.4 C 3.35 g/m*3 -0.4 C 0 km/h
31 01-02-2010 06:10:04 -0.4 C 3.35 g/m*3 -0.4 C 0 km/h
32 01-02-2010 06:22:04 -0.4 C 3.35 g/m*3 -0.4 C 0 km/h
33 01-02-2010 06:34:04 -0.3 C 3.37 g/m*3 -0.3 C 0 km/h
34 01-02-2010 06:46:04 -0.3 C 3.37 g/m*3 -0.3 C 0 km/h
35 01-02-2010 06:58:04 -0.4 C 3.35 g/m*3 -0.4 C 0 km/h
36 01-02-2010 07:10:02 -0.5 C 3.37 g/m*3 -0.5 C 0 km/h
37 01-02-2010 07:22:03 -0.7 C 3.32 g/m*3 -0.7 C 0 km/h
38 01-02-2010 07:34:02 -0.7 C 3.37 g/m*3 -0.7 C 0 km/h
39 01-02-2010 07:46:02 -0.6 C 3.39 g/m*3 -0.6 C 0 km/h
40 01-02-2010 07:58:02 -0.5 C 3.42 g/m*3 -0.5 C 0 km/h
41 01-02-2010 08:10:02 -0.4 C 3.39 g/m*3 -0.4 C 0 km/h
42 01-02-2010 08:22:02 -0.4 C 3.44 g/m*3 -0.4 C 0 km/h
43 01-02-2010 08:34:02 -0.4 C 3.39 g/m*3 -0.4 C 0 km/h
44 01-02-2010 08:46:02 -0.4 C 3.39 g/m*3 -0.4 C 0 km/h
45 01-02-2010 08:58:02 -0.4 C 3.39 g/m*3 -0.4 C 0 km/h
46 01-02-2010 09:10:02 -0.4 C 3.39 g/m*3 -0.4 C 0 km/h
47 01-02-2010 09:22:02 -0.3 C 3.37 g/m*3 -0.3 C 0 km/h
48 01-02-2010 09:34:02 -0.3 C 3.37 g/m*3 -0.3 C 0 km/h
49 01-02-2010 09:46:02 -0.2 C 3.39 g/m*3 -0.2 C 0 km/h
50 01-02-2010 09:58:02 -0.2 C 3.39 g/m*3 -0.2 C 0 km/h
Sensor: Nr:Datum:Temp:Abs-Feuchte:Windchill:Wind:
Aussen-T/F 51 01-02-2010 10:10:02 -0.1 C 3.37 g/m*3 -0.1 C 0 km/h
52 01-02-2010 10:22:02 0.2 C 3.44 g/m*3 0.2 C 0 km/h
53 01-02-2010 10:34:01 0.2 C 3.34 g/m*3 0.2 C 0 km/h
54 01-02-2010 10:46:02 0.3 C 3.36 g/m*3 0.3 C 0 km/h
55 01-02-2010 10:58:02 0.3 C 3.31 g/m*3 0.3 C 0 km/h
56 01-02-2010 11:10:01 0.5 C 3.31 g/m*3 0.5 C 0 km/h
57 01-02-2010 11:22:02 0.5 C 3.26 g/m*3 0.5 C 0 km/h
58 01-02-2010 11:34:01 0.7 C 3.3 g/m*3 0.7 C 0 km/h
59 01-02-2010 11:46:02 1 C 3.22 g/m*3 1 C 0 km/h
60 01-02-2010 11:58:02 1 C 3.22 g/m*3 1 C 0 km/h
61 01-02-2010 12:10:02 1.4 C 3.31 g/m*3 1.4 C 0 km/h
62 01-02-2010 12:22:02 1.3 C 3.23 g/m*3 1.3 C 0 km/h
63 01-02-2010 12:34:02 1.7 C 3.32 g/m*3 1.7 C 0 km/h
64 01-02-2010 12:46:02 1.5 C 3.28 g/m*3 1.5 C 0 km/h
65 01-02-2010 12:58:02 1.5 C 3.28 g/m*3 1.5 C 0 km/h
66 01-02-2010 13:10:01 1.4 C 3.25 g/m*3 1.4 C 0 km/h
67 01-02-2010 13:22:02 1.6 C 3.3 g/m*3 1.6 C 0 km/h
68 01-02-2010 13:34:01 1.7 C 3.32 g/m*3 1.7 C 0 km/h
69 01-02-2010 13:46:02 2.3 C 3.29 g/m*3 2.3 C 0 km/h
70 01-02-2010 13:58:02 2.3 C 3.18 g/m*3 2.3 C 0 km/h
71 01-02-2010 14:10:01 2.4 C 3.25 g/m*3 2.4 C 0 km/h
72 01-02-2010 14:22:01 2.4 C 3.25 g/m*3 2.4 C 0 km/h
73 01-02-2010 14:34:02 2.1 C 3.24 g/m*3 2.1 C 0 km/h
74 01-02-2010 14:46:02 1.5 C 3.44 g/m*3 1.5 C 0 km/h
75 01-02-2010 14:58:03 1.4 C 3.68 g/m*3 1.4 C 0 km/h
Sensor: Nr:Datum:Temp:Abs-Feuchte:Windchill:Wind:
Aussen-T/F 76 01-02-2010 15:10:01 1.3 C 3.71 g/m*3 1.3 C 0 km/h
77 01-02-2010 15:22:02 1.8 C 3.73 g/m*3 1.8 C 0 km/h
78 01-02-2010 15:34:02 1.5 C 3.71 g/m*3 1.5 C 0 km/h
79 01-02-2010 15:46:02 1.1 C 3.81 g/m*3 1.1 C 0 km/h
80 01-02-2010 15:58:02 0.9 C 3.92 g/m*3 0.9 C 0 km/h
81 01-02-2010 16:10:01 0.7 C 4.02 g/m*3 0.7 C 0 km/h
82 01-02-2010 16:22:02 0.7 C 4.12 g/m*3 0.7 C 0 km/h
83 01-02-2010 16:34:01 0.7 C 4.12 g/m*3 0.7 C 0 km/h
84 01-02-2010 16:46:03 0.8 C 4.1 g/m*3 0.8 C 0 km/h
85 01-02-2010 16:58:03 1 C 4 g/m*3 1 C 0 km/h
86 01-02-2010 17:10:03 0.8 C 4.04 g/m*3 0.8 C 0 km/h
87 01-02-2010 17:22:02 0.4 C 4.13 g/m*3 0.4 C 0 km/h
88 01-02-2010 17:34:03 0.4 C 4.28 g/m*3 0.4 C 0 km/h
89 01-02-2010 17:46:01 0.4 C 4.33 g/m*3 0.4 C 0 km/h
90 01-02-2010 17:58:01 0.3 C 4.3 g/m*3 0.3 C 0 km/h
91 01-02-2010 18:10:02 0.2 C 4.32 g/m*3 0.2 C 0 km/h
92 01-02-2010 18:22:02 0.2 C 4.37 g/m*3 0.2 C 0 km/h
93 01-02-2010 18:34:02 0.2 C 4.42 g/m*3 0.2 C 0 km/h
94 01-02-2010 18:46:02 0.2 C 4.47 g/m*3 0.2 C 0 km/h
95 01-02-2010 18:58:02 0.2 C 4.52 g/m*3 0.2 C 0 km/h
96 01-02-2010 19:10:02 0.3 C 4.55 g/m*3 0.3 C 0 km/h
97 01-02-2010 19:22:02 0.3 C 4.55 g/m*3 0.3 C 0 km/h
98 01-02-2010 19:34:01 0.3 C 4.5 g/m*3 0.3 C 0 km/h
99 01-02-2010 19:46:02 0.3 C 4.5 g/m*3 0.3 C 0 km/h
100 01-02-2010 19:58:02 0.5 C 4.56 g/m*3 0.5 C 0 km/h
Sensor: Nr:Datum:Temp:Abs-Feuchte:Windchill:Wind:
Aussen-T/F 101 01-02-2010 20:10:01 0.5 C 4.51 g/m*3 0.5 C 0 km/h
102 01-02-2010 20:22:02 0.5 C 4.46 g/m*3 0.5 C 0 km/h
103 01-02-2010 20:34:01 0.5 C 4.41 g/m*3 0.5 C 0 km/h
104 01-02-2010 20:46:02 0.3 C 4.35 g/m*3 0.3 C 0 km/h
105 01-02-2010 20:58:02 0.3 C 4.35 g/m*3 0.3 C 0 km/h
106 01-02-2010 21:10:01 0.2 C 4.32 g/m*3 0.2 C 0 km/h
107 01-02-2010 21:22:02 0.3 C 4.35 g/m*3 0.3 C 0 km/h
108 01-02-2010 21:34:01 0.3 C 4.35 g/m*3 0.3 C 0 km/h
109 01-02-2010 21:46:03 0.2 C 4.32 g/m*3 0.2 C 0 km/h
110 01-02-2010 21:58:03 0.2 C 4.32 g/m*3 0.2 C 0 km/h
111 01-02-2010 22:10:02 0.2 C 4.37 g/m*3 0.2 C 0 km/h
112 01-02-2010 22:23:02 0.2 C 4.37 g/m*3 0.2 C 0 km/h
113 01-02-2010 22:35:02 0.5 C 4.51 g/m*3 0.5 C 0 km/h
114 01-02-2010 22:47:02 0.5 C 4.46 g/m*3 0.5 C 0 km/h
115 01-02-2010 22:59:02 0.5 C 4.46 g/m*3 0.5 C 0 km/h
116 01-02-2010 23:11:02 0.4 C 4.33 g/m*3 0.4 C 0 km/h
117 01-02-2010 23:23:03 0.4 C 4.28 g/m*3 0.4 C 0 km/h
118 01-02-2010 23:35:03 0.3 C 4.25 g/m*3 0.3 C 0 km/h
119 01-02-2010 23:47:03 0.3 C 4.3 g/m*3 0.3 C 0 km/h
120 01-02-2010 23:59:03 0.3 C 4.3 g/m*3 0.3 C 0 km/h
121 02-02-2010 00:11:03 0.3 C 4.11 g/m*3 0.3 C 0 km/h
122 02-02-2010 00:23:03 0.4 C 3.84 g/m*3 0.4 C 0 km/h
123 02-02-2010 00:35:03 0.2 C 3.68 g/m*3 0.2 C 0 km/h
124 02-02-2010 00:47:03 0.1 C 3.66 g/m*3 0.1 C 0 km/h
125 02-02-2010 00:59:03 -0.1 C 3.56 g/m*3 -0.1 C 0 km/h
Sensor: Nr:Datum:Temp:Abs-Feuchte:Windchill:Wind:
Aussen-T/F 126 02-02-2010 01:11:03 -0.3 C 3.51 g/m*3 -0.3 C 0 km/h
127 02-02-2010 01:23:03 -0.5 C 3.51 g/m*3 -0.5 C 0 km/h
128 02-02-2010 01:35:03 -0.8 C 3.48 g/m*3 -0.8 C 0 km/h
129 02-02-2010 01:47:03 -0.7 C 3.6 g/m*3 -0.7 C 0 km/h
130 02-02-2010 01:59:03 -0.6 C 3.63 g/m*3 -0.6 C 0 km/h
131 02-02-2010 02:11:03 -0.6 C 3.53 g/m*3 -0.6 C 0 km/h
132 02-02-2010 02:23:03 -0.7 C 3.46 g/m*3 -0.7 C 0 km/h
133 02-02-2010 02:35:03 -1 C 3.3 g/m*3 -1 C 0 km/h
134 02-02-2010 02:47:03 -1.6 C 3.25 g/m*3 -1.6 C 0 km/h
135 02-02-2010 02:59:03 -2.1 C 3.22 g/m*3 -2.1 C 0 km/h
136 02-02-2010 03:11:03 -2.5 C 3.17 g/m*3 -2.5 C 0 km/h
137 02-02-2010 03:23:03 -2.8 C 3.15 g/m*3 -2.8 C 0 km/h
138 02-02-2010 03:35:03 -3 C 3.14 g/m*3 -3 C 0 km/h
139 02-02-2010 03:47:04 -3 C 3.18 g/m*3 -3 C 0 km/h
140 02-02-2010 03:59:04 -3 C 3.22 g/m*3 -3 C 0 km/h
141 02-02-2010 04:11:04 -3.1 C 3.24 g/m*3 -3.1 C 0 km/h
142 02-02-2010 04:23:04 -3 C 3.3 g/m*3 -3 C 0 km/h
143 02-02-2010 04:35:04 -2.9 C 3.36 g/m*3 -2.9 C 0 km/h
144 02-02-2010 04:47:04 -2.7 C 3.45 g/m*3 -2.7 C 0 km/h
145 02-02-2010 04:59:04 -2.6 C 3.48 g/m*3 -2.6 C 0 km/h
146 02-02-2010 05:11:04 -2.4 C 3.57 g/m*3 -2.4 C 0 km/h
147 02-02-2010 05:23:04 -2.2 C 3.62 g/m*3 -2.2 C 0 km/h
148 02-02-2010 05:35:04 -2.3 C 3.59 g/m*3 -2.3 C 0 km/h
149 02-02-2010 05:47:04 -2.4 C 3.52 g/m*3 -2.4 C 0 km/h
150 02-02-2010 05:59:04 -2.4 C 3.52 g/m*3 -2.4 C 0 km/h
Sensor: Nr:Datum:Temp:Abs-Feuchte:Windchill:Wind:
Aussen-T/F 151 02-02-2010 06:11:04 -2.3 C 3.55 g/m*3 -2.3 C 0 km/h
152 02-02-2010 06:23:04 -1.7 C 3.75 g/m*3 -1.7 C 0 km/h
153 02-02-2010 06:35:04 -1.2 C 3.74 g/m*3 -1.2 C 0 km/h
154 02-02-2010 06:47:04 -1.2 C 3.66 g/m*3 -1.2 C 0 km/h
155 02-02-2010 06:59:04 -1.3 C 3.59 g/m*3 -1.3 C 0 km/h
156 02-02-2010 07:11:02 -1.3 C 3.59 g/m*3 -1.3 C 0 km/h
157 02-02-2010 07:23:02 -1.6 C 3.47 g/m*3 -1.6 C 0 km/h
158 02-02-2010 07:35:02 -1.8 C 3.46 g/m*3 -1.8 C 0 km/h
159 02-02-2010 07:47:02 -1.7 C 3.49 g/m*3 -1.7 C 0 km/h
160 02-02-2010 07:59:02 -1.5 C 3.49 g/m*3 -1.5 C 0 km/h
161 02-02-2010 08:11:03 -1.4 C 3.52 g/m*3 -1.4 C 0 km/h
162 02-02-2010 08:23:02 -1.3 C 3.5 g/m*3 -1.3 C 0 km/h
163 02-02-2010 08:35:02 -1.2 C 3.48 g/m*3 -1.2 C 0 km/h
164 02-02-2010 08:47:02 -1.1 C 3.5 g/m*3 -1.1 C 0 km/h
165 02-02-2010 08:59:02 -0.8 C 3.53 g/m*3 -0.8 C 0 km/h
166 02-02-2010 09:11:02 -0.7 C 3.55 g/m*3 -0.7 C 0 km/h
167 02-02-2010 09:23:02 -0.6 C 3.63 g/m*3 -0.6 C 0 km/h
168 02-02-2010 09:35:02 -0.3 C 3.7 g/m*3 -0.3 C 0 km/h
169 02-02-2010 09:47:02 -0.1 C 3.75 g/m*3 -0.1 C 0 km/h
170 02-02-2010 09:59:02 0.1 C 3.81 g/m*3 0.1 C 0 km/h
171 02-02-2010 10:11:02 0.4 C 3.88 g/m*3 0.4 C 0 km/h
172 02-02-2010 10:23:02 0.6 C 3.89 g/m*3 0.6 C 0 km/h
173 02-02-2010 10:35:01 0.8 C 3.89 g/m*3 0.8 C 0 km/h
174 02-02-2010 10:47:02 1 C 3.89 g/m*3 1 C 0 km/h
175 02-02-2010 10:59:02 1.1 C 3.92 g/m*3 1.1 C 0 km/h
Sensor: Nr:Datum:Temp:Abs-Feuchte:Windchill:Wind:
Aussen-T/F 176 02-02-2010 11:11:01 1.3 C 3.92 g/m*3 1.3 C 0 km/h
177 02-02-2010 11:23:02 1.5 C 3.97 g/m*3 1.5 C 0 km/h
178 02-02-2010 11:35:01 1.5 C 3.97 g/m*3 1.5 C 0 km/h
179 02-02-2010 11:47:03 1.5 C 3.97 g/m*3 1.5 C 0 km/h
180 02-02-2010 11:59:03 1.6 C 4.06 g/m*3 1.6 C 0 km/h
181 02-02-2010 12:11:02 1.8 C 4.11 g/m*3 1.8 C 0 km/h
182 02-02-2010 12:23:03 1.9 C 4.14 g/m*3 1.9 C 0 km/h
183 02-02-2010 12:35:02 2 C 4.11 g/m*3 2 C 0 km/h
184 02-02-2010 12:47:02 2.1 C 4.14 g/m*3 2.1 C 0 km/h
185 02-02-2010 12:59:02 2.2 C 4.22 g/m*3 2.2 C 0 km/h
186 02-02-2010 13:11:02 2.2 C 4.22 g/m*3 2.2 C 0 km/h
187 02-02-2010 13:23:02 2.4 C 4.23 g/m*3 2.4 C 0 km/h
188 02-02-2010 13:35:02 2.6 C 4.22 g/m*3 2.6 C 0 km/h
189 02-02-2010 13:47:02 2.6 C 4.17 g/m*3 2.6 C 0 km/h
190 02-02-2010 13:59:02 2.8 C 4.22 g/m*3 2.8 C 0 km/h
191 02-02-2010 14:11:02 2.8 C 4.22 g/m*3 2.8 C 0 km/h
192 02-02-2010 14:23:02 2.9 C 4.25 g/m*3 2.9 C 0 km/h
193 02-02-2010 14:35:01 2.9 C 4.25 g/m*3 2.9 C 0 km/h
194 02-02-2010 14:47:02 2.9 C 4.19 g/m*3 2.9 C 0 km/h
195 02-02-2010 14:59:02 2.7 C 4.2 g/m*3 2.7 C 0 km/h
196 02-02-2010 15:11:01 2.7 C 4.31 g/m*3 2.7 C 0 km/h
197 02-02-2010 15:23:02 2.7 C 4.37 g/m*3 2.7 C 0 km/h
198 02-02-2010 15:35:01 2.7 C 4.37 g/m*3 2.7 C 0 km/h
199 02-02-2010 15:47:03 2.6 C 4.4 g/m*3 2.6 C 0 km/h
200 02-02-2010 15:59:03 2.6 C 4.4 g/m*3 2.6 C 0 km/h
Sensor: Nr:Datum:Temp:Abs-Feuchte:Windchill:Wind:
Aussen-T/F 201 02-02-2010 16:11:02 2.5 C 4.37 g/m*3 2.5 C 0 km/h
202 02-02-2010 16:23:03 2.4 C 4.4 g/m*3 2.4 C 0 km/h
203 02-02-2010 16:35:02 2.4 C 4.45 g/m*3 2.4 C 0 km/h
204 02-02-2010 16:47:03 2.3 C 4.48 g/m*3 2.3 C 0 km/h
205 02-02-2010 16:59:03 2.2 C 4.45 g/m*3 2.2 C 0 km/h
206 02-02-2010 17:11:02 2.1 C 4.48 g/m*3 2.1 C 0 km/h
207 02-02-2010 17:23:02 2.1 C 4.48 g/m*3 2.1 C 0 km/h
208 02-02-2010 17:35:02 2.1 C 4.48 g/m*3 2.1 C 0 km/h
209 02-02-2010 17:47:02 2.2 C 4.45 g/m*3 2.2 C 0 km/h
210 02-02-2010 17:59:02 2.2 C 4.45 g/m*3 2.2 C 0 km/h
211 02-02-2010 18:11:02 2.3 C 4.48 g/m*3 2.3 C 0 km/h
212 02-02-2010 18:23:02 2.2 C 4.45 g/m*3 2.2 C 0 km/h
213 02-02-2010 18:35:01 2.2 C 4.45 g/m*3 2.2 C 0 km/h
214 02-02-2010 18:47:02 2.2 C 4.39 g/m*3 2.2 C 0 km/h
215 02-02-2010 18:59:02 2.2 C 4.39 g/m*3 2.2 C 0 km/h
216 02-02-2010 19:11:01 2.3 C 4.42 g/m*3 2.3 C 0 km/h
217 02-02-2010 19:23:02 2.2 C 4.45 g/m*3 2.2 C 0 km/h
218 02-02-2010 19:35:01 2.1 C 4.48 g/m*3 2.1 C 0 km/h
219 02-02-2010 19:47:02 2.1 C 4.53 g/m*3 2.1 C 0 km/h
220 02-02-2010 19:59:02 2.2 C 4.56 g/m*3 2.2 C 0 km/h
221 02-02-2010 20:11:01 2.2 C 4.56 g/m*3 2.2 C 0 km/h
222 02-02-2010 20:23:02 2.4 C 4.62 g/m*3 2.4 C 0 km/h
223 02-02-2010 20:35:01 2.5 C 4.6 g/m*3 2.5 C 0 km/h
224 02-02-2010 20:47:02 2.4 C 4.57 g/m*3 2.4 C 0 km/h
225 02-02-2010 20:59:02 2.5 C 4.6 g/m*3 2.5 C 0 km/h
Sensor: Nr:Datum:Temp:Abs-Feuchte:Windchill:Wind:
Aussen-T/F 226 02-02-2010 21:11:02 2.6 C 4.57 g/m*3 2.6 C 0 km/h
227 02-02-2010 21:23:02 2.6 C 4.57 g/m*3 2.6 C 0 km/h
228 02-02-2010 21:35:02 2.6 C 4.57 g/m*3 2.6 C 0 km/h
229 02-02-2010 21:48:03 2.6 C 4.63 g/m*3 2.6 C 0 km/h
230 02-02-2010 22:00:03 2.7 C 4.66 g/m*3 2.7 C 0 km/h
231 02-02-2010 22:12:03 2.6 C 4.69 g/m*3 2.6 C 0 km/h
232 02-02-2010 22:24:03 2.5 C 4.77 g/m*3 2.5 C 0 km/h
233 02-02-2010 22:36:03 2.4 C 4.8 g/m*3 2.4 C 0 km/h
234 02-02-2010 22:48:03 2.4 C 4.8 g/m*3 2.4 C 0 km/h
235 02-02-2010 23:00:03 2.5 C 4.83 g/m*3 2.5 C 0 km/h
236 02-02-2010 23:12:03 2.7 C 4.84 g/m*3 2.7 C 0 km/h
237 02-02-2010 23:24:03 2.7 C 4.78 g/m*3 2.7 C 0 km/h
238 02-02-2010 23:36:03 2.8 C 4.81 g/m*3 2.8 C 0 km/h
239 02-02-2010 23:48:04 2.9 C 4.84 g/m*3 2.9 C 0 km/h
240 03-02-2010 00:00:04 2.8 C 4.81 g/m*3 2.8 C 0 km/h
241 03-02-2010 00:12:04 3.3 C 4.91 g/m*3 3.3 C 0 km/h
242 03-02-2010 00:24:04 3.6 C 4.89 g/m*3 3.6 C 0 km/h
243 03-02-2010 00:36:04 3.7 C 4.92 g/m*3 3.7 C 0 km/h
244 03-02-2010 00:48:04 4 C 4.96 g/m*3 4 C 0 km/h
245 03-02-2010 01:00:04 4 C 4.9 g/m*3 4 C 0 km/h
246 03-02-2010 01:12:04 4 C 4.9 g/m*3 4 C 0 km/h
247 03-02-2010 01:24:04 4 C 4.96 g/m*3 4 C 0 km/h
248 03-02-2010 01:36:04 4.3 C 5.06 g/m*3 4.3 C 0 km/h
249 03-02-2010 01:48:04 4.4 C 5.09 g/m*3 4.4 C 0 km/h
250 03-02-2010 02:00:04 4.6 C 5.16 g/m*3 4.6 C 0 km/h
Sensor: Nr:Datum:Temp:Abs-Feuchte:Windchill:Wind:
Aussen-T/F 251 03-02-2010 02:12:04 4.8 C 5.16 g/m*3 4.8 C 0 km/h
252 03-02-2010 02:24:04 4.7 C 5.13 g/m*3 4.7 C 0 km/h
253 03-02-2010 02:36:04 2.9 C 4.78 g/m*3 2.9 C 0 km/h
254 03-02-2010 02:48:04 2.4 C 4.8 g/m*3 2.4 C 0 km/h
255 03-02-2010 03:00:04 2.1 C 4.81 g/m*3 2.1 C 0 km/h
256 03-02-2010 03:12:04 1.9 C 4.86 g/m*3 1.9 C 0 km/h
257 03-02-2010 03:24:04 1.7 C 4.85 g/m*3 1.7 C 0 km/h
258 03-02-2010 03:36:04 1.6 C 4.87 g/m*3 1.6 C 0 km/h
259 03-02-2010 03:48:04 1.6 C 4.87 g/m*3 1.6 C 0 km/h
260 03-02-2010 04:00:05 1.5 C 4.89 g/m*3 1.5 C 0 km/h
261 03-02-2010 04:12:05 1.2 C 4.79 g/m*3 1.2 C 0 km/h
262 03-02-2010 04:24:05 0.9 C 4.69 g/m*3 0.9 C 0 km/h
263 03-02-2010 04:36:05 0.8 C 4.66 g/m*3 0.8 C 0 km/h
264 03-02-2010 04:48:05 1 C 4.72 g/m*3 1 C 0 km/h
265 03-02-2010 05:00:05 1.1 C 4.81 g/m*3 1.1 C 0 km/h
266 03-02-2010 05:12:05 1.1 C 4.81 g/m*3 1.1 C 0 km/h
267 03-02-2010 05:24:05 1.1 C 4.86 g/m*3 1.1 C 0 km/h
268 03-02-2010 05:36:05 1.1 C 4.86 g/m*3 1.1 C 0 km/h
269 03-02-2010 05:48:05 1.2 C 4.89 g/m*3 1.2 C 0 km/h
270 03-02-2010 06:00:05 1.1 C 4.91 g/m*3 1.1 C 0 km/h
271 03-02-2010 06:12:05 1.1 C 4.91 g/m*3 1.1 C 0 km/h
272 03-02-2010 06:24:05 1.1 C 4.91 g/m*3 1.1 C 0 km/h
273 03-02-2010 06:36:05 1 C 4.88 g/m*3 1 C 0 km/h
274 03-02-2010 06:48:05 1.1 C 4.91 g/m*3 1.1 C 0 km/h
275 03-02-2010 07:00:05 1 C 4.88 g/m*3 1 C 0 km/h
Sensor: Nr:Datum:Temp:Abs-Feuchte:Windchill:Wind:
Aussen-T/F 276 03-02-2010 07:12:03 0.9 C 4.9 g/m*3 0.9 C 0 km/h
277 03-02-2010 07:24:02 1 C 4.88 g/m*3 1 C 0 km/h
278 03-02-2010 07:36:03 1 C 4.93 g/m*3 1 C 0 km/h
279 03-02-2010 07:48:02 1 C 4.93 g/m*3 1 C 0 km/h
280 03-02-2010 08:00:02 1 C 4.93 g/m*3 1 C 0 km/h
281 03-02-2010 08:12:01 1 C 4.93 g/m*3 1 C 0 km/h
282 03-02-2010 08:24:02 1 C 4.93 g/m*3 1 C 0 km/h
283 03-02-2010 08:36:02 1.1 C 4.96 g/m*3 1.1 C 0 km/h
284 03-02-2010 08:48:02 1.2 C 5 g/m*3 1.2 C 0 km/h
285 03-02-2010 09:00:02 1.2 C 5 g/m*3 1.2 C 0 km/h
286 03-02-2010 09:12:03 1.3 C 5.03 g/m*3 1.3 C 0 km/h
287 03-02-2010 09:24:02 1.5 C 5.1 g/m*3 1.5 C 0 km/h
288 03-02-2010 09:36:02 1.5 C 5.1 g/m*3 1.5 C 0 km/h
289 03-02-2010 09:48:02 1.7 C 5.17 g/m*3 1.7 C 0 km/h
290 03-02-2010 10:00:02 2 C 5.22 g/m*3 2 C 0 km/h
291 03-02-2010 10:12:01 2.2 C 5.29 g/m*3 2.2 C 0 km/h
292 03-02-2010 10:24:02 2.3 C 5.27 g/m*3 2.3 C 0 km/h
293 03-02-2010 10:36:02 2.7 C 5.36 g/m*3 2.7 C 0 km/h
294 03-02-2010 10:48:02 3.1 C 5.45 g/m*3 3.1 C 0 km/h
295 03-02-2010 11:00:02 3.1 C 5.33 g/m*3 3.1 C 0 km/h
296 03-02-2010 11:12:02 3 C 5.11 g/m*3 3 C 0 km/h
297 03-02-2010 11:24:02 3.3 C 5.22 g/m*3 3.3 C 0 km/h
298 03-02-2010 11:36:02 3.3 C 5.1 g/m*3 3.3 C 0 km/h
299 03-02-2010 11:48:02 3.1 C 4.97 g/m*3 3.1 C 0 km/h
300 03-02-2010 12:00:02 3.2 C 5.06 g/m*3 3.2 C 0 km/h
Sensor: Nr:Datum:Temp:Abs-Feuchte:Windchill:Wind:
Aussen-T/F 301 03-02-2010 12:12:01 3.1 C 5.03 g/m*3 3.1 C 0 km/h
302 03-02-2010 12:24:02 3 C 5.05 g/m*3 3 C 0 km/h
303 03-02-2010 12:36:02 3 C 5.11 g/m*3 3 C 0 km/h
304 03-02-2010 12:48:02 3.1 C 5.15 g/m*3 3.1 C 0 km/h
305 03-02-2010 13:00:02 3.1 C 5.21 g/m*3 3.1 C 0 km/h
306 03-02-2010 13:12:02 3.1 C 5.21 g/m*3 3.1 C 0 km/h
307 03-02-2010 13:24:02 3.3 C 5.28 g/m*3 3.3 C 0 km/h
308 03-02-2010 13:36:02 3.2 C 5.24 g/m*3 3.2 C 0 km/h
309 03-02-2010 13:48:02 3.3 C 5.28 g/m*3 3.3 C 0 km/h
310 03-02-2010 14:00:02 3.3 C 5.28 g/m*3 3.3 C 0 km/h
311 03-02-2010 14:12:02 3.3 C 5.28 g/m*3 3.3 C 0 km/h
312 03-02-2010 14:24:02 3.3 C 5.28 g/m*3 3.3 C 0 km/h
313 03-02-2010 14:36:02 3.3 C 5.28 g/m*3 3.3 C 0 km/h
314 03-02-2010 14:48:02 3.2 C 5.24 g/m*3 3.2 C 0 km/h
315 03-02-2010 15:00:02 3.2 C 5.24 g/m*3 3.2 C 0 km/h
316 03-02-2010 15:12:02 3.1 C 5.27 g/m*3 3.1 C 0 km/h
317 03-02-2010 15:24:02 2.9 C 5.2 g/m*3 2.9 C 0 km/h
318 03-02-2010 15:36:02 3 C 5.23 g/m*3 3 C 0 km/h
319 03-02-2010 15:48:02 2.9 C 5.26 g/m*3 2.9 C 0 km/h
320 03-02-2010 16:00:02 2.8 C 5.22 g/m*3 2.8 C 0 km/h
321 03-02-2010 16:12:02 2.6 C 5.15 g/m*3 2.6 C 0 km/h
322 03-02-2010 16:24:02 2.6 C 5.15 g/m*3 2.6 C 0 km/h
323 03-02-2010 16:36:02 2.5 C 5.12 g/m*3 2.5 C 0 km/h
324 03-02-2010 16:48:02 2.4 C 5.08 g/m*3 2.4 C 0 km/h
325 03-02-2010 17:00:02 2.4 C 5.14 g/m*3 2.4 C 0 km/h
Sensor: Nr:Datum:Temp:Abs-Feuchte:Windchill:Wind:
Aussen-T/F 326 03-02-2010 17:12:02 2.3 C 5.1 g/m*3 2.3 C 0 km/h
327 03-02-2010 17:24:02 2.2 C 5.07 g/m*3 2.2 C 0 km/h
328 03-02-2010 17:36:02 2.1 C 5.04 g/m*3 2.1 C 0 km/h
329 03-02-2010 17:48:01 1.9 C 5.02 g/m*3 1.9 C 0 km/h
330 03-02-2010 18:00:01 1.9 C 5.02 g/m*3 1.9 C 0 km/h
331 03-02-2010 18:12:02 1.9 C 5.02 g/m*3 1.9 C 0 km/h
332 03-02-2010 18:24:01 1.9 C 5.08 g/m*3 1.9 C 0 km/h
333 03-02-2010 18:36:01 1.9 C 5.08 g/m*3 1.9 C 0 km/h
334 03-02-2010 18:48:01 1.8 C 5.04 g/m*3 1.8 C 0 km/h
335 03-02-2010 19:00:01 1.8 C 5.04 g/m*3 1.8 C 0 km/h
336 03-02-2010 19:12:02 1.7 C 5.01 g/m*3 1.7 C 0 km/h
337 03-02-2010 19:20:01 1.7 C 5.01 g/m*3 1.7 C 0 km/h
338 03-02-2010 19:45:01 1.8 C 5.04 g/m*3 1.8 C 0 km/h
339 03-02-2010 20:10:02 1.9 C 5.13 g/m*3 1.9 C 0 km/h
340 03-02-2010 20:35:01 1.8 C 5.1 g/m*3 1.8 C 0 km/h
341 03-02-2010 21:00:01 1.7 C 5.06 g/m*3 1.7 C 0 km/h
342 03-02-2010 21:25:01 1.7 C 5.06 g/m*3 1.7 C 0 km/h
343 03-02-2010 21:50:02 1.8 C 5.1 g/m*3 1.8 C 0 km/h
344 03-02-2010 22:15:03 1.8 C 5.1 g/m*3 1.8 C 0 km/h
345 03-02-2010 22:40:02 1.8 C 5.1 g/m*3 1.8 C 0 km/h
346 03-02-2010 23:05:02 1.8 C 5.1 g/m*3 1.8 C 0 km/h
347 03-02-2010 23:30:02 1.8 C 5.1 g/m*3 1.8 C 0 km/h
348 03-02-2010 23:55:02 2 C 5.17 g/m*3 2 C 0 km/h
349 04-02-2010 00:20:02 2 C 5.17 g/m*3 2 C 0 km/h
350 04-02-2010 00:45:02 2 C 5.17 g/m*3 2 C 0 km/h
Sensor: Nr:Datum:Temp:Abs-Feuchte:Windchill:Wind:
Aussen-T/F 351 04-02-2010 01:10:02 2 C 5.17 g/m*3 2 C 0 km/h
352 04-02-2010 01:35:02 2 C 5.22 g/m*3 2 C 0 km/h
353 04-02-2010 02:00:02 2.1 C 5.26 g/m*3 2.1 C 0 km/h
354 04-02-2010 02:25:03 2.2 C 5.29 g/m*3 2.2 C 0 km/h
355 04-02-2010 02:51:03 2.1 C 5.26 g/m*3 2.1 C 0 km/h
356 04-02-2010 03:16:04 2.2 C 5.29 g/m*3 2.2 C 0 km/h
357 04-02-2010 03:41:01 2.3 C 5.33 g/m*3 2.3 C 0 km/h
358 04-02-2010 04:06:02 2.3 C 5.33 g/m*3 2.3 C 0 km/h
359 04-02-2010 04:31:02 2.3 C 5.33 g/m*3 2.3 C 0 km/h
360 04-02-2010 04:56:01 2.4 C 5.37 g/m*3 2.4 C 0 km/h
361 04-02-2010 05:21:02 2.5 C 5.46 g/m*3 2.5 C 0 km/h
362 04-02-2010 05:46:02 2.7 C 5.54 g/m*3 2.7 C 0 km/h
363 04-02-2010 06:11:01 3 C 5.65 g/m*3 3 C 0 km/h
364 04-02-2010 06:51:02 3.6 C 5.88 g/m*3 3.6 C 0 km/h
365 04-02-2010 07:16:02 3.4 C 5.8 g/m*3 3.4 C 0 km/h
366 04-02-2010 07:41:02 3.2 C 5.72 g/m*3 3.2 C 0 km/h
367 04-02-2010 08:06:02 3.3 C 5.76 g/m*3 3.3 C 0 km/h
368 04-02-2010 08:31:02 3.2 C 5.72 g/m*3 3.2 C 0 km/h
369 04-02-2010 08:56:02 3.3 C 5.76 g/m*3 3.3 C 0 km/h
370 04-02-2010 09:21:02 3.7 C 5.92 g/m*3 3.7 C 0 km/h
371 04-02-2010 09:46:02 4.5 C 6.24 g/m*3 4.5 C 0 km/h
372 04-02-2010 10:11:02 4.7 C 6.19 g/m*3 4.7 C 0 km/h
373 04-02-2010 10:36:02 5.2 C 6.13 g/m*3 5.2 C 0 km/h
374 04-02-2010 11:01:02 5.7 C 6.19 g/m*3 5.7 C 0 km/h
375 04-02-2010 11:26:02 6.3 C 6.07 g/m*3 6.3 C 0 km/h
Sensor: Nr:Datum:Temp:Abs-Feuchte:Windchill:Wind:
Aussen-T/F 376 04-02-2010 11:51:02 6.9 C 6 g/m*3 6.9 C 0 km/h
377 04-02-2010 12:16:02 7.1 C 5.85 g/m*3 7.1 C 0 km/h
378 04-02-2010 12:41:02 7.5 C 5.92 g/m*3 7.5 C 0 km/h
379 04-02-2010 13:06:02 8 C 5.95 g/m*3 8 C 0 km/h
380 04-02-2010 13:31:02 8.5 C 5.98 g/m*3 8.5 C 0 km/h
381 04-02-2010 13:56:02 8.7 C 5.88 g/m*3 8.7 C 0 km/h
382 04-02-2010 14:21:02 8.5 C 5.81 g/m*3 8.5 C 0 km/h
383 04-02-2010 14:46:03 8.2 C 5.61 g/m*3 8.2 C 0 km/h
384 04-02-2010 15:11:03 8.8 C 5.92 g/m*3 8.8 C 0 km/h
385 04-02-2010 15:36:03 8.8 C 5.74 g/m*3 8.8 C 0 km/h
386 04-02-2010 16:01:03 7.8 C 5.55 g/m*3 7.8 C 0 km/h
387 04-02-2010 16:26:03 7.5 C 5.52 g/m*3 7.5 C 0 km/h
388 04-02-2010 16:51:03 6.2 C 5.37 g/m*3 6.2 C 0 km/h
389 04-02-2010 17:16:03 5.7 C 5.48 g/m*3 5.7 C 0 km/h
390 04-02-2010 17:41:03 5 C 5.37 g/m*3 5 C 0 km/h
391 04-02-2010 18:06:03 4.4 C 5.29 g/m*3 4.4 C 0 km/h
392 04-02-2010 18:31:03 4 C 5.28 g/m*3 4 C 0 km/h
393 04-02-2010 18:56:03 3.6 C 5.2 g/m*3 3.6 C 0 km/h
394 04-02-2010 19:21:03 3.3 C 5.16 g/m*3 3.3 C 0 km/h
395 04-02-2010 19:46:03 3 C 5.11 g/m*3 3 C 0 km/h
396 04-02-2010 20:11:03 2.7 C 5.13 g/m*3 2.7 C 0 km/h
397 04-02-2010 20:36:03 2.5 C 5.12 g/m*3 2.5 C 0 km/h
398 04-02-2010 21:01:03 2.5 C 5.17 g/m*3 2.5 C 0 km/h
399 04-02-2010 21:26:03 2.6 C 5.27 g/m*3 2.6 C 0 km/h
400 04-02-2010 21:51:03 2.1 C 5.04 g/m*3 2.1 C 0 km/h
Sensor: Nr:Datum:Temp:Abs-Feuchte:Windchill:Wind:
Aussen-T/F 401 04-02-2010 22:16:03 2.2 C 5.18 g/m*3 2.2 C 0 km/h
402 04-02-2010 22:41:03 1.8 C 5.04 g/m*3 1.8 C 0 km/h
403 04-02-2010 23:06:03 1.8 C 5.1 g/m*3 1.8 C 0 km/h
404 04-02-2010 23:31:03 1.7 C 5.06 g/m*3 1.7 C 0 km/h
405 04-02-2010 23:56:04 2.1 C 5.2 g/m*3 2.1 C 0 km/h
406 05-02-2010 00:21:04 2.6 C 5.44 g/m*3 2.6 C 0 km/h
407 05-02-2010 00:46:04 2.2 C 5.24 g/m*3 2.2 C 0 km/h
408 05-02-2010 01:11:04 2 C 5.17 g/m*3 2 C 0 km/h
409 05-02-2010 01:36:04 1.7 C 5.12 g/m*3 1.7 C 0 km/h
410 05-02-2010 02:01:04 2.2 C 5.24 g/m*3 2.2 C 0 km/h
411 05-02-2010 02:26:04 2.6 C 5.38 g/m*3 2.6 C 0 km/h
412 05-02-2010 02:51:04 2.7 C 5.3 g/m*3 2.7 C 0 km/h
413 05-02-2010 03:16:04 2.7 C 5.19 g/m*3 2.7 C 0 km/h
414 05-02-2010 03:41:04 2.8 C 5.04 g/m*3 2.8 C 0 km/h
415 05-02-2010 04:06:04 2.8 C 5.04 g/m*3 2.8 C 0 km/h
416 05-02-2010 04:31:04 2.8 C 4.93 g/m*3 2.8 C 0 km/h
417 05-02-2010 04:56:04 2.8 C 4.93 g/m*3 2.8 C 0 km/h
418 05-02-2010 05:21:04 2.7 C 4.89 g/m*3 2.7 C 0 km/h
419 05-02-2010 05:46:04 2.7 C 4.84 g/m*3 2.7 C 0 km/h
420 05-02-2010 06:11:04 2.8 C 4.87 g/m*3 2.8 C 0 km/h
421 05-02-2010 06:36:04 2.7 C 4.84 g/m*3 2.7 C 0 km/h
422 05-02-2010 07:01:04 2.4 C 4.74 g/m*3 2.4 C 0 km/h
423 05-02-2010 07:26:04 2.5 C 4.89 g/m*3 2.5 C 0 km/h
424 05-02-2010 07:51:04 2.8 C 4.99 g/m*3 2.8 C 0 km/h
425 05-02-2010 08:16:04 3.2 C 4.88 g/m*3 3.2 C 0 km/h
Sensor: Nr:Datum:Temp:Abs-Feuchte:Windchill:Wind:
Aussen-T/F 426 05-02-2010 08:41:05 3.4 C 4.89 g/m*3 3.4 C 0 km/h
427 05-02-2010 09:06:05 3.6 C 4.89 g/m*3 3.6 C 0 km/h
428 05-02-2010 09:31:05 3.8 C 4.83 g/m*3 3.8 C 0 km/h
429 05-02-2010 09:56:05 4.1 C 4.67 g/m*3 4.1 C 0 km/h
430 05-02-2010 10:21:05 4.1 C 4.54 g/m*3 4.1 C 0 km/h
431 05-02-2010 10:46:05 4 C 4.51 g/m*3 4 C 0 km/h
432 05-02-2010 11:11:05 4.3 C 4.54 g/m*3 4.3 C 0 km/h
433 05-02-2010 11:36:05 4.3 C 4.41 g/m*3 4.3 C 0 km/h
434 05-02-2010 12:01:05 4.4 C 4.37 g/m*3 4.4 C 0 km/h
435 05-02-2010 12:26:05 4.4 C 4.31 g/m*3 4.4 C 0 km/h
436 05-02-2010 12:51:05 4.3 C 4.28 g/m*3 4.3 C 0 km/h
437 05-02-2010 13:16:05 4.5 C 4.4 g/m*3 4.5 C 0 km/h
438 05-02-2010 13:41:05 4.9 C 4.52 g/m*3 4.9 C 0 km/h
439 05-02-2010 14:06:05 5.1 C 4.38 g/m*3 5.1 C 0 km/h
440 05-02-2010 14:31:05 4.8 C 4.36 g/m*3 4.8 C 0 km/h
441 05-02-2010 14:56:05 4.6 C 4.37 g/m*3 4.6 C 0 km/h
442 05-02-2010 15:21:05 4.5 C 4.4 g/m*3 4.5 C 0 km/h
443 05-02-2010 15:46:05 4.2 C 4.38 g/m*3 4.2 C 0 km/h
444 05-02-2010 16:11:05 3.8 C 4.64 g/m*3 3.8 C 0 km/h
445 05-02-2010 16:36:05 3.6 C 4.7 g/m*3 3.6 C 0 km/h
446 05-02-2010 17:01:05 3.4 C 4.83 g/m*3 3.4 C 0 km/h
447 05-02-2010 17:26:05 3.4 C 4.95 g/m*3 3.4 C 0 km/h
448 05-02-2010 17:51:06 3.2 C 4.94 g/m*3 3.2 C 0 km/h
449 05-02-2010 18:16:06 3.3 C 5.04 g/m*3 3.3 C 0 km/h
450 05-02-2010 18:41:06 3.1 C 5.03 g/m*3 3.1 C 0 km/h
Sensor: Nr:Datum:Temp:Abs-Feuchte:Windchill:Wind:
Aussen-T/F 451 05-02-2010 19:06:06 3.2 C 5.12 g/m*3 3.2 C 0 km/h
452 05-02-2010 19:31:06 3 C 5.05 g/m*3 3 C 0 km/h
453 05-02-2010 19:56:06 3.1 C 5.09 g/m*3 3.1 C 0 km/h
454 05-02-2010 20:21:06 3 C 5.11 g/m*3 3 C 0 km/h
455 05-02-2010 20:46:06 2.8 C 5.1 g/m*3 2.8 C 0 km/h
456 05-02-2010 21:11:06 2.8 C 5.16 g/m*3 2.8 C 0 km/h
457 05-02-2010 21:36:06 2.6 C 5.09 g/m*3 2.6 C 0 km/h
458 05-02-2010 22:01:06 2.7 C 5.19 g/m*3 2.7 C 0 km/h
459 05-02-2010 22:26:06 2.9 C 5.26 g/m*3 2.9 C 0 km/h
460 05-02-2010 22:51:06 3 C 5.23 g/m*3 3 C 0 km/h
461 05-02-2010 23:16:06 3 C 5.23 g/m*3 3 C 0 km/h
462 05-02-2010 23:41:06 3 C 5.23 g/m*3 3 C 0 km/h
463 06-02-2010 00:06:06 2.8 C 5.22 g/m*3 2.8 C 0 km/h
464 06-02-2010 00:31:06 2.8 C 5.22 g/m*3 2.8 C 0 km/h
465 06-02-2010 00:56:06 2.7 C 5.19 g/m*3 2.7 C 0 km/h
466 06-02-2010 01:21:06 2.4 C 5.08 g/m*3 2.4 C 0 km/h
467 06-02-2010 01:46:06 2.1 C 4.98 g/m*3 2.1 C 0 km/h
468 06-02-2010 02:11:06 2.4 C 5.14 g/m*3 2.4 C 0 km/h
469 06-02-2010 02:36:06 2.7 C 5.24 g/m*3 2.7 C 0 km/h
470 06-02-2010 03:01:07 2.8 C 5.28 g/m*3 2.8 C 0 km/h
471 06-02-2010 03:26:07 2.5 C 5.17 g/m*3 2.5 C 0 km/h
472 06-02-2010 03:51:07 2.4 C 5.14 g/m*3 2.4 C 0 km/h
473 06-02-2010 04:16:07 2.6 C 5.27 g/m*3 2.6 C 0 km/h
474 06-02-2010 04:41:07 2.8 C 5.34 g/m*3 2.8 C 0 km/h
475 06-02-2010 05:06:07 3 C 5.41 g/m*3 3 C 0 km/h
Sensor: Nr:Datum:Temp:Abs-Feuchte:Windchill:Wind:
Aussen-T/F 476 06-02-2010 05:31:07 3 C 5.41 g/m*3 3 C 0 km/h
477 06-02-2010 05:56:07 3 C 5.41 g/m*3 3 C 0 km/h
478 06-02-2010 06:21:07 3.2 C 5.48 g/m*3 3.2 C 0 km/h
479 06-02-2010 06:46:07 3 C 5.41 g/m*3 3 C 0 km/h
480 06-02-2010 07:11:07 3 C 5.41 g/m*3 3 C 0 km/h
481 06-02-2010 07:36:07 3.1 C 5.45 g/m*3 3.1 C 0 km/h
482 06-02-2010 08:01:07 3.1 C 5.45 g/m*3 3.1 C 0 km/h
483 06-02-2010 08:26:07 3.2 C 5.48 g/m*3 3.2 C 0 km/h
484 06-02-2010 08:51:07 3.4 C 5.56 g/m*3 3.4 C 0 km/h
485 06-02-2010 09:16:07 3.7 C 5.67 g/m*3 3.7 C 0 km/h
486 06-02-2010 09:41:07 4 C 5.72 g/m*3 4 C 0 km/h
487 06-02-2010 10:06:07 4.6 C 5.89 g/m*3 4.6 C 0 km/h
488 06-02-2010 10:31:07 5.1 C 5.95 g/m*3 5.1 C 0 km/h
489 06-02-2010 10:56:07 5.6 C 6.01 g/m*3 5.6 C 0 km/h
490 06-02-2010 11:21:07 5.7 C 5.84 g/m*3 5.7 C 0 km/h
491 06-02-2010 11:46:07 6.3 C 5.85 g/m*3 6.3 C 0 km/h
492 06-02-2010 12:11:07 6.7 C 5.93 g/m*3 6.7 C 0 km/h
493 06-02-2010 12:36:08 6.9 C 6 g/m*3 6.9 C 0 km/h
494 06-02-2010 13:01:08 7.3 C 5.69 g/m*3 7.3 C 0 km/h
495 06-02-2010 13:26:08 7.4 C 5.65 g/m*3 7.4 C 0 km/h
496 06-02-2010 13:51:08 7.3 C 5.29 g/m*3 7.3 C 0 km/h
497 06-02-2010 14:16:08 7.1 C 5.23 g/m*3 7.1 C 0 km/h
498 06-02-2010 14:41:08 7 C 5.27 g/m*3 7 C 0 km/h
499 06-02-2010 15:06:08 6.7 C 5.39 g/m*3 6.7 C 0 km/h
500 06-02-2010 15:31:08 6.5 C 5.47 g/m*3 6.5 C 0 km/h
Sensor: Nr:Datum:Temp:Abs-Feuchte:Windchill:Wind:
Aussen-T/F 501 06-02-2010 15:56:08 6.4 C 5.36 g/m*3 6.4 C 0 km/h
502 06-02-2010 16:21:08 6.2 C 5.44 g/m*3 6.2 C 0 km/h
503 06-02-2010 16:46:08 6 C 5.37 g/m*3 6 C 0 km/h
504 06-02-2010 17:11:08 5.8 C 5.44 g/m*3 5.8 C 0 km/h
505 06-02-2010 17:36:08 5.7 C 5.48 g/m*3 5.7 C 0 km/h
506 06-02-2010 18:01:08 5.5 C 5.41 g/m*3 5.5 C 0 km/h
507 06-02-2010 18:26:08 5.3 C 5.41 g/m*3 5.3 C 0 km/h
508 06-02-2010 18:51:08 5.2 C 5.37 g/m*3 5.2 C 0 km/h
509 06-02-2010 19:16:08 5.1 C 5.4 g/m*3 5.1 C 0 km/h
510 06-02-2010 19:41:08 5.1 C 5.4 g/m*3 5.1 C 0 km/h
511 06-02-2010 20:06:08 5 C 5.37 g/m*3 5 C 0 km/h
512 06-02-2010 20:31:08 4.9 C 5.4 g/m*3 4.9 C 0 km/h
513 06-02-2010 20:56:08 4.9 C 5.47 g/m*3 4.9 C 0 km/h
514 06-02-2010 21:21:09 4.8 C 5.43 g/m*3 4.8 C 0 km/h
515 06-02-2010 21:46:09 4.8 C 5.43 g/m*3 4.8 C 0 km/h
516 06-02-2010 22:11:09 4.8 C 5.5 g/m*3 4.8 C 0 km/h
517 06-02-2010 22:36:09 4.7 C 5.46 g/m*3 4.7 C 0 km/h
518 06-02-2010 23:01:09 4.7 C 5.46 g/m*3 4.7 C 0 km/h
519 06-02-2010 23:26:09 4.6 C 5.43 g/m*3 4.6 C 0 km/h
520 06-02-2010 23:51:09 4.6 C 5.43 g/m*3 4.6 C 0 km/h
521 07-02-2010 00:16:09 4.5 C 5.46 g/m*3 4.5 C 0 km/h
522 07-02-2010 00:41:09 4.5 C 5.46 g/m*3 4.5 C 0 km/h
523 07-02-2010 01:06:09 4.5 C 5.46 g/m*3 4.5 C 0 km/h
524 07-02-2010 01:31:09 4.6 C 5.49 g/m*3 4.6 C 0 km/h
525 07-02-2010 01:56:09 4.4 C 5.42 g/m*3 4.4 C 0 km/h
Sensor: Nr:Datum:Temp:Abs-Feuchte:Windchill:Wind:
Aussen-T/F 526 07-02-2010 02:21:09 4.2 C 5.41 g/m*3 4.2 C 0 km/h
527 07-02-2010 02:46:09 4.1 C 5.38 g/m*3 4.1 C 0 km/h
528 07-02-2010 03:11:09 4.1 C 5.5 g/m*3 4.1 C 0 km/h
529 07-02-2010 03:36:09 4.1 C 5.5 g/m*3 4.1 C 0 km/h
530 07-02-2010 04:01:09 4.1 C 5.57 g/m*3 4.1 C 0 km/h
531 07-02-2010 04:26:09 4 C 5.59 g/m*3 4 C 0 km/h
532 07-02-2010 04:51:09 4 C 5.59 g/m*3 4 C 0 km/h
533 07-02-2010 05:16:09 4.1 C 5.7 g/m*3 4.1 C 0 km/h
534 07-02-2010 05:41:09 3.8 C 5.58 g/m*3 3.8 C 0 km/h
535 07-02-2010 06:06:10 3.8 C 5.65 g/m*3 3.8 C 0 km/h
536 07-02-2010 06:31:10 3.8 C 5.65 g/m*3 3.8 C 0 km/h
537 07-02-2010 06:56:10 3.8 C 5.65 g/m*3 3.8 C 0 km/h
538 07-02-2010 07:21:10 3.7 C 5.61 g/m*3 3.7 C 0 km/h
539 07-02-2010 07:46:10 3.7 C 5.67 g/m*3 3.7 C 0 km/h
540 07-02-2010 08:11:10 3.8 C 5.71 g/m*3 3.8 C 0 km/h
541 07-02-2010 08:36:10 3.7 C 5.67 g/m*3 3.7 C 0 km/h
542 07-02-2010 09:01:10 3.8 C 5.71 g/m*3 3.8 C 0 km/h
543 07-02-2010 09:26:10 3.9 C 5.75 g/m*3 3.9 C 0 km/h
544 07-02-2010 09:51:10 4.1 C 5.76 g/m*3 4.1 C 0 km/h
545 07-02-2010 10:16:10 4.1 C 5.7 g/m*3 4.1 C 0 km/h
546 07-02-2010 10:41:10 4.5 C 5.72 g/m*3 4.5 C 0 km/h
547 07-02-2010 11:06:10 4.9 C 5.6 g/m*3 4.9 C 0 km/h
548 07-02-2010 11:31:10 4.7 C 5.13 g/m*3 4.7 C 0 km/h
549 07-02-2010 11:56:10 4.5 C 4.93 g/m*3 4.5 C 0 km/h
550 07-02-2010 12:21:10 5.3 C 5.06 g/m*3 5.3 C 0 km/h
Sensor: Nr:Datum:Temp:Abs-Feuchte:Windchill:Wind:
Aussen-T/F 551 07-02-2010 12:46:10 5.7 C 4.84 g/m*3 5.7 C 0 km/h
552 07-02-2010 13:11:10 5.6 C 4.67 g/m*3 5.6 C 0 km/h
553 07-02-2010 13:36:10 5.8 C 4.66 g/m*3 5.8 C 0 km/h
554 07-02-2010 14:01:10 6 C 4.57 g/m*3 6 C 0 km/h
555 07-02-2010 14:26:10 6.1 C 4.53 g/m*3 6.1 C 0 km/h
556 07-02-2010 14:51:10 5.7 C 4.41 g/m*3 5.7 C 0 km/h
557 07-02-2010 15:16:11 5.5 C 4.49 g/m*3 5.5 C 0 km/h
558 07-02-2010 15:41:11 5.4 C 4.47 g/m*3 5.4 C 0 km/h
559 07-02-2010 16:06:11 5 C 4.62 g/m*3 5 C 0 km/h
560 07-02-2010 16:31:11 4.8 C 4.76 g/m*3 4.8 C 0 km/h
561 07-02-2010 16:56:11 4.6 C 4.83 g/m*3 4.6 C 0 km/h
562 07-02-2010 17:21:11 4.7 C 4.93 g/m*3 4.7 C 0 km/h
563 07-02-2010 17:46:11 4.5 C 4.93 g/m*3 4.5 C 0 km/h
564 07-02-2010 18:11:11 4.4 C 4.96 g/m*3 4.4 C 0 km/h
565 07-02-2010 18:36:11 4.2 C 4.96 g/m*3 4.2 C 0 km/h
566 07-02-2010 19:01:11 4.1 C 4.86 g/m*3 4.1 C 0 km/h
567 07-02-2010 19:26:11 3.7 C 4.49 g/m*3 3.7 C 0 km/h
568 07-02-2010 19:51:11 3.7 C 4.42 g/m*3 3.7 C 0 km/h
569 07-02-2010 20:16:11 3.5 C 4.37 g/m*3 3.5 C 0 km/h
570 07-02-2010 20:41:11 3.3 C 4.37 g/m*3 3.3 C 0 km/h
571 07-02-2010 21:06:11 3 C 4.22 g/m*3 3 C 0 km/h
572 07-02-2010 21:31:11 2.7 C 4.08 g/m*3 2.7 C 0 km/h
573 07-02-2010 21:56:11 2.5 C 3.97 g/m*3 2.5 C 0 km/h
574 07-02-2010 22:21:11 2.4 C 3.83 g/m*3 2.4 C 0 km/h
575 07-02-2010 22:46:11 2 C 3.56 g/m*3 2 C 0 km/h
Sensor: Nr:Datum:Temp:Abs-Feuchte:Windchill:Wind:
Aussen-T/F 576 07-02-2010 23:11:11 2 C 3.67 g/m*3 2 C 0 km/h
577 07-02-2010 23:36:12 1.7 C 3.65 g/m*3 1.7 C 0 km/h
578 08-02-2010 00:01:12 1.4 C 3.52 g/m*3 1.4 C 0 km/h
579 08-02-2010 00:26:12 1.6 C 3.68 g/m*3 1.6 C 0 km/h
580 08-02-2010 00:51:12 1.4 C 3.47 g/m*3 1.4 C 0 km/h
581 08-02-2010 01:16:12 1.2 C 3.42 g/m*3 1.2 C 0 km/h
582 08-02-2010 01:41:12 1 C 3.43 g/m*3 1 C 0 km/h
583 08-02-2010 02:06:12 0.8 C 3.48 g/m*3 0.8 C 0 km/h
584 08-02-2010 02:31:12 0.8 C 3.48 g/m*3 0.8 C 0 km/h
585 08-02-2010 02:56:12 0.7 C 3.46 g/m*3 0.7 C 0 km/h
586 08-02-2010 03:21:12 0.5 C 3.41 g/m*3 0.5 C 0 km/h
587 08-02-2010 03:46:12 0.5 C 3.41 g/m*3 0.5 C 0 km/h
588 08-02-2010 04:11:12 0.3 C 3.31 g/m*3 0.3 C 0 km/h
589 08-02-2010 04:36:12 0.3 C 3.31 g/m*3 0.3 C 0 km/h
590 08-02-2010 05:01:12 0.2 C 3.24 g/m*3 0.2 C 0 km/h
591 08-02-2010 05:26:12 -0.1 C 3.22 g/m*3 -0.1 C 0 km/h
592 08-02-2010 05:51:12 -0.3 C 3.23 g/m*3 -0.3 C 0 km/h
593 08-02-2010 06:16:12 -0.4 C 3.25 g/m*3 -0.4 C 0 km/h
594 08-02-2010 06:41:12 -0.3 C 3.23 g/m*3 -0.3 C 0 km/h
595 08-02-2010 07:06:12 -0.5 C 3.18 g/m*3 -0.5 C 0 km/h
596 08-02-2010 07:31:12 -0.6 C 3.16 g/m*3 -0.6 C 0 km/h
597 08-02-2010 07:56:12 -0.8 C 3.07 g/m*3 -0.8 C 0 km/h
598 08-02-2010 08:21:13 -0.9 C 3.05 g/m*3 -0.9 C 0 km/h
599 08-02-2010 08:46:13 -0.9 C 3 g/m*3 -0.9 C 0 km/h
600 08-02-2010 09:11:13 -0.7 C 3 g/m*3 -0.7 C 0 km/h
Sensor: Nr:Datum:Temp:Abs-Feuchte:Windchill:Wind:
Aussen-T/F 601 08-02-2010 09:36:13 -0.8 C 2.93 g/m*3 -0.8 C 0 km/h
602 08-02-2010 10:01:13 -0.6 C 2.93 g/m*3 -0.6 C 0 km/h
603 08-02-2010 10:26:13 -0.6 C 2.88 g/m*3 -0.6 C 0 km/h
604 08-02-2010 10:51:13 -0.5 C 2.9 g/m*3 -0.5 C 0 km/h
605 08-02-2010 11:16:13 -0.5 C 2.86 g/m*3 -0.5 C 0 km/h
606 08-02-2010 11:41:13 -0.2 C 2.72 g/m*3 -0.2 C 0 km/h
607 08-02-2010 12:06:13 -0.3 C 2.66 g/m*3 -0.3 C 0 km/h
608 08-02-2010 12:31:13 -0.4 C 2.5 g/m*3 -0.4 C 0 km/h
609 08-02-2010 12:56:13 0.3 C 2.57 g/m*3 0.3 C 0 km/h
610 08-02-2010 13:21:13 0.5 C 2.56 g/m*3 0.5 C 0 km/h
611 08-02-2010 13:46:13 0.8 C 2.66 g/m*3 0.8 C 0 km/h
612 08-02-2010 14:11:13 0.6 C 2.63 g/m*3 0.6 C 0 km/h
613 08-02-2010 14:36:13 0.5 C 2.66 g/m*3 0.5 C 0 km/h
614 08-02-2010 15:01:13 -0.2 C 2.63 g/m*3 -0.2 C 0 km/h
615 08-02-2010 15:26:13 -0.6 C 2.6 g/m*3 -0.6 C 0 km/h
616 08-02-2010 15:51:13 -1.1 C 2.51 g/m*3 -1.1 C 0 km/h
617 08-02-2010 16:16:13 -1.1 C 2.6 g/m*3 -1.1 C 0 km/h
618 08-02-2010 16:41:13 -1.4 C 2.55 g/m*3 -1.4 C 0 km/h
619 08-02-2010 17:06:13 -1.9 C 2.55 g/m*3 -1.9 C 0 km/h
620 08-02-2010 17:31:14 -2.1 C 2.51 g/m*3 -2.1 C 0 km/h
621 08-02-2010 17:56:14 -2.3 C 2.48 g/m*3 -2.3 C 0 km/h
622 08-02-2010 18:21:14 -2.3 C 2.52 g/m*3 -2.3 C 0 km/h
623 08-02-2010 18:46:14 -2.4 C 2.5 g/m*3 -2.4 C 0 km/h
624 08-02-2010 19:11:14 -2.4 C 2.5 g/m*3 -2.4 C 0 km/h
625 08-02-2010 19:36:14 -2.5 C 2.48 g/m*3 -2.5 C 0 km/h
Sensor: Nr:Datum:Temp:Abs-Feuchte:Windchill:Wind:
Aussen-T/F 626 08-02-2010 20:01:14 -2.6 C 2.46 g/m*3 -2.6 C 0 km/h
627 08-02-2010 20:26:14 -2.6 C 2.46 g/m*3 -2.6 C 0 km/h
628 08-02-2010 20:51:14 -2.6 C 2.51 g/m*3 -2.6 C 0 km/h
629 08-02-2010 21:16:14 -2.6 C 2.51 g/m*3 -2.6 C 0 km/h
630 08-02-2010 21:41:14 -2.6 C 2.51 g/m*3 -2.6 C 0 km/h
631 08-02-2010 22:06:14 -2.5 C 2.52 g/m*3 -2.5 C 0 km/h
632 08-02-2010 22:31:14 -2.7 C 2.45 g/m*3 -2.7 C 0 km/h
633 08-02-2010 22:56:14 -2.8 C 2.39 g/m*3 -2.8 C 0 km/h
634 08-02-2010 23:21:14 -3.1 C 2.34 g/m*3 -3.1 C 0 km/h
635 08-02-2010 23:46:14 -3.1 C 2.34 g/m*3 -3.1 C 0 km/h
636 09-02-2010 00:11:14 -3.3 C 2.31 g/m*3 -3.3 C 0 km/h
637 09-02-2010 00:36:14 -3.4 C 2.33 g/m*3 -3.4 C 0 km/h
638 09-02-2010 01:01:14 -3.3 C 2.38 g/m*3 -3.3 C 0 km/h
639 09-02-2010 01:26:14 -3.2 C 2.36 g/m*3 -3.2 C 0 km/h
640 09-02-2010 01:51:14 -3.3 C 2.35 g/m*3 -3.3 C 0 km/h
641 09-02-2010 02:16:14 -3.2 C 2.36 g/m*3 -3.2 C 0 km/h
642 09-02-2010 02:41:15 -3.2 C 2.32 g/m*3 -3.2 C 0 km/h
643 09-02-2010 03:06:15 -3.2 C 2.32 g/m*3 -3.2 C 0 km/h
644 09-02-2010 03:31:15 -3.4 C 2.29 g/m*3 -3.4 C 0 km/h
645 09-02-2010 03:56:15 -3.4 C 2.29 g/m*3 -3.4 C 0 km/h
646 09-02-2010 04:21:15 -3.4 C 2.29 g/m*3 -3.4 C 0 km/h
647 09-02-2010 04:46:15 -3.5 C 2.27 g/m*3 -3.5 C 0 km/h
648 09-02-2010 05:11:15 -3.5 C 2.27 g/m*3 -3.5 C 0 km/h
649 09-02-2010 05:36:15 -3.5 C 2.27 g/m*3 -3.5 C 0 km/h
650 09-02-2010 06:01:15 -3.7 C 2.28 g/m*3 -3.7 C 0 km/h
Sensor: Nr:Datum:Temp:Abs-Feuchte:Windchill:Wind:
Aussen-T/F 651 09-02-2010 06:26:15 -3.7 C 2.32 g/m*3 -3.7 C 0 km/h
652 09-02-2010 06:51:15 -3.7 C 2.32 g/m*3 -3.7 C 0 km/h
653 09-02-2010 07:16:15 -3.8 C 2.26 g/m*3 -3.8 C 0 km/h
654 09-02-2010 07:41:15 -3.8 C 2.3 g/m*3 -3.8 C 0 km/h
655 09-02-2010 08:06:15 -3.9 C 2.28 g/m*3 -3.9 C 0 km/h
656 09-02-2010 08:31:15 -3.9 C 2.28 g/m*3 -3.9 C 0 km/h
657 09-02-2010 08:56:15 -4.1 C 2.25 g/m*3 -4.1 C 0 km/h
658 09-02-2010 09:21:15 -4 C 2.27 g/m*3 -4 C 0 km/h
659 09-02-2010 09:46:15 -3.9 C 2.32 g/m*3 -3.9 C 0 km/h
660 09-02-2010 10:11:15 -4 C 2.38 g/m*3 -4 C 0 km/h
661 09-02-2010 10:36:15 -3.6 C 2.52 g/m*3 -3.6 C 0 km/h
662 09-02-2010 11:01:15 -3.2 C 2.56 g/m*3 -3.2 C 0 km/h
663 09-02-2010 11:26:15 -3.4 C 2.37 g/m*3 -3.4 C 0 km/h
664 09-02-2010 11:51:16 -3.5 C 2.35 g/m*3 -3.5 C 0 km/h
665 09-02-2010 12:16:16 -3.4 C 2.25 g/m*3 -3.4 C 0 km/h
666 09-02-2010 12:41:16 -3.1 C 2.18 g/m*3 -3.1 C 0 km/h
667 09-02-2010 13:06:16 -2.8 C 2.23 g/m*3 -2.8 C 0 km/h
668 09-02-2010 13:31:16 -2.8 C 2.11 g/m*3 -2.8 C 0 km/h
669 09-02-2010 13:56:16 -3 C 2.04 g/m*3 -3 C 0 km/h
670 09-02-2010 14:21:16 -3.4 C 2.02 g/m*3 -3.4 C 0 km/h
671 09-02-2010 14:46:16 -3.5 C 2.01 g/m*3 -3.5 C 0 km/h
672 09-02-2010 15:11:16 -3.5 C 1.97 g/m*3 -3.5 C 0 km/h
673 09-02-2010 15:36:16 -3.6 C 2 g/m*3 -3.6 C 0 km/h
674 09-02-2010 16:01:16 -3.8 C 1.97 g/m*3 -3.8 C 0 km/h
675 09-02-2010 16:26:16 -3.6 C 2 g/m*3 -3.6 C 0 km/h
Sensor: Nr:Datum:Temp:Abs-Feuchte:Windchill:Wind:
Aussen-T/F 676 09-02-2010 16:51:16 -3.5 C 1.97 g/m*3 -3.5 C 0 km/h
677 09-02-2010 17:16:16 -3.9 C 2.03 g/m*3 -3.9 C 0 km/h
678 09-02-2010 17:41:16 -4 C 2.09 g/m*3 -4 C 0 km/h
679 09-02-2010 18:06:16 -4.1 C 2.14 g/m*3 -4.1 C 0 km/h
680 09-02-2010 18:31:16 -4.1 C 2.14 g/m*3 -4.1 C 0 km/h
681 09-02-2010 18:56:16 -4.2 C 2.09 g/m*3 -4.2 C 0 km/h
682 09-02-2010 19:21:16 -4.1 C 2.18 g/m*3 -4.1 C 0 km/h
683 09-02-2010 19:46:16 -4.1 C 2.18 g/m*3 -4.1 C 0 km/h
684 09-02-2010 20:11:16 -4.5 C 2.08 g/m*3 -4.5 C 0 km/h
685 09-02-2010 20:36:16 -4.6 C 2.1 g/m*3 -4.6 C 0 km/h
686 09-02-2010 21:01:17 -4.6 C 1.93 g/m*3 -4.6 C 0 km/h
687 09-02-2010 21:26:17 -4.6 C 1.75 g/m*3 -4.6 C 0 km/h
688 09-02-2010 21:51:17 -4.7 C 1.77 g/m*3 -4.7 C 0 km/h
689 09-02-2010 22:16:17 -4.6 C 1.82 g/m*3 -4.6 C 0 km/h
690 09-02-2010 22:41:17 -4.5 C 1.87 g/m*3 -4.5 C 0 km/h
691 09-02-2010 23:06:17 -4.6 C 1.93 g/m*3 -4.6 C 0 km/h
692 09-02-2010 23:31:17 -4.5 C 1.94 g/m*3 -4.5 C 0 km/h
693 09-02-2010 23:56:17 -4.5 C 1.94 g/m*3 -4.5 C 0 km/h
694 10-02-2010 00:21:17 -4.6 C 2.07 g/m*3 -4.6 C 0 km/h
695 10-02-2010 00:46:17 -4.7 C 2.12 g/m*3 -4.7 C 0 km/h
696 10-02-2010 01:11:17 -4.7 C 2.12 g/m*3 -4.7 C 0 km/h
697 10-02-2010 01:36:17 -4.7 C 2.16 g/m*3 -4.7 C 0 km/h
698 10-02-2010 02:01:17 -4.7 C 2.23 g/m*3 -4.7 C 0 km/h
699 10-02-2010 02:26:17 -4.6 C 2.28 g/m*3 -4.6 C 0 km/h
700 10-02-2010 02:51:17 -4.7 C 2.3 g/m*3 -4.7 C 0 km/h
Sensor: Nr:Datum:Temp:Abs-Feuchte:Windchill:Wind:
Aussen-T/F 701 10-02-2010 03:16:17 -4.7 C 2.33 g/m*3 -4.7 C 0 km/h
702 10-02-2010 03:41:17 -4.9 C 2.33 g/m*3 -4.9 C 0 km/h
703 10-02-2010 04:06:17 -4.9 C 2.3 g/m*3 -4.9 C 0 km/h
704 10-02-2010 04:31:17 -5 C 2.32 g/m*3 -5 C 0 km/h
705 10-02-2010 04:56:17 -5 C 2.35 g/m*3 -5 C 0 km/h
706 10-02-2010 05:21:17 -5 C 2.38 g/m*3 -5 C 0 km/h
707 10-02-2010 05:46:17 -5 C 2.35 g/m*3 -5 C 0 km/h
708 10-02-2010 06:11:18 -5 C 2.35 g/m*3 -5 C 0 km/h
709 10-02-2010 06:36:18 -5.2 C 2.32 g/m*3 -5.2 C 0 km/h
710 10-02-2010 07:01:18 -5.4 C 2.28 g/m*3 -5.4 C 0 km/h
711 10-02-2010 07:26:18 -5.6 C 2.31 g/m*3 -5.6 C 0 km/h
712 10-02-2010 07:51:18 -5.4 C 2.38 g/m*3 -5.4 C 0 km/h
713 10-02-2010 08:16:18 -5.5 C 2.36 g/m*3 -5.5 C 0 km/h
714 10-02-2010 08:41:18 -5.3 C 2.33 g/m*3 -5.3 C 0 km/h
715 10-02-2010 09:06:18 -5 C 2.42 g/m*3 -5 C 0 km/h
716 10-02-2010 09:31:18 -4.7 C 2.4 g/m*3 -4.7 C 0 km/h
717 10-02-2010 09:56:18 -4.7 C 2.4 g/m*3 -4.7 C 0 km/h
718 10-02-2010 10:21:18 -4.4 C 2.45 g/m*3 -4.4 C 0 km/h
719 10-02-2010 10:46:18 -4.4 C 2.35 g/m*3 -4.4 C 0 km/h
720 10-02-2010 11:11:18 -4 C 2.41 g/m*3 -4 C 0 km/h
721 10-02-2010 11:36:18 -3.7 C 2.35 g/m*3 -3.7 C 0 km/h
722 10-02-2010 12:01:18 -3.7 C 2.39 g/m*3 -3.7 C 0 km/h
723 10-02-2010 12:26:18 -3.2 C 2.32 g/m*3 -3.2 C 0 km/h
724 10-02-2010 12:51:18 -3.4 C 2.37 g/m*3 -3.4 C 0 km/h
725 10-02-2010 13:16:18 -3.2 C 2.52 g/m*3 -3.2 C 0 km/h
Sensor: Nr:Datum:Temp:Abs-Feuchte:Windchill:Wind:
Aussen-T/F 726 10-02-2010 13:41:18 -2.6 C 2.26 g/m*3 -2.6 C 0 km/h
727 10-02-2010 14:06:18 -3.2 C 2.21 g/m*3 -3.2 C 0 km/h
728 10-02-2010 14:31:18 -3.3 C 2.27 g/m*3 -3.3 C 0 km/h
729 10-02-2010 14:56:18 -3.2 C 2.25 g/m*3 -3.2 C 0 km/h
730 10-02-2010 15:21:18 -3.3 C 2.42 g/m*3 -3.3 C 0 km/h
731 10-02-2010 15:46:19 -3 C 2.24 g/m*3 -3 C 0 km/h
732 10-02-2010 16:11:19 -3.4 C 2.29 g/m*3 -3.4 C 0 km/h
733 10-02-2010 16:36:19 -3.5 C 2.27 g/m*3 -3.5 C 0 km/h
734 10-02-2010 17:01:19 -3.4 C 2.29 g/m*3 -3.4 C 0 km/h
735 10-02-2010 17:26:19 -3.8 C 2.3 g/m*3 -3.8 C 0 km/h
736 10-02-2010 17:51:19 -4.4 C 2.42 g/m*3 -4.4 C 0 km/h
737 10-02-2010 18:16:19 -5.2 C 2.32 g/m*3 -5.2 C 0 km/h
738 10-02-2010 18:41:19 -5.2 C 2.45 g/m*3 -5.2 C 0 km/h
739 10-02-2010 19:06:19 -5.3 C 2.37 g/m*3 -5.3 C 0 km/h
740 10-02-2010 19:31:19 -6 C 2.28 g/m*3 -6 C 0 km/h
741 10-02-2010 19:56:19 -6.2 C 2.31 g/m*3 -6.2 C 0 km/h
742 10-02-2010 20:21:19 -6.5 C 2.29 g/m*3 -6.5 C 0 km/h
743 10-02-2010 20:46:19 -6.3 C 2.35 g/m*3 -6.3 C 0 km/h
744 10-02-2010 21:11:19 -6.1 C 2.39 g/m*3 -6.1 C 0 km/h
745 10-02-2010 21:36:19 -6.6 C 2.27 g/m*3 -6.6 C 0 km/h
746 10-02-2010 22:01:19 -6.3 C 2.35 g/m*3 -6.3 C 0 km/h
747 10-02-2010 22:26:19 -6.5 C 2.26 g/m*3 -6.5 C 0 km/h
748 10-02-2010 22:51:19 -6.9 C 2.16 g/m*3 -6.9 C 0 km/h
749 10-02-2010 23:16:19 -7.4 C 2.09 g/m*3 -7.4 C 0 km/h
750 10-02-2010 23:41:19 -7 C 2.18 g/m*3 -7 C 0 km/h
Sensor: Nr:Datum:Temp:Abs-Feuchte:Windchill:Wind:
Aussen-T/F 751 11-02-2010 00:06:20 -6.5 C 2.29 g/m*3 -6.5 C 0 km/h
752 11-02-2010 00:31:20 -6.5 C 2.17 g/m*3 -6.5 C 0 km/h
753 11-02-2010 00:56:20 -6.6 C 2.12 g/m*3 -6.6 C 0 km/h
754 11-02-2010 01:21:20 -7.5 C 1.96 g/m*3 -7.5 C 0 km/h
755 11-02-2010 01:46:20 -8.1 C 1.9 g/m*3 -8.1 C 0 km/h
756 11-02-2010 02:11:20 -7.7 C 2.04 g/m*3 -7.7 C 0 km/h
757 11-02-2010 02:36:20 -7.4 C 2.09 g/m*3 -7.4 C 0 km/h
758 11-02-2010 03:01:20 -7.2 C 2.12 g/m*3 -7.2 C 0 km/h
759 11-02-2010 03:26:20 -6.9 C 2.14 g/m*3 -6.9 C 0 km/h
760 11-02-2010 03:51:20 -6.8 C 2.12 g/m*3 -6.8 C 0 km/h
761 11-02-2010 04:16:20 -6.8 C 2.09 g/m*3 -6.8 C 0 km/h
762 11-02-2010 04:41:20 -6.4 C 2.18 g/m*3 -6.4 C 0 km/h
763 11-02-2010 05:06:20 -6.2 C 2.18 g/m*3 -6.2 C 0 km/h
764 11-02-2010 05:31:20 -6.1 C 2.23 g/m*3 -6.1 C 0 km/h
765 11-02-2010 05:56:20 -6 C 2.31 g/m*3 -6 C 0 km/h
766 11-02-2010 06:21:20 -5.9 C 2.36 g/m*3 -5.9 C 0 km/h
767 11-02-2010 06:46:20 -5.8 C 2.44 g/m*3 -5.8 C 0 km/h
768 11-02-2010 07:11:20 -5.7 C 2.46 g/m*3 -5.7 C 0 km/h
769 11-02-2010 07:36:20 -5.6 C 2.51 g/m*3 -5.6 C 0 km/h
770 11-02-2010 08:01:20 -5.5 C 2.56 g/m*3 -5.5 C 0 km/h
771 11-02-2010 08:26:20 -5.4 C 2.58 g/m*3 -5.4 C 0 km/h
772 11-02-2010 08:51:20 -5.2 C 2.62 g/m*3 -5.2 C 0 km/h
773 11-02-2010 09:16:20 -4.9 C 2.64 g/m*3 -4.9 C 0 km/h
774 11-02-2010 09:41:21 -4.5 C 2.68 g/m*3 -4.5 C 0 km/h
775 11-02-2010 10:06:21 -4 C 2.74 g/m*3 -4 C 0 km/h
Sensor: Nr:Datum:Temp:Abs-Feuchte:Windchill:Wind:
Aussen-T/F 776 11-02-2010 10:31:21 -3.7 C 2.77 g/m*3 -3.7 C 0 km/h
777 11-02-2010 10:56:21 -3.3 C 2.77 g/m*3 -3.3 C 0 km/h
778 11-02-2010 11:21:21 -2.9 C 2.77 g/m*3 -2.9 C 0 km/h
779 11-02-2010 11:46:21 -2.7 C 2.81 g/m*3 -2.7 C 0 km/h
780 11-02-2010 12:11:21 -2.5 C 2.89 g/m*3 -2.5 C 0 km/h
781 11-02-2010 12:36:21 -2 C 2.99 g/m*3 -2 C 0 km/h
782 11-02-2010 13:01:21 -1.5 C 3.1 g/m*3 -1.5 C 0 km/h
783 11-02-2010 13:26:21 -1.1 C 3.05 g/m*3 -1.1 C 0 km/h
784 11-02-2010 13:51:21 -1.3 C 2.92 g/m*3 -1.3 C 0 km/h
785 11-02-2010 14:16:21 -1.1 C 3.1 g/m*3 -1.1 C 0 km/h
786 11-02-2010 14:41:21 -1.2 C 2.94 g/m*3 -1.2 C 0 km/h
787 11-02-2010 15:06:21 -1.2 C 2.9 g/m*3 -1.2 C 0 km/h
788 11-02-2010 15:31:21 -1.6 C 2.86 g/m*3 -1.6 C 0 km/h
789 11-02-2010 15:56:21 -1.3 C 2.88 g/m*3 -1.3 C 0 km/h
790 11-02-2010 16:21:21 -1.4 C 2.9 g/m*3 -1.4 C 0 km/h
791 11-02-2010 16:46:21 -1.6 C 2.9 g/m*3 -1.6 C 0 km/h
792 11-02-2010 17:11:21 -1.7 C 2.84 g/m*3 -1.7 C 0 km/h
793 11-02-2010 17:36:21 -1.7 C 2.76 g/m*3 -1.7 C 0 km/h
794 11-02-2010 18:01:21 -1.8 C 2.74 g/m*3 -1.8 C 0 km/h
795 11-02-2010 18:26:21 -1.8 C 2.74 g/m*3 -1.8 C 0 km/h
796 11-02-2010 18:51:22 -1.8 C 2.69 g/m*3 -1.8 C 0 km/h
797 11-02-2010 19:16:22 -1.8 C 2.65 g/m*3 -1.8 C 0 km/h
798 11-02-2010 19:41:22 -1.8 C 2.65 g/m*3 -1.8 C 0 km/h
799 11-02-2010 20:06:22 -1.8 C 2.65 g/m*3 -1.8 C 0 km/h
800 11-02-2010 20:31:22 -1.8 C 2.69 g/m*3 -1.8 C 0 km/h
Sensor: Nr:Datum:Temp:Abs-Feuchte:Windchill:Wind:
Aussen-T/F 801 11-02-2010 20:56:22 -1.8 C 2.74 g/m*3 -1.8 C 0 km/h
802 11-02-2010 21:21:22 -2.1 C 2.85 g/m*3 -2.1 C 0 km/h
803 11-02-2010 21:46:22 -2.2 C 2.95 g/m*3 -2.2 C 0 km/h
804 11-02-2010 22:11:22 -2.5 C 3.05 g/m*3 -2.5 C 0 km/h
805 11-02-2010 22:36:22 -2.5 C 3.09 g/m*3 -2.5 C 0 km/h
806 11-02-2010 23:01:22 -2.5 C 3.13 g/m*3 -2.5 C 0 km/h
807 11-02-2010 23:26:22 -2.6 C 3.15 g/m*3 -2.6 C 0 km/h
808 11-02-2010 23:51:22 -2.5 C 3.17 g/m*3 -2.5 C 0 km/h
809 12-02-2010 00:16:22 -2.6 C 3.19 g/m*3 -2.6 C 0 km/h
810 12-02-2010 00:41:22 -2.7 C 3.21 g/m*3 -2.7 C 0 km/h
811 12-02-2010 01:06:22 -2.7 C 3.21 g/m*3 -2.7 C 0 km/h
812 12-02-2010 01:31:22 -2.7 C 3.21 g/m*3 -2.7 C 0 km/h
813 12-02-2010 01:56:22 -2.6 C 3.19 g/m*3 -2.6 C 0 km/h
814 12-02-2010 02:21:22 -2.6 C 3.19 g/m*3 -2.6 C 0 km/h
815 12-02-2010 02:46:22 -2.6 C 3.15 g/m*3 -2.6 C 0 km/h
816 12-02-2010 03:11:22 -2.6 C 3.19 g/m*3 -2.6 C 0 km/h
817 12-02-2010 03:36:22 -2.7 C 3.17 g/m*3 -2.7 C 0 km/h
818 12-02-2010 04:01:23 -2.6 C 3.23 g/m*3 -2.6 C 0 km/h
819 12-02-2010 04:26:23 -2.6 C 3.19 g/m*3 -2.6 C 0 km/h
820 12-02-2010 04:51:23 -2.6 C 3.19 g/m*3 -2.6 C 0 km/h
821 12-02-2010 05:16:23 -2.6 C 3.19 g/m*3 -2.6 C 0 km/h
822 12-02-2010 05:41:23 -2.5 C 3.21 g/m*3 -2.5 C 0 km/h
823 12-02-2010 06:06:23 -2.6 C 3.15 g/m*3 -2.6 C 0 km/h
824 12-02-2010 06:31:23 -2.5 C 3.17 g/m*3 -2.5 C 0 km/h
825 12-02-2010 06:56:23 -2.6 C 3.19 g/m*3 -2.6 C 0 km/h
Sensor: Nr:Datum:Temp:Abs-Feuchte:Windchill:Wind:
Aussen-T/F 826 12-02-2010 07:21:23 -2.7 C 3.17 g/m*3 -2.7 C 0 km/h
827 12-02-2010 07:46:23 -2.8 C 3.07 g/m*3 -2.8 C 0 km/h
828 12-02-2010 08:11:23 -2.7 C 3.01 g/m*3 -2.7 C 0 km/h
829 12-02-2010 08:36:23 -2.6 C 3.03 g/m*3 -2.6 C 0 km/h
830 12-02-2010 09:01:23 -2.6 C 3.03 g/m*3 -2.6 C 0 km/h
831 12-02-2010 09:26:23 -2.5 C 3.01 g/m*3 -2.5 C 0 km/h
832 12-02-2010 09:51:23 -2.3 C 2.97 g/m*3 -2.3 C 0 km/h
833 12-02-2010 10:16:23 -2.1 C 2.93 g/m*3 -2.1 C 0 km/h
834 12-02-2010 10:41:23 -1.9 C 2.84 g/m*3 -1.9 C 0 km/h
835 12-02-2010 11:06:23 -1.2 C 2.9 g/m*3 -1.2 C 0 km/h
836 12-02-2010 11:31:23 -1.3 C 2.74 g/m*3 -1.3 C 0 km/h
837 12-02-2010 11:56:23 -1 C 2.71 g/m*3 -1 C 0 km/h
838 12-02-2010 12:21:23 -1.1 C 2.69 g/m*3 -1.1 C 0 km/h
839 12-02-2010 12:46:23 -1.4 C 2.77 g/m*3 -1.4 C 0 km/h
840 12-02-2010 13:11:24 -1.2 C 2.85 g/m*3 -1.2 C 0 km/h
841 12-02-2010 13:36:24 -1.2 C 2.9 g/m*3 -1.2 C 0 km/h
842 12-02-2010 14:01:24 -1.1 C 2.92 g/m*3 -1.1 C 0 km/h
843 12-02-2010 14:26:24 -0.7 C 2.95 g/m*3 -0.7 C 0 km/h
844 12-02-2010 14:51:24 -0.5 C 2.95 g/m*3 -0.5 C 0 km/h
845 12-02-2010 15:16:24 -0.8 C 2.84 g/m*3 -0.8 C 0 km/h
846 12-02-2010 15:41:24 -0.8 C 2.89 g/m*3 -0.8 C 0 km/h
847 12-02-2010 16:06:24 -0.9 C 2.91 g/m*3 -0.9 C 0 km/h
848 12-02-2010 16:31:24 -1.2 C 2.85 g/m*3 -1.2 C 0 km/h
849 12-02-2010 16:56:24 -1.2 C 2.76 g/m*3 -1.2 C 0 km/h
850 12-02-2010 17:21:24 -1.4 C 2.73 g/m*3 -1.4 C 0 km/h
Sensor: Nr:Datum:Temp:Abs-Feuchte:Windchill:Wind:
Aussen-T/F 851 12-02-2010 17:46:24 -1.9 C 2.76 g/m*3 -1.9 C 0 km/h
852 12-02-2010 18:11:24 -2.1 C 2.72 g/m*3 -2.1 C 0 km/h
853 12-02-2010 18:36:24 -2.2 C 2.78 g/m*3 -2.2 C 0 km/h
854 12-02-2010 19:01:24 -2.4 C 2.66 g/m*3 -2.4 C 0 km/h
855 12-02-2010 19:26:24 -2.5 C 2.69 g/m*3 -2.5 C 0 km/h
856 12-02-2010 19:51:24 -2.5 C 2.73 g/m*3 -2.5 C 0 km/h
857 12-02-2010 20:16:24 -2.6 C 2.71 g/m*3 -2.6 C 0 km/h
858 12-02-2010 20:41:24 -2.6 C 2.75 g/m*3 -2.6 C 0 km/h
859 12-02-2010 21:06:24 -2.6 C 2.71 g/m*3 -2.6 C 0 km/h
860 12-02-2010 21:31:24 -2.7 C 2.73 g/m*3 -2.7 C 0 km/h
861 12-02-2010 21:56:25 -2.8 C 2.71 g/m*3 -2.8 C 0 km/h
862 12-02-2010 22:21:25 -2.8 C 2.75 g/m*3 -2.8 C 0 km/h
863 12-02-2010 22:46:25 -2.9 C 2.73 g/m*3 -2.9 C 0 km/h
864 12-02-2010 23:11:25 -3 C 2.71 g/m*3 -3 C 0 km/h
865 12-02-2010 23:36:25 -3.2 C 2.67 g/m*3 -3.2 C 0 km/h
866 13-02-2010 00:01:25 -3.2 C 2.71 g/m*3 -3.2 C 0 km/h
867 13-02-2010 00:26:25 -3.4 C 2.75 g/m*3 -3.4 C 0 km/h
868 13-02-2010 00:51:25 -3.7 C 2.73 g/m*3 -3.7 C 0 km/h
869 13-02-2010 01:16:25 -3.9 C 2.76 g/m*3 -3.9 C 0 km/h
870 13-02-2010 01:41:25 -4 C 2.78 g/m*3 -4 C 0 km/h
871 13-02-2010 02:06:25 -3.9 C 2.8 g/m*3 -3.9 C 0 km/h
872 13-02-2010 02:31:25 -4 C 2.74 g/m*3 -4 C 0 km/h
873 13-02-2010 02:56:25 -4.1 C 2.69 g/m*3 -4.1 C 0 km/h
874 13-02-2010 03:21:25 -4.2 C 2.7 g/m*3 -4.2 C 0 km/h
875 13-02-2010 03:46:25 -4.2 C 2.74 g/m*3 -4.2 C 0 km/h
Sensor: Nr:Datum:Temp:Abs-Feuchte:Windchill:Wind:
Aussen-T/F 876 13-02-2010 04:11:25 -4.2 C 2.74 g/m*3 -4.2 C 0 km/h
877 13-02-2010 04:36:25 -4.1 C 2.8 g/m*3 -4.1 C 0 km/h
878 13-02-2010 05:01:25 -4.1 C 2.8 g/m*3 -4.1 C 0 km/h
879 13-02-2010 05:26:25 -4 C 2.82 g/m*3 -4 C 0 km/h
880 13-02-2010 05:51:25 -3.8 C 2.86 g/m*3 -3.8 C 0 km/h
881 13-02-2010 06:16:26 -3.9 C 2.84 g/m*3 -3.9 C 0 km/h
882 13-02-2010 06:41:26 -3.8 C 2.86 g/m*3 -3.8 C 0 km/h
883 13-02-2010 07:06:26 -3.7 C 2.84 g/m*3 -3.7 C 0 km/h
884 13-02-2010 07:31:26 -3.8 C 2.78 g/m*3 -3.8 C 0 km/h
885 13-02-2010 07:56:26 -3.8 C 2.82 g/m*3 -3.8 C 0 km/h
886 13-02-2010 08:21:26 -3.6 C 2.86 g/m*3 -3.6 C 0 km/h
887 13-02-2010 08:46:26 -3.2 C 2.9 g/m*3 -3.2 C 0 km/h
888 13-02-2010 09:11:26 -2.9 C 2.89 g/m*3 -2.9 C 0 km/h
889 13-02-2010 09:36:26 -2.6 C 2.91 g/m*3 -2.6 C 0 km/h
890 13-02-2010 10:01:26 -2.7 C 2.73 g/m*3 -2.7 C 0 km/h
891 13-02-2010 10:26:26 -2.4 C 2.7 g/m*3 -2.4 C 0 km/h
892 13-02-2010 10:51:26 -2.3 C 2.64 g/m*3 -2.3 C 0 km/h
893 13-02-2010 11:16:26 -1.9 C 2.76 g/m*3 -1.9 C 0 km/h
894 13-02-2010 11:41:26 -1.5 C 2.66 g/m*3 -1.5 C 0 km/h
895 13-02-2010 12:06:26 -1.3 C 2.7 g/m*3 -1.3 C 0 km/h
896 13-02-2010 12:31:26 -0.5 C 2.86 g/m*3 -0.5 C 0 km/h
897 13-02-2010 12:56:26 -1.2 C 2.67 g/m*3 -1.2 C 0 km/h
898 13-02-2010 13:21:26 -1.4 C 2.73 g/m*3 -1.4 C 0 km/h
899 13-02-2010 13:46:26 -1 C 2.76 g/m*3 -1 C 0 km/h
900 13-02-2010 14:11:26 -1.1 C 2.51 g/m*3 -1.1 C 0 km/h
Sensor: Nr:Datum:Temp:Abs-Feuchte:Windchill:Wind:
Aussen-T/F 901 13-02-2010 14:36:26 0 C 2.76 g/m*3 0 C 0 km/h
902 13-02-2010 15:01:27 -0.3 C 2.56 g/m*3 -0.3 C 0 km/h
903 13-02-2010 15:26:27 -0.5 C 2.57 g/m*3 -0.5 C 0 km/h
904 13-02-2010 15:51:27 -0.7 C 2.54 g/m*3 -0.7 C 0 km/h
905 13-02-2010 16:16:27 -0.9 C 2.55 g/m*3 -0.9 C 0 km/h
906 13-02-2010 16:41:27 -1 C 2.58 g/m*3 -1 C 0 km/h
907 13-02-2010 17:06:27 -1.4 C 2.68 g/m*3 -1.4 C 0 km/h
908 13-02-2010 17:31:27 -1.9 C 2.8 g/m*3 -1.9 C 0 km/h
909 13-02-2010 17:56:27 -2 C 2.91 g/m*3 -2 C 0 km/h
910 13-02-2010 18:21:27 -2 C 2.95 g/m*3 -2 C 0 km/h
911 13-02-2010 18:46:27 -2.1 C 2.97 g/m*3 -2.1 C 0 km/h
912 13-02-2010 19:11:27 -2.2 C 2.99 g/m*3 -2.2 C 0 km/h
913 13-02-2010 19:36:27 -2.1 C 3.01 g/m*3 -2.1 C 0 km/h
914 13-02-2010 20:01:27 -2.2 C 2.99 g/m*3 -2.2 C 0 km/h
915 13-02-2010 20:26:27 -2.3 C 3.01 g/m*3 -2.3 C 0 km/h
916 13-02-2010 20:51:27 -2.4 C 2.99 g/m*3 -2.4 C 0 km/h
917 13-02-2010 21:16:27 -2.4 C 2.99 g/m*3 -2.4 C 0 km/h
918 13-02-2010 21:41:27 -2.4 C 2.99 g/m*3 -2.4 C 0 km/h
919 13-02-2010 22:06:27 -2.5 C 2.97 g/m*3 -2.5 C 0 km/h
920 13-02-2010 22:31:27 -2.6 C 2.99 g/m*3 -2.6 C 0 km/h
921 13-02-2010 22:56:27 -2.5 C 3.05 g/m*3 -2.5 C 0 km/h
922 13-02-2010 23:21:28 -2.7 C 3.05 g/m*3 -2.7 C 0 km/h
923 13-02-2010 23:46:28 -2.8 C 3.03 g/m*3 -2.8 C 0 km/h
924 14-02-2010 00:11:28 -2.9 C 3.01 g/m*3 -2.9 C 0 km/h
925 14-02-2010 00:36:28 -3.1 C 3 g/m*3 -3.1 C 0 km/h
Sensor: Nr:Datum:Temp:Abs-Feuchte:Windchill:Wind:
Aussen-T/F 926 14-02-2010 01:01:28 -3.2 C 2.98 g/m*3 -3.2 C 0 km/h
927 14-02-2010 01:26:28 -3.3 C 2.96 g/m*3 -3.3 C 0 km/h
928 14-02-2010 01:51:28 -3.4 C 2.94 g/m*3 -3.4 C 0 km/h
929 14-02-2010 02:16:28 -3.4 C 2.98 g/m*3 -3.4 C 0 km/h
930 14-02-2010 02:41:28 -3.4 C 2.98 g/m*3 -3.4 C 0 km/h
931 14-02-2010 03:06:28 -3.4 C 3.02 g/m*3 -3.4 C 0 km/h
932 14-02-2010 03:31:28 -3.4 C 3.02 g/m*3 -3.4 C 0 km/h
933 14-02-2010 03:56:28 -3.6 C 2.97 g/m*3 -3.6 C 0 km/h
934 14-02-2010 04:21:28 -3.5 C 2.99 g/m*3 -3.5 C 0 km/h
935 14-02-2010 04:46:28 -3.6 C 2.97 g/m*3 -3.6 C 0 km/h
936 14-02-2010 05:11:28 -3.7 C 2.95 g/m*3 -3.7 C 0 km/h
937 14-02-2010 05:36:28 -3.6 C 3.01 g/m*3 -3.6 C 0 km/h
938 14-02-2010 06:01:28 -3.7 C 2.99 g/m*3 -3.7 C 0 km/h
939 14-02-2010 06:26:28 -3.7 C 2.99 g/m*3 -3.7 C 0 km/h
940 14-02-2010 06:51:28 -3.7 C 2.99 g/m*3 -3.7 C 0 km/h
941 14-02-2010 07:16:28 -3.4 C 3.05 g/m*3 -3.4 C 0 km/h
942 14-02-2010 07:41:28 -3.6 C 3.01 g/m*3 -3.6 C 0 km/h
943 14-02-2010 08:06:29 -3.5 C 3.03 g/m*3 -3.5 C 0 km/h
944 14-02-2010 08:31:29 -3.5 C 3.03 g/m*3 -3.5 C 0 km/h
945 14-02-2010 08:56:29 -3.3 C 3.08 g/m*3 -3.3 C 0 km/h
946 14-02-2010 09:21:29 -3.2 C 3.1 g/m*3 -3.2 C 0 km/h
947 14-02-2010 09:46:29 -3.1 C 3.12 g/m*3 -3.1 C 0 km/h
948 14-02-2010 10:11:29 -2.8 C 3.19 g/m*3 -2.8 C 0 km/h
949 14-02-2010 10:36:29 -2.4 C 3.24 g/m*3 -2.4 C 0 km/h
950 14-02-2010 11:01:29 -2.1 C 3.22 g/m*3 -2.1 C 0 km/h
Sensor: Nr:Datum:Temp:Abs-Feuchte:Windchill:Wind:
Aussen-T/F 951 14-02-2010 11:26:29 -1.9 C 3.23 g/m*3 -1.9 C 0 km/h
952 14-02-2010 11:51:29 -1.5 C 3.23 g/m*3 -1.5 C 0 km/h
953 14-02-2010 12:16:29 -1.1 C 3.19 g/m*3 -1.1 C 0 km/h
954 14-02-2010 12:41:29 -0.6 C 3.07 g/m*3 -0.6 C 0 km/h
955 14-02-2010 13:06:29 0.2 C 3.14 g/m*3 0.2 C 0 km/h
956 14-02-2010 13:31:29 0.6 C 3.03 g/m*3 0.6 C 0 km/h
957 14-02-2010 13:56:29 1 C 3.01 g/m*3 1 C 0 km/h
958 14-02-2010 14:21:29 1.4 C 3.09 g/m*3 1.4 C 0 km/h
959 14-02-2010 14:46:29 1.4 C 3.04 g/m*3 1.4 C 0 km/h
960 14-02-2010 15:11:29 0.8 C 2.92 g/m*3 0.8 C 0 km/h
961 14-02-2010 15:36:29 0.7 C 3 g/m*3 0.7 C 0 km/h
962 14-02-2010 16:01:29 0.1 C 2.98 g/m*3 0.1 C 0 km/h
963 14-02-2010 16:26:30 -0.3 C 2.99 g/m*3 -0.3 C 0 km/h
964 14-02-2010 16:51:30 -0.5 C 3.09 g/m*3 -0.5 C 0 km/h
965 14-02-2010 17:16:30 -0.7 C 3.14 g/m*3 -0.7 C 0 km/h
966 14-02-2010 17:41:30 -0.9 C 3.19 g/m*3 -0.9 C 0 km/h
967 14-02-2010 18:06:30 -1.1 C 3.23 g/m*3 -1.1 C 0 km/h
968 14-02-2010 18:31:30 -1.3 C 3.23 g/m*3 -1.3 C 0 km/h
969 14-02-2010 18:56:30 -1.5 C 3.27 g/m*3 -1.5 C 0 km/h
970 14-02-2010 19:21:30 -1.7 C 3.27 g/m*3 -1.7 C 0 km/h
971 14-02-2010 19:46:30 -1.8 C 3.29 g/m*3 -1.8 C 0 km/h
972 14-02-2010 20:11:30 -1.7 C 3.36 g/m*3 -1.7 C 0 km/h
973 14-02-2010 20:36:30 -1.9 C 3.31 g/m*3 -1.9 C 0 km/h
974 14-02-2010 21:01:30 -2.2 C 3.24 g/m*3 -2.2 C 0 km/h
975 14-02-2010 21:26:30 -2.4 C 3.16 g/m*3 -2.4 C 0 km/h
Sensor: Nr:Datum:Temp:Abs-Feuchte:Windchill:Wind:
Aussen-T/F 976 14-02-2010 21:51:30 -2.6 C 3.11 g/m*3 -2.6 C 0 km/h
977 14-02-2010 22:16:30 -2.9 C 3.01 g/m*3 -2.9 C 0 km/h
978 14-02-2010 22:41:30 -3 C 3.02 g/m*3 -3 C 0 km/h
979 14-02-2010 23:06:30 -3 C 2.99 g/m*3 -3 C 0 km/h
980 14-02-2010 23:31:30 -3 C 2.99 g/m*3 -3 C 0 km/h
981 14-02-2010 23:56:30 -3 C 2.99 g/m*3 -3 C 0 km/h
982 15-02-2010 00:21:30 -3 C 2.99 g/m*3 -3 C 0 km/h
983 15-02-2010 00:46:30 -3 C 2.99 g/m*3 -3 C 0 km/h
984 15-02-2010 01:11:31 -3 C 2.99 g/m*3 -3 C 0 km/h
985 15-02-2010 01:36:31 -2.9 C 2.97 g/m*3 -2.9 C 0 km/h
986 15-02-2010 02:01:31 -2.8 C 2.99 g/m*3 -2.8 C 0 km/h
987 15-02-2010 02:26:31 -2.7 C 3.01 g/m*3 -2.7 C 0 km/h
988 15-02-2010 02:51:31 -2.6 C 3.03 g/m*3 -2.6 C 0 km/h
989 15-02-2010 03:16:31 -2.6 C 2.99 g/m*3 -2.6 C 0 km/h
990 15-02-2010 03:41:31 -2.6 C 2.99 g/m*3 -2.6 C 0 km/h
991 15-02-2010 04:06:31 -2.6 C 2.99 g/m*3 -2.6 C 0 km/h
992 15-02-2010 04:31:31 -2.6 C 3.03 g/m*3 -2.6 C 0 km/h
993 15-02-2010 04:56:31 -2.6 C 3.03 g/m*3 -2.6 C 0 km/h
994 15-02-2010 05:21:31 -2.6 C 3.07 g/m*3 -2.6 C 0 km/h
995 15-02-2010 05:46:31 -2.6 C 3.11 g/m*3 -2.6 C 0 km/h
996 15-02-2010 06:11:31 -2.7 C 3.05 g/m*3 -2.7 C 0 km/h
997 15-02-2010 06:36:31 -2.8 C 3.03 g/m*3 -2.8 C 0 km/h
998 15-02-2010 07:01:31 -2.9 C 3.01 g/m*3 -2.9 C 0 km/h
999 15-02-2010 07:26:31 -3.2 C 2.9 g/m*3 -3.2 C 0 km/h
1000 15-02-2010 07:51:31 -3.1 C 2.96 g/m*3 -3.1 C 0 km/h
Sensor: Nr:Datum:Temp:Abs-Feuchte:Windchill:Wind:
Aussen-T/F 1001 15-02-2010 08:16:31 -3.1 C 2.96 g/m*3 -3.1 C 0 km/h
1002 15-02-2010 08:41:31 -3 C 2.91 g/m*3 -3 C 0 km/h
1003 15-02-2010 09:06:31 -2.7 C 2.93 g/m*3 -2.7 C 0 km/h
1004 15-02-2010 09:31:31 -2.3 C 2.97 g/m*3 -2.3 C 0 km/h
1005 15-02-2010 09:56:32 -1.8 C 3.04 g/m*3 -1.8 C 0 km/h
1006 15-02-2010 10:21:32 -1.4 C 3.03 g/m*3 -1.4 C 0 km/h
1007 15-02-2010 10:46:32 -0.2 C 3.11 g/m*3 -0.2 C 0 km/h
1008 15-02-2010 11:11:32 -0.3 C 3.04 g/m*3 -0.3 C 0 km/h
1009 15-02-2010 11:36:32 -0.2 C 3.11 g/m*3 -0.2 C 0 km/h
1010 15-02-2010 12:01:32 0.3 C 3.07 g/m*3 0.3 C 0 km/h
1011 15-02-2010 12:26:32 0.9 C 3.2 g/m*3 0.9 C 0 km/h
1012 15-02-2010 12:51:32 1.2 C 3.21 g/m*3 1.2 C 0 km/h
1013 15-02-2010 13:16:32 1.6 C 3.24 g/m*3 1.6 C 0 km/h
1014 15-02-2010 13:41:32 1.8 C 3.29 g/m*3 1.8 C 0 km/h
1015 15-02-2010 14:06:32 2.2 C 3.21 g/m*3 2.2 C 0 km/h
1016 15-02-2010 14:31:32 1.4 C 3.2 g/m*3 1.4 C 0 km/h
1017 15-02-2010 14:56:32 1.6 C 3.41 g/m*3 1.6 C 0 km/h
1018 15-02-2010 15:21:32 1.8 C 3.45 g/m*3 1.8 C 0 km/h
1019 15-02-2010 15:46:32 1.8 C 3.4 g/m*3 1.8 C 0 km/h
1020 15-02-2010 16:11:32 1.5 C 3.38 g/m*3 1.5 C 0 km/h
1021 15-02-2010 16:36:32 1.3 C 3.44 g/m*3 1.3 C 0 km/h
1022 15-02-2010 17:01:32 0.7 C 3.46 g/m*3 0.7 C 0 km/h
1023 15-02-2010 17:26:32 0.3 C 3.46 g/m*3 0.3 C 0 km/h
1024 15-02-2010 17:51:32 -0.2 C 3.39 g/m*3 -0.2 C 0 km/h
1025 15-02-2010 18:16:33 -0.4 C 3.44 g/m*3 -0.4 C 0 km/h
Sensor: Nr:Datum:Temp:Abs-Feuchte:Windchill:Wind:
Aussen-T/F 1026 15-02-2010 18:41:33 -0.6 C 3.44 g/m*3 -0.6 C 0 km/h
1027 15-02-2010 19:06:33 -0.9 C 3.46 g/m*3 -0.9 C 0 km/h
1028 15-02-2010 19:31:33 -1 C 3.44 g/m*3 -1 C 0 km/h
1029 15-02-2010 19:56:33 -1 C 3.48 g/m*3 -1 C 0 km/h
1030 15-02-2010 20:21:33 -1.2 C 3.43 g/m*3 -1.2 C 0 km/h
1031 15-02-2010 20:46:33 -1.3 C 3.41 g/m*3 -1.3 C 0 km/h
1032 15-02-2010 21:11:33 -1.2 C 3.43 g/m*3 -1.2 C 0 km/h
1033 15-02-2010 21:36:33 -1.2 C 3.48 g/m*3 -1.2 C 0 km/h
1034 15-02-2010 22:01:33 -1 C 3.57 g/m*3 -1 C 0 km/h
1035 15-02-2010 22:26:33 -1 C 3.53 g/m*3 -1 C 0 km/h
1036 15-02-2010 22:51:33 -1.2 C 3.48 g/m*3 -1.2 C 0 km/h
1037 15-02-2010 23:16:33 -1.2 C 3.48 g/m*3 -1.2 C 0 km/h
1038 15-02-2010 23:41:33 -1.3 C 3.45 g/m*3 -1.3 C 0 km/h
1039 16-02-2010 00:06:33 -1.4 C 3.43 g/m*3 -1.4 C 0 km/h
1040 16-02-2010 00:31:33 -2.1 C 3.22 g/m*3 -2.1 C 0 km/h
1041 16-02-2010 00:56:33 -2.7 C 3.13 g/m*3 -2.7 C 0 km/h
1042 16-02-2010 01:21:33 -2.9 C 3.13 g/m*3 -2.9 C 0 km/h
1043 16-02-2010 01:46:33 -2.9 C 3.16 g/m*3 -2.9 C 0 km/h
1044 16-02-2010 02:11:33 -2.9 C 3.16 g/m*3 -2.9 C 0 km/h
1045 16-02-2010 02:36:33 -3.2 C 3.1 g/m*3 -3.2 C 0 km/h
1046 16-02-2010 03:01:34 -3.3 C 3.08 g/m*3 -3.3 C 0 km/h
1047 16-02-2010 03:26:34 -3.4 C 3.09 g/m*3 -3.4 C 0 km/h
1048 16-02-2010 03:51:34 -3.1 C 3.16 g/m*3 -3.1 C 0 km/h
1049 16-02-2010 04:16:34 -2.9 C 3.2 g/m*3 -2.9 C 0 km/h
1050 16-02-2010 04:41:34 -2.7 C 3.29 g/m*3 -2.7 C 0 km/h
Sensor: Nr:Datum:Temp:Abs-Feuchte:Windchill:Wind:
Aussen-T/F 1051 16-02-2010 05:06:34 -2.7 C 3.25 g/m*3 -2.7 C 0 km/h
1052 16-02-2010 05:31:34 -2.7 C 3.25 g/m*3 -2.7 C 0 km/h
1053 16-02-2010 05:56:34 -2.6 C 3.27 g/m*3 -2.6 C 0 km/h
1054 16-02-2010 06:21:34 -2.3 C 3.34 g/m*3 -2.3 C 0 km/h
1055 16-02-2010 06:46:34 -2.3 C 3.3 g/m*3 -2.3 C 0 km/h
1056 16-02-2010 07:11:34 -2.5 C 3.26 g/m*3 -2.5 C 0 km/h
1057 16-02-2010 07:36:34 -2.8 C 3.19 g/m*3 -2.8 C 0 km/h
1058 16-02-2010 08:01:34 -2.8 C 3.19 g/m*3 -2.8 C 0 km/h
1059 16-02-2010 08:26:34 -2.5 C 3.3 g/m*3 -2.5 C 0 km/h
1060 16-02-2010 08:51:34 -1.9 C 3.4 g/m*3 -1.9 C 0 km/h
1061 16-02-2010 09:16:34 -1.4 C 3.47 g/m*3 -1.4 C 0 km/h
1062 16-02-2010 09:41:34 -0.7 C 3.51 g/m*3 -0.7 C 0 km/h
1063 16-02-2010 10:06:34 -0.6 C 3.35 g/m*3 -0.6 C 0 km/h
1064 16-02-2010 10:31:34 0.1 C 3.42 g/m*3 0.1 C 0 km/h
1065 16-02-2010 10:56:34 -0.1 C 3.27 g/m*3 -0.1 C 0 km/h
1066 16-02-2010 11:21:34 0.3 C 3.31 g/m*3 0.3 C 0 km/h
1067 16-02-2010 11:46:35 0.4 C 3.19 g/m*3 0.4 C 0 km/h
1068 16-02-2010 12:11:35 1.2 C 3.31 g/m*3 1.2 C 0 km/h
1069 16-02-2010 12:36:35 2.4 C 2.91 g/m*3 2.4 C 0 km/h
1070 16-02-2010 13:01:35 2.8 C 2.76 g/m*3 2.8 C 0 km/h
1071 16-02-2010 13:26:35 2.9 C 2.6 g/m*3 2.9 C 0 km/h
1072 16-02-2010 13:51:35 2.8 C 2.7 g/m*3 2.8 C 0 km/h
1073 16-02-2010 14:16:35 3.5 C 2.64 g/m*3 3.5 C 0 km/h
1074 16-02-2010 14:41:35 3.4 C 2.57 g/m*3 3.4 C 0 km/h
1075 16-02-2010 15:06:35 3.2 C 2.53 g/m*3 3.2 C 0 km/h
Sensor: Nr:Datum:Temp:Abs-Feuchte:Windchill:Wind:
Aussen-T/F 1076 16-02-2010 15:31:35 3.9 C 2.4 g/m*3 3.9 C 0 km/h
1077 16-02-2010 15:56:35 4.5 C 2.43 g/m*3 4.5 C 0 km/h
1078 16-02-2010 16:21:35 4.4 C 2.42 g/m*3 4.4 C 0 km/h
1079 16-02-2010 16:46:35 4.1 C 2.43 g/m*3 4.1 C 0 km/h
1080 16-02-2010 17:11:35 2.8 C 2.58 g/m*3 2.8 C 0 km/h
1081 16-02-2010 17:36:35 1.1 C 2.61 g/m*3 1.1 C 0 km/h
1082 16-02-2010 18:01:35 -0.2 C 2.63 g/m*3 -0.2 C 0 km/h
1083 16-02-2010 18:26:35 -1.4 C 2.73 g/m*3 -1.4 C 0 km/h
1084 16-02-2010 18:51:35 -2 C 2.74 g/m*3 -2 C 0 km/h
1085 16-02-2010 19:16:35 -2.5 C 2.73 g/m*3 -2.5 C 0 km/h
1086 16-02-2010 19:41:35 -2.7 C 2.77 g/m*3 -2.7 C 0 km/h
1087 16-02-2010 20:06:36 -3 C 2.75 g/m*3 -3 C 0 km/h
1088 16-02-2010 20:31:36 -3.2 C 2.75 g/m*3 -3.2 C 0 km/h
1089 16-02-2010 20:56:36 -3.6 C 2.67 g/m*3 -3.6 C 0 km/h
1090 16-02-2010 21:21:36 -3.8 C 2.67 g/m*3 -3.8 C 0 km/h
1091 16-02-2010 21:46:36 -4.1 C 2.62 g/m*3 -4.1 C 0 km/h
1092 16-02-2010 22:11:36 -4.2 C 2.63 g/m*3 -4.2 C 0 km/h
1093 16-02-2010 22:36:36 -4.5 C 2.58 g/m*3 -4.5 C 0 km/h
1094 16-02-2010 23:01:36 -4.7 C 2.54 g/m*3 -4.7 C 0 km/h
1095 16-02-2010 23:26:36 -4.9 C 2.5 g/m*3 -4.9 C 0 km/h
1096 16-02-2010 23:51:36 -5.1 C 2.47 g/m*3 -5.1 C 0 km/h
1097 17-02-2010 00:16:36 -5.4 C 2.41 g/m*3 -5.4 C 0 km/h
1098 17-02-2010 00:41:36 -5.7 C 2.36 g/m*3 -5.7 C 0 km/h
1099 17-02-2010 01:06:36 -6 C 2.34 g/m*3 -6 C 0 km/h
1100 17-02-2010 01:31:36 -6.2 C 2.31 g/m*3 -6.2 C 0 km/h
Sensor: Nr:Datum:Temp:Abs-Feuchte:Windchill:Wind:
Aussen-T/F 1101 17-02-2010 01:56:36 -6.5 C 2.26 g/m*3 -6.5 C 0 km/h
1102 17-02-2010 02:21:36 -6.6 C 2.27 g/m*3 -6.6 C 0 km/h
1103 17-02-2010 02:46:36 -6.8 C 2.24 g/m*3 -6.8 C 0 km/h
1104 17-02-2010 03:11:36 -6.9 C 2.22 g/m*3 -6.9 C 0 km/h
1105 17-02-2010 03:36:36 -6.2 C 2.37 g/m*3 -6.2 C 0 km/h
1106 17-02-2010 04:01:36 -5.8 C 2.44 g/m*3 -5.8 C 0 km/h
1107 17-02-2010 04:26:36 -5.5 C 2.5 g/m*3 -5.5 C 0 km/h
1108 17-02-2010 04:51:37 -5.3 C 2.5 g/m*3 -5.3 C 0 km/h
1109 17-02-2010 05:16:37 -5.2 C 2.48 g/m*3 -5.2 C 0 km/h
1110 17-02-2010 05:41:37 -4.9 C 2.54 g/m*3 -4.9 C 0 km/h
1111 17-02-2010 06:06:37 -4.9 C 2.54 g/m*3 -4.9 C 0 km/h
1112 17-02-2010 06:31:37 -4.7 C 2.57 g/m*3 -4.7 C 0 km/h
1113 17-02-2010 06:56:37 -4.5 C 2.61 g/m*3 -4.5 C 0 km/h
1114 17-02-2010 07:21:37 -4.4 C 2.6 g/m*3 -4.4 C 0 km/h
1115 17-02-2010 07:46:37 -4.1 C 2.62 g/m*3 -4.1 C 0 km/h
1116 17-02-2010 08:11:37 -3.8 C 2.67 g/m*3 -3.8 C 0 km/h
1117 17-02-2010 08:36:37 -3.4 C 2.71 g/m*3 -3.4 C 0 km/h
1118 17-02-2010 09:01:37 -3.1 C 2.65 g/m*3 -3.1 C 0 km/h
1119 17-02-2010 09:26:37 -2.9 C 2.49 g/m*3 -2.9 C 0 km/h
1120 17-02-2010 09:51:37 -2.7 C 2.53 g/m*3 -2.7 C 0 km/h
1121 17-02-2010 10:16:37 -2.7 C 2.53 g/m*3 -2.7 C 0 km/h
1122 17-02-2010 10:41:37 -2.2 C 2.54 g/m*3 -2.2 C 0 km/h
1123 17-02-2010 11:06:37 -1.4 C 2.73 g/m*3 -1.4 C 0 km/h
1124 17-02-2010 11:31:37 -0.6 C 2.79 g/m*3 -0.6 C 0 km/h
1125 17-02-2010 11:56:37 1 C 2.91 g/m*3 1 C 0 km/h
Sensor: Nr:Datum:Temp:Abs-Feuchte:Windchill:Wind:
Aussen-T/F 1126 17-02-2010 12:21:37 2.7 C 2.8 g/m*3 2.7 C 0 km/h
1127 17-02-2010 12:46:37 3.5 C 2.71 g/m*3 3.5 C 0 km/h
1128 17-02-2010 13:11:38 2.9 C 2.72 g/m*3 2.9 C 0 km/h
1129 17-02-2010 13:36:38 2.8 C 2.7 g/m*3 2.8 C 0 km/h
1130 17-02-2010 14:01:38 2.7 C 2.97 g/m*3 2.7 C 0 km/h
1131 17-02-2010 14:26:38 2.1 C 3.3 g/m*3 2.1 C 0 km/h
1132 17-02-2010 14:51:38 2.1 C 3.58 g/m*3 2.1 C 0 km/h
1133 17-02-2010 15:16:38 1.3 C 3.81 g/m*3 1.3 C 0 km/h
1134 17-02-2010 15:41:38 1.2 C 4 g/m*3 1.2 C 0 km/h
1135 17-02-2010 16:06:38 1.3 C 4.13 g/m*3 1.3 C 0 km/h
1136 17-02-2010 16:31:38 1 C 4.15 g/m*3 1 C 0 km/h
1137 17-02-2010 16:56:38 0.9 C 4.23 g/m*3 0.9 C 0 km/h
1138 17-02-2010 17:21:38 0.7 C 4.17 g/m*3 0.7 C 0 km/h
1139 17-02-2010 17:46:38 0.6 C 4.19 g/m*3 0.6 C 0 km/h
1140 17-02-2010 18:11:38 0.5 C 4.21 g/m*3 0.5 C 0 km/h
1141 17-02-2010 18:36:38 0.5 C 4.31 g/m*3 0.5 C 0 km/h
1142 17-02-2010 19:01:38 0.5 C 4.36 g/m*3 0.5 C 0 km/h
1143 17-02-2010 19:26:38 0.5 C 4.36 g/m*3 0.5 C 0 km/h
1144 17-02-2010 19:51:38 0.5 C 4.41 g/m*3 0.5 C 0 km/h
1145 17-02-2010 20:16:38 0.7 C 4.53 g/m*3 0.7 C 0 km/h
1146 17-02-2010 20:41:38 0.7 C 4.53 g/m*3 0.7 C 0 km/h
1147 17-02-2010 21:06:38 0.7 C 4.53 g/m*3 0.7 C 0 km/h
1148 17-02-2010 21:31:38 0.8 C 4.51 g/m*3 0.8 C 0 km/h
1149 17-02-2010 21:56:39 0.8 C 4.56 g/m*3 0.8 C 0 km/h
1150 17-02-2010 22:21:39 0.8 C 4.51 g/m*3 0.8 C 0 km/h
Sensor: Nr:Datum:Temp:Abs-Feuchte:Windchill:Wind:
Aussen-T/F 1151 17-02-2010 22:46:39 0.8 C 4.51 g/m*3 0.8 C 0 km/h
1152 17-02-2010 23:11:39 0.8 C 4.51 g/m*3 0.8 C 0 km/h
1153 17-02-2010 23:36:39 0.8 C 4.51 g/m*3 0.8 C 0 km/h
1154 18-02-2010 00:01:39 0.8 C 4.51 g/m*3 0.8 C 0 km/h
1155 18-02-2010 00:26:39 0.9 C 4.54 g/m*3 0.9 C 0 km/h
1156 18-02-2010 00:51:39 0.9 C 4.54 g/m*3 0.9 C 0 km/h
1157 18-02-2010 01:16:39 1 C 4.57 g/m*3 1 C 0 km/h
1158 18-02-2010 01:41:39 1 C 4.57 g/m*3 1 C 0 km/h
1159 18-02-2010 02:06:39 1 C 4.57 g/m*3 1 C 0 km/h
1160 18-02-2010 02:31:39 1.2 C 4.63 g/m*3 1.2 C 0 km/h
1161 18-02-2010 02:56:39 1 C 4.57 g/m*3 1 C 0 km/h
1162 18-02-2010 03:21:39 1.2 C 4.63 g/m*3 1.2 C 0 km/h
1163 18-02-2010 03:46:39 1 C 4.57 g/m*3 1 C 0 km/h
1164 18-02-2010 04:11:39 1 C 4.62 g/m*3 1 C 0 km/h
1165 18-02-2010 04:36:39 1 C 4.62 g/m*3 1 C 0 km/h
1166 18-02-2010 05:01:39 1.2 C 4.68 g/m*3 1.2 C 0 km/h
1167 18-02-2010 05:26:39 1 C 4.62 g/m*3 1 C 0 km/h
1168 18-02-2010 05:51:39 1.1 C 4.65 g/m*3 1.1 C 0 km/h
1169 18-02-2010 06:16:40 1.1 C 4.65 g/m*3 1.1 C 0 km/h
1170 18-02-2010 06:41:40 1.2 C 4.74 g/m*3 1.2 C 0 km/h
1171 18-02-2010 07:06:40 1.1 C 4.7 g/m*3 1.1 C 0 km/h
1172 18-02-2010 07:31:40 1.1 C 4.7 g/m*3 1.1 C 0 km/h
1173 18-02-2010 07:56:40 1.1 C 4.7 g/m*3 1.1 C 0 km/h
1174 18-02-2010 08:21:40 1.1 C 4.76 g/m*3 1.1 C 0 km/h
1175 18-02-2010 08:46:40 1.4 C 4.85 g/m*3 1.4 C 0 km/h
Sensor: Nr:Datum:Temp:Abs-Feuchte:Windchill:Wind:
Aussen-T/F 1176 18-02-2010 09:11:40 1.7 C 5.01 g/m*3 1.7 C 0 km/h
1177 18-02-2010 09:36:40 2 C 5.06 g/m*3 2 C 0 km/h
1178 18-02-2010 10:01:40 2.6 C 5.32 g/m*3 2.6 C 0 km/h
1179 18-02-2010 10:26:40 3.6 C 5.63 g/m*3 3.6 C 0 km/h
1180 18-02-2010 10:51:40 3.8 C 5.58 g/m*3 3.8 C 0 km/h
1181 18-02-2010 11:16:40 4.1 C 5.25 g/m*3 4.1 C 0 km/h
1182 18-02-2010 11:41:40 4.4 C 5.03 g/m*3 4.4 C 0 km/h
1183 18-02-2010 12:06:40 4.7 C 4.86 g/m*3 4.7 C 0 km/h
1184 18-02-2010 12:31:40 5.1 C 4.65 g/m*3 5.1 C 0 km/h
1185 18-02-2010 12:56:40 5.8 C 4.58 g/m*3 5.8 C 0 km/h
1186 18-02-2010 13:21:40 6.8 C 4.36 g/m*3 6.8 C 0 km/h
1187 18-02-2010 13:46:40 7.4 C 4.14 g/m*3 7.4 C 0 km/h
1188 18-02-2010 14:11:40 8 C 4.13 g/m*3 8 C 0 km/h
1189 18-02-2010 14:36:41 8.5 C 4.1 g/m*3 8.5 C 0 km/h
1190 18-02-2010 15:01:41 9.1 C 3.73 g/m*3 9.1 C 0 km/h
1191 18-02-2010 15:26:41 9.5 C 3.64 g/m*3 9.5 C 0 km/h
1192 18-02-2010 15:51:41 10.1 C 3.59 g/m*3 10.1 C 0 km/h
1193 18-02-2010 16:16:41 9.6 C 3.57 g/m*3 9.6 C 0 km/h
1194 18-02-2010 16:41:41 9.3 C 3.59 g/m*3 9.3 C 0 km/h
1195 18-02-2010 17:06:41 7.5 C 3.36 g/m*3 7.5 C 0 km/h
1196 18-02-2010 17:31:41 6.3 C 3.55 g/m*3 6.3 C 0 km/h
1197 18-02-2010 17:56:41 5.6 C 3.68 g/m*3 5.6 C 0 km/h
1198 18-02-2010 18:21:41 4 C 3.88 g/m*3 4 C 0 km/h
1199 18-02-2010 18:46:41 3.2 C 3.98 g/m*3 3.2 C 0 km/h
1200 18-02-2010 19:11:41 2.6 C 4.11 g/m*3 2.6 C 0 km/h
Sensor: Nr:Datum:Temp:Abs-Feuchte:Windchill:Wind:
Aussen-T/F 1201 18-02-2010 19:36:41 2.5 C 4.2 g/m*3 2.5 C 0 km/h
1202 18-02-2010 20:01:41 2.1 C 4.08 g/m*3 2.1 C 0 km/h
1203 18-02-2010 20:26:41 2 C 4.17 g/m*3 2 C 0 km/h
1204 18-02-2010 20:51:41 1.6 C 4.16 g/m*3 1.6 C 0 km/h
1205 18-02-2010 21:16:41 1.4 C 4.21 g/m*3 1.4 C 0 km/h
1206 18-02-2010 21:41:41 1.4 C 4.21 g/m*3 1.4 C 0 km/h
1207 18-02-2010 22:06:41 1.7 C 4.3 g/m*3 1.7 C 0 km/h
1208 18-02-2010 22:31:41 2 C 4.33 g/m*3 2 C 0 km/h
1209 18-02-2010 22:56:42 1.9 C 4.36 g/m*3 1.9 C 0 km/h
1210 18-02-2010 23:21:42 1.7 C 4.3 g/m*3 1.7 C 0 km/h
1211 18-02-2010 23:46:42 1.9 C 4.53 g/m*3 1.9 C 0 km/h
1212 19-02-2010 00:11:42 2.1 C 4.59 g/m*3 2.1 C 0 km/h
1213 19-02-2010 00:36:42 1.8 C 4.55 g/m*3 1.8 C 0 km/h
1214 19-02-2010 01:01:42 2 C 4.67 g/m*3 2 C 0 km/h
1215 19-02-2010 01:26:42 2 C 4.67 g/m*3 2 C 0 km/h
1216 19-02-2010 01:51:42 2.1 C 4.76 g/m*3 2.1 C 0 km/h
1217 19-02-2010 02:16:42 2.1 C 4.7 g/m*3 2.1 C 0 km/h
1218 19-02-2010 02:41:42 2 C 4.67 g/m*3 2 C 0 km/h
1219 19-02-2010 03:06:42 1.8 C 4.66 g/m*3 1.8 C 0 km/h
1220 19-02-2010 03:31:42 1.8 C 4.71 g/m*3 1.8 C 0 km/h
1221 19-02-2010 03:56:42 1.6 C 4.7 g/m*3 1.6 C 0 km/h
1222 19-02-2010 04:21:42 1.6 C 4.7 g/m*3 1.6 C 0 km/h
1223 19-02-2010 04:46:42 1.6 C 4.7 g/m*3 1.6 C 0 km/h
1224 19-02-2010 05:11:42 1.7 C 4.79 g/m*3 1.7 C 0 km/h
1225 19-02-2010 05:36:42 1.8 C 4.77 g/m*3 1.8 C 0 km/h
Sensor: Nr:Datum:Temp:Abs-Feuchte:Windchill:Wind:
Aussen-T/F 1226 19-02-2010 06:01:42 1.9 C 4.8 g/m*3 1.9 C 0 km/h
1227 19-02-2010 06:26:42 2.1 C 4.76 g/m*3 2.1 C 0 km/h
1228 19-02-2010 06:51:42 2 C 4.67 g/m*3 2 C 0 km/h
1229 19-02-2010 07:16:42 1.7 C 4.63 g/m*3 1.7 C 0 km/h
1230 19-02-2010 07:41:43 1.5 C 4.57 g/m*3 1.5 C 0 km/h
1231 19-02-2010 08:06:43 1.5 C 4.62 g/m*3 1.5 C 0 km/h
1232 19-02-2010 08:31:43 1.6 C 4.65 g/m*3 1.6 C 0 km/h
1233 19-02-2010 08:56:43 2.1 C 4.81 g/m*3 2.1 C 0 km/h
1234 19-02-2010 09:21:43 2.5 C 4.83 g/m*3 2.5 C 0 km/h
1235 19-02-2010 09:46:43 3.1 C 4.91 g/m*3 3.1 C 0 km/h
1236 19-02-2010 10:11:43 3.7 C 5.05 g/m*3 3.7 C 0 km/h
1237 19-02-2010 10:36:02 4.6 C 5.1 g/m*3 4.6 C 0 km/h
1238 19-02-2010 11:01:02 5.3 C 5.06 g/m*3 5.3 C 0 km/h
1239 19-02-2010 11:26:01 6 C 4.79 g/m*3 6 C 0 km/h
1240 19-02-2010 11:51:02 6.5 C 4.72 g/m*3 6.5 C 0 km/h
1241 19-02-2010 12:16:02 7 C 4.49 g/m*3 7 C 0 km/h
1242 19-02-2010 12:41:02 7.6 C 4.27 g/m*3 7.6 C 0 km/h
1243 19-02-2010 13:06:02 7.6 C 4.11 g/m*3 7.6 C 0 km/h
1244 19-02-2010 13:31:02 7.7 C 4.05 g/m*3 7.7 C 0 km/h
1245 19-02-2010 13:56:02 7.6 C 3.95 g/m*3 7.6 C 0 km/h
1246 19-02-2010 14:21:01 7.5 C 4 g/m*3 7.5 C 0 km/h
1247 19-02-2010 14:46:02 7.5 C 3.92 g/m*3 7.5 C 0 km/h
1248 19-02-2010 15:11:03 7.8 C 3.67 g/m*3 7.8 C 0 km/h
1249 19-02-2010 15:36:02 7.2 C 3.53 g/m*3 7.2 C 0 km/h
1250 19-02-2010 16:01:02 6.3 C 3.33 g/m*3 6.3 C 0 km/h
Sensor: Nr:Datum:Temp:Abs-Feuchte:Windchill:Wind:
Aussen-T/F 1251 19-02-2010 16:26:01 6.1 C 3.29 g/m*3 6.1 C 0 km/h
1252 19-02-2010 16:51:01 5.5 C 3.23 g/m*3 5.5 C 0 km/h
1253 19-02-2010 17:16:02 5 C 3.06 g/m*3 5 C 0 km/h
1254 19-02-2010 17:41:02 5.1 C 3.01 g/m*3 5.1 C 0 km/h
1255 19-02-2010 18:06:02 4.5 C 3.02 g/m*3 4.5 C 0 km/h
1256 19-02-2010 18:31:02 4.1 C 3.07 g/m*3 4.1 C 0 km/h
1257 19-02-2010 18:56:01 3.7 C 3.18 g/m*3 3.7 C 0 km/h
1258 19-02-2010 19:21:01 3.6 C 3.22 g/m*3 3.6 C 0 km/h
1259 19-02-2010 19:46:02 3.6 C 3.28 g/m*3 3.6 C 0 km/h
1260 19-02-2010 20:11:02 3.3 C 3.34 g/m*3 3.3 C 0 km/h
1261 19-02-2010 20:36:02 3.3 C 3.46 g/m*3 3.3 C 0 km/h
1262 19-02-2010 21:14:02 3.3 C 3.52 g/m*3 3.3 C 0 km/h
1263 19-02-2010 21:26:02 3.2 C 3.56 g/m*3 3.2 C 0 km/h
1264 19-02-2010 21:38:01 3.2 C 3.5 g/m*3 3.2 C 0 km/h
1265 19-02-2010 21:50:01 3.1 C 3.53 g/m*3 3.1 C 0 km/h
1266 19-02-2010 22:02:02 2.8 C 3.52 g/m*3 2.8 C 0 km/h
1267 19-02-2010 22:14:02 2.6 C 3.53 g/m*3 2.6 C 0 km/h
1268 19-02-2010 22:26:01 2.6 C 3.47 g/m*3 2.6 C 0 km/h
1269 19-02-2010 22:38:02 2.4 C 3.43 g/m*3 2.4 C 0 km/h
1270 19-02-2010 22:50:01 2.2 C 3.38 g/m*3 2.2 C 0 km/h
1271 19-02-2010 23:02:02 2.1 C 3.36 g/m*3 2.1 C 0 km/h
1272 19-02-2010 23:14:02 2.5 C 3.22 g/m*3 2.5 C 0 km/h
1273 19-02-2010 23:26:01 2.5 C 3.16 g/m*3 2.5 C 0 km/h
1274 19-02-2010 23:38:02 2.2 C 3.21 g/m*3 2.2 C 0 km/h
1275 19-02-2010 23:50:01 1.6 C 3.24 g/m*3 1.6 C 0 km/h
Sensor: Nr:Datum:Temp:Abs-Feuchte:Windchill:Wind:
Aussen-T/F 1276 20-02-2010 00:02:02 1.5 C 3.33 g/m*3 1.5 C 0 km/h
1277 20-02-2010 00:14:02 1.4 C 3.31 g/m*3 1.4 C 0 km/h
1278 20-02-2010 00:26:02 1.2 C 3.37 g/m*3 1.2 C 0 km/h
1279 20-02-2010 00:38:01 1.1 C 3.4 g/m*3 1.1 C 0 km/h
1280 20-02-2010 00:50:02 0.7 C 3.41 g/m*3 0.7 C 0 km/h
1281 20-02-2010 01:02:01 0.4 C 3.39 g/m*3 0.4 C 0 km/h
1282 20-02-2010 01:14:01 0.1 C 3.42 g/m*3 0.1 C 0 km/h
1283 20-02-2010 01:26:01 -0.1 C 3.46 g/m*3 -0.1 C 0 km/h
1284 20-02-2010 01:38:02 -0.1 C 3.51 g/m*3 -0.1 C 0 km/h
1285 20-02-2010 01:50:02 -0.1 C 3.56 g/m*3 -0.1 C 0 km/h
1286 20-02-2010 02:02:02 -0.2 C 3.58 g/m*3 -0.2 C 0 km/h
1287 20-02-2010 02:14:02 -0.3 C 3.56 g/m*3 -0.3 C 0 km/h
1288 20-02-2010 02:26:02 -0.3 C 3.61 g/m*3 -0.3 C 0 km/h
1289 20-02-2010 02:38:02 -0.4 C 3.58 g/m*3 -0.4 C 0 km/h
1290 20-02-2010 02:50:01 -0.4 C 3.58 g/m*3 -0.4 C 0 km/h
1291 20-02-2010 03:02:01 -0.4 C 3.58 g/m*3 -0.4 C 0 km/h
1292 20-02-2010 03:14:01 -0.7 C 3.46 g/m*3 -0.7 C 0 km/h
1293 20-02-2010 03:26:01 -0.7 C 3.51 g/m*3 -0.7 C 0 km/h
1294 20-02-2010 03:38:02 -0.8 C 3.48 g/m*3 -0.8 C 0 km/h
1295 20-02-2010 03:50:02 -1 C 3.44 g/m*3 -1 C 0 km/h
1296 20-02-2010 04:02:01 -0.9 C 3.51 g/m*3 -0.9 C 0 km/h
1297 20-02-2010 04:14:01 -0.7 C 3.55 g/m*3 -0.7 C 0 km/h
1298 20-02-2010 04:26:01 -0.7 C 3.51 g/m*3 -0.7 C 0 km/h
1299 20-02-2010 04:38:02 -0.4 C 3.58 g/m*3 -0.4 C 0 km/h
1300 20-02-2010 04:50:01 -0.2 C 3.58 g/m*3 -0.2 C 0 km/h
Sensor: Nr:Datum:Temp:Abs-Feuchte:Windchill:Wind:
Aussen-T/F 1301 20-02-2010 05:02:01 -0.1 C 3.61 g/m*3 -0.1 C 0 km/h
1302 20-02-2010 05:14:01 -0.2 C 3.54 g/m*3 -0.2 C 0 km/h
1303 20-02-2010 05:26:01 -0.2 C 3.58 g/m*3 -0.2 C 0 km/h
1304 20-02-2010 05:38:02 -0.2 C 3.58 g/m*3 -0.2 C 0 km/h
1305 20-02-2010 05:50:01 0 C 3.63 g/m*3 0 C 0 km/h
1306 20-02-2010 06:02:02 -0.2 C 3.58 g/m*3 -0.2 C 0 km/h
1307 20-02-2010 06:14:02 0.1 C 3.71 g/m*3 0.1 C 0 km/h
1308 20-02-2010 06:26:01 0.4 C 3.79 g/m*3 0.4 C 0 km/h
1309 20-02-2010 06:38:01 0.3 C 3.76 g/m*3 0.3 C 0 km/h
1310 20-02-2010 06:50:01 0 C 3.68 g/m*3 0 C 0 km/h
1311 20-02-2010 07:02:01 -0.2 C 3.68 g/m*3 -0.2 C 0 km/h
1312 20-02-2010 07:14:02 -0.5 C 3.65 g/m*3 -0.5 C 0 km/h
1313 20-02-2010 07:26:01 -0.6 C 3.67 g/m*3 -0.6 C 0 km/h
1314 20-02-2010 07:38:01 -0.6 C 3.72 g/m*3 -0.6 C 0 km/h
1315 20-02-2010 07:50:01 -0.6 C 3.76 g/m*3 -0.6 C 0 km/h
1316 20-02-2010 08:02:02 -0.2 C 3.92 g/m*3 -0.2 C 0 km/h
1317 20-02-2010 08:14:02 0.1 C 3.95 g/m*3 0.1 C 0 km/h
1318 20-02-2010 08:26:01 0.4 C 3.98 g/m*3 0.4 C 0 km/h
1319 20-02-2010 08:38:01 0.7 C 3.97 g/m*3 0.7 C 0 km/h
1320 20-02-2010 08:50:01 1 C 3.94 g/m*3 1 C 0 km/h
1321 20-02-2010 09:02:02 1.2 C 3.95 g/m*3 1.2 C 0 km/h
1322 20-02-2010 09:14:02 1.4 C 3.89 g/m*3 1.4 C 0 km/h
1323 20-02-2010 09:26:01 1.5 C 3.87 g/m*3 1.5 C 0 km/h
1324 20-02-2010 09:38:01 1.2 C 3.79 g/m*3 1.2 C 0 km/h
1325 20-02-2010 09:50:01 1.2 C 3.74 g/m*3 1.2 C 0 km/h
Sensor: Nr:Datum:Temp:Abs-Feuchte:Windchill:Wind:
Aussen-T/F 1326 20-02-2010 10:02:01 1.3 C 3.76 g/m*3 1.3 C 0 km/h
1327 20-02-2010 10:14:01 1.4 C 3.73 g/m*3 1.4 C 0 km/h
1328 20-02-2010 10:26:01 1.5 C 3.71 g/m*3 1.5 C 0 km/h
1329 20-02-2010 10:38:01 1.7 C 3.76 g/m*3 1.7 C 0 km/h
1330 20-02-2010 10:50:01 1.8 C 3.73 g/m*3 1.8 C 0 km/h
1331 20-02-2010 11:02:01 2.1 C 3.75 g/m*3 2.1 C 0 km/h
1332 20-02-2010 11:14:01 3 C 3.63 g/m*3 3 C 0 km/h
1333 20-02-2010 11:26:01 3.3 C 3.58 g/m*3 3.3 C 0 km/h
1334 20-02-2010 11:38:01 3.7 C 3.61 g/m*3 3.7 C 0 km/h
1335 20-02-2010 11:50:01 4.1 C 3.46 g/m*3 4.1 C 0 km/h
1336 20-02-2010 12:02:01 4.1 C 3.33 g/m*3 4.1 C 0 km/h
1337 20-02-2010 12:14:01 3.9 C 3.47 g/m*3 3.9 C 0 km/h
1338 20-02-2010 12:26:02 4.1 C 3.39 g/m*3 4.1 C 0 km/h
1339 20-02-2010 12:38:01 3.8 C 3.45 g/m*3 3.8 C 0 km/h
1340 20-02-2010 12:50:01 4.2 C 3.41 g/m*3 4.2 C 0 km/h
1341 20-02-2010 13:02:01 4.2 C 3.22 g/m*3 4.2 C 0 km/h
1342 20-02-2010 13:14:01 4.3 C 3.18 g/m*3 4.3 C 0 km/h
1343 20-02-2010 13:26:02 4.5 C 3.22 g/m*3 4.5 C 0 km/h
1344 20-02-2010 13:38:01 4.5 C 3.16 g/m*3 4.5 C 0 km/h
1345 20-02-2010 13:50:02 4.3 C 3.11 g/m*3 4.3 C 0 km/h
1346 20-02-2010 14:02:01 4.2 C 3.22 g/m*3 4.2 C 0 km/h
1347 20-02-2010 14:14:01 4.5 C 3.22 g/m*3 4.5 C 0 km/h
1348 20-02-2010 14:26:02 4.9 C 3.24 g/m*3 4.9 C 0 km/h
1349 20-02-2010 14:38:01 4.7 C 3.2 g/m*3 4.7 C 0 km/h
1350 20-02-2010 14:50:01 4.5 C 3.22 g/m*3 4.5 C 0 km/h
Sensor: Nr:Datum:Temp:Abs-Feuchte:Windchill:Wind:
Aussen-T/F 1351 20-02-2010 15:02:01 4.4 C 3.2 g/m*3 4.4 C 0 km/h
1352 20-02-2010 15:14:01 4.8 C 3.22 g/m*3 4.8 C 0 km/h
1353 20-02-2010 15:26:02 4.9 C 3.17 g/m*3 4.9 C 0 km/h
1354 20-02-2010 15:38:01 5.1 C 3.15 g/m*3 5.1 C 0 km/h
1355 20-02-2010 15:50:02 5.1 C 3.08 g/m*3 5.1 C 0 km/h
1356 20-02-2010 16:02:01 5 C 3.06 g/m*3 5 C 0 km/h
1357 20-02-2010 16:14:01 4.9 C 3.11 g/m*3 4.9 C 0 km/h
1358 20-02-2010 16:26:02 5 C 3.06 g/m*3 5 C 0 km/h
1359 20-02-2010 16:38:01 5.2 C 3.1 g/m*3 5.2 C 0 km/h
1360 20-02-2010 16:50:02 4.9 C 3.04 g/m*3 4.9 C 0 km/h
1361 20-02-2010 17:02:01 4.5 C 3.09 g/m*3 4.5 C 0 km/h
1362 20-02-2010 17:14:01 4.9 C 3.11 g/m*3 4.9 C 0 km/h
1363 20-02-2010 17:26:01 4.8 C 3.08 g/m*3 4.8 C 0 km/h
1364 20-02-2010 17:38:01 4.2 C 3.16 g/m*3 4.2 C 0 km/h
1365 20-02-2010 17:50:02 3.6 C 3.47 g/m*3 3.6 C 0 km/h
1366 20-02-2010 18:02:01 2.9 C 3.54 g/m*3 2.9 C 0 km/h
1367 20-02-2010 18:14:01 2.5 C 3.56 g/m*3 2.5 C 0 km/h
1368 20-02-2010 18:26:02 2.5 C 3.56 g/m*3 2.5 C 0 km/h
1369 20-02-2010 18:38:01 2.7 C 3.55 g/m*3 2.7 C 0 km/h
1370 20-02-2010 18:50:02 2.6 C 3.47 g/m*3 2.6 C 0 km/h
1371 20-02-2010 19:02:01 2.2 C 3.44 g/m*3 2.2 C 0 km/h
1372 20-02-2010 19:14:01 2 C 3.45 g/m*3 2 C 0 km/h
1373 20-02-2010 19:26:01 1.8 C 3.45 g/m*3 1.8 C 0 km/h
1374 20-02-2010 19:38:02 2 C 3.45 g/m*3 2 C 0 km/h
1375 20-02-2010 19:50:01 1.5 C 3.44 g/m*3 1.5 C 0 km/h
Sensor: Nr:Datum:Temp:Abs-Feuchte:Windchill:Wind:
Aussen-T/F 1376 20-02-2010 20:02:01 1.3 C 3.44 g/m*3 1.3 C 0 km/h
1377 20-02-2010 20:14:01 0.9 C 3.45 g/m*3 0.9 C 0 km/h
1378 20-02-2010 20:26:01 0.8 C 3.48 g/m*3 0.8 C 0 km/h
1379 20-02-2010 20:38:02 0.6 C 3.43 g/m*3 0.6 C 0 km/h
1380 20-02-2010 20:50:01 0.7 C 3.41 g/m*3 0.7 C 0 km/h
1381 20-02-2010 21:02:02 0.7 C 3.41 g/m*3 0.7 C 0 km/h
1382 20-02-2010 21:14:02 0.8 C 3.33 g/m*3 0.8 C 0 km/h
1383 20-02-2010 21:26:01 0.8 C 3.28 g/m*3 0.8 C 0 km/h
1384 20-02-2010 21:38:02 0.7 C 3.3 g/m*3 0.7 C 0 km/h
1385 20-02-2010 21:50:01 1 C 3.32 g/m*3 1 C 0 km/h
1386 20-02-2010 22:02:02 1.1 C 3.34 g/m*3 1.1 C 0 km/h
1387 20-02-2010 22:14:02 0.9 C 3.35 g/m*3 0.9 C 0 km/h
1388 20-02-2010 22:26:01 0.7 C 3.36 g/m*3 0.7 C 0 km/h
1389 20-02-2010 22:38:02 0.4 C 3.34 g/m*3 0.4 C 0 km/h
1390 20-02-2010 22:50:01 0.4 C 3.39 g/m*3 0.4 C 0 km/h
1391 20-02-2010 23:02:02 0.5 C 3.41 g/m*3 0.5 C 0 km/h
1392 20-02-2010 23:14:02 0.6 C 3.48 g/m*3 0.6 C 0 km/h
1393 20-02-2010 23:26:01 0.9 C 3.56 g/m*3 0.9 C 0 km/h
1394 20-02-2010 23:38:01 1.4 C 3.63 g/m*3 1.4 C 0 km/h
1395 20-02-2010 23:50:01 1.5 C 3.6 g/m*3 1.5 C 0 km/h
1396 21-02-2010 00:02:01 1.6 C 3.62 g/m*3 1.6 C 0 km/h
1397 21-02-2010 00:14:01 1.8 C 3.67 g/m*3 1.8 C 0 km/h
1398 21-02-2010 00:26:01 2.1 C 3.64 g/m*3 2.1 C 0 km/h
1399 21-02-2010 00:38:02 2.2 C 3.66 g/m*3 2.2 C 0 km/h
1400 21-02-2010 00:50:01 2.1 C 3.64 g/m*3 2.1 C 0 km/h
Sensor: Nr:Datum:Temp:Abs-Feuchte:Windchill:Wind:
Aussen-T/F 1401 21-02-2010 01:02:02 2.1 C 3.64 g/m*3 2.1 C 0 km/h
1402 21-02-2010 01:14:02 2 C 3.61 g/m*3 2 C 0 km/h
1403 21-02-2010 01:26:01 1.7 C 3.59 g/m*3 1.7 C 0 km/h
1404 21-02-2010 01:38:02 1.7 C 3.59 g/m*3 1.7 C 0 km/h
1405 21-02-2010 01:50:01 1.7 C 3.54 g/m*3 1.7 C 0 km/h
1406 21-02-2010 02:02:02 1.6 C 3.57 g/m*3 1.6 C 0 km/h
1407 21-02-2010 02:14:02 1.6 C 3.57 g/m*3 1.6 C 0 km/h
1408 21-02-2010 02:26:01 1.7 C 3.59 g/m*3 1.7 C 0 km/h
1409 21-02-2010 02:38:01 1.8 C 3.62 g/m*3 1.8 C 0 km/h
1410 21-02-2010 02:50:01 1.7 C 3.7 g/m*3 1.7 C 0 km/h
1411 21-02-2010 03:02:01 1.5 C 3.81 g/m*3 1.5 C 0 km/h
1412 21-02-2010 03:14:02 1.3 C 3.87 g/m*3 1.3 C 0 km/h
1413 21-02-2010 03:26:02 1 C 3.89 g/m*3 1 C 0 km/h
1414 21-02-2010 03:38:01 0.6 C 3.89 g/m*3 0.6 C 0 km/h
1415 21-02-2010 03:50:01 0.4 C 3.93 g/m*3 0.4 C 0 km/h
1416 21-02-2010 04:02:02 0.4 C 3.98 g/m*3 0.4 C 0 km/h
1417 21-02-2010 04:14:02 0.4 C 4.08 g/m*3 0.4 C 0 km/h
1418 21-02-2010 04:26:01 0.3 C 4.11 g/m*3 0.3 C 0 km/h
1419 21-02-2010 04:38:01 0.4 C 4.18 g/m*3 0.4 C 0 km/h
1420 21-02-2010 04:50:01 0.4 C 4.23 g/m*3 0.4 C 0 km/h
1421 21-02-2010 05:02:01 0.5 C 4.31 g/m*3 0.5 C 0 km/h
1422 21-02-2010 05:14:01 0.4 C 4.33 g/m*3 0.4 C 0 km/h
1423 21-02-2010 05:26:01 0.5 C 4.36 g/m*3 0.5 C 0 km/h
1424 21-02-2010 05:38:01 0.5 C 4.41 g/m*3 0.5 C 0 km/h
1425 21-02-2010 05:50:01 0.6 C 4.44 g/m*3 0.6 C 0 km/h
Sensor: Nr:Datum:Temp:Abs-Feuchte:Windchill:Wind:
Aussen-T/F 1426 21-02-2010 06:02:01 0.6 C 4.49 g/m*3 0.6 C 0 km/h
1427 21-02-2010 06:14:01 0.7 C 4.53 g/m*3 0.7 C 0 km/h
1428 21-02-2010 06:26:02 0.7 C 4.53 g/m*3 0.7 C 0 km/h
1429 21-02-2010 06:38:01 0.8 C 4.56 g/m*3 0.8 C 0 km/h
1430 21-02-2010 06:50:02 0.8 C 4.56 g/m*3 0.8 C 0 km/h
1431 21-02-2010 07:02:01 0.9 C 4.54 g/m*3 0.9 C 0 km/h
1432 21-02-2010 07:14:01 0.9 C 4.48 g/m*3 0.9 C 0 km/h
1433 21-02-2010 07:26:02 0.8 C 4.45 g/m*3 0.8 C 0 km/h
1434 21-02-2010 07:38:01 0.8 C 4.4 g/m*3 0.8 C 0 km/h
1435 21-02-2010 07:50:01 0.8 C 4.35 g/m*3 0.8 C 0 km/h
1436 21-02-2010 08:02:02 1.3 C 4.45 g/m*3 1.3 C 0 km/h
1437 21-02-2010 08:14:02 1.2 C 4.42 g/m*3 1.2 C 0 km/h
1438 21-02-2010 08:26:01 1.4 C 4.37 g/m*3 1.4 C 0 km/h
1439 21-02-2010 08:38:01 1.6 C 4.38 g/m*3 1.6 C 0 km/h
1440 21-02-2010 08:50:01 1.5 C 4.4 g/m*3 1.5 C 0 km/h
1441 21-02-2010 09:02:01 1.6 C 4.43 g/m*3 1.6 C 0 km/h
1442 21-02-2010 09:14:02 1.7 C 4.46 g/m*3 1.7 C 0 km/h
1443 21-02-2010 09:26:01 2 C 4.5 g/m*3 2 C 0 km/h
1444 21-02-2010 09:38:01 2.1 C 4.48 g/m*3 2.1 C 0 km/h
1445 21-02-2010 09:50:01 2.3 C 4.48 g/m*3 2.3 C 0 km/h
1446 21-02-2010 10:02:02 2.5 C 4.48 g/m*3 2.5 C 0 km/h
1447 21-02-2010 10:14:02 2.8 C 4.52 g/m*3 2.8 C 0 km/h
1448 21-02-2010 10:26:01 2.9 C 4.49 g/m*3 2.9 C 0 km/h
1449 21-02-2010 10:38:02 3 C 4.34 g/m*3 3 C 0 km/h
1450 21-02-2010 10:50:02 3.1 C 4.37 g/m*3 3.1 C 0 km/h
Sensor: Nr:Datum:Temp:Abs-Feuchte:Windchill:Wind:
Aussen-T/F 1451 21-02-2010 11:02:01 3.2 C 4.4 g/m*3 3.2 C 0 km/h
1452 21-02-2010 11:14:01 3.7 C 4.42 g/m*3 3.7 C 0 km/h
1453 21-02-2010 11:26:01 3.8 C 4.33 g/m*3 3.8 C 0 km/h
1454 21-02-2010 11:38:02 4 C 4.26 g/m*3 4 C 0 km/h
1455 21-02-2010 11:50:01 4.2 C 4.25 g/m*3 4.2 C 0 km/h
1456 21-02-2010 12:02:01 4.4 C 4.05 g/m*3 4.4 C 0 km/h
1457 21-02-2010 12:14:01 4.5 C 3.81 g/m*3 4.5 C 0 km/h
1458 21-02-2010 12:26:02 4.8 C 3.82 g/m*3 4.8 C 0 km/h
1459 21-02-2010 12:38:01 5 C 3.94 g/m*3 5 C 0 km/h
1460 21-02-2010 12:50:01 5.1 C 3.9 g/m*3 5.1 C 0 km/h
1461 21-02-2010 13:02:01 4.9 C 3.78 g/m*3 4.9 C 0 km/h
1462 21-02-2010 13:14:01 4.7 C 3.86 g/m*3 4.7 C 0 km/h
1463 21-02-2010 13:26:01 4.7 C 3.93 g/m*3 4.7 C 0 km/h
1464 21-02-2010 13:38:01 4.7 C 4.06 g/m*3 4.7 C 0 km/h
1465 21-02-2010 13:50:01 5.2 C 4.06 g/m*3 5.2 C 0 km/h
1466 21-02-2010 14:02:02 5.7 C 4.06 g/m*3 5.7 C 0 km/h
1467 21-02-2010 14:14:02 5.3 C 3.95 g/m*3 5.3 C 0 km/h
1468 21-02-2010 14:26:01 5.3 C 3.95 g/m*3 5.3 C 0 km/h
1469 21-02-2010 14:38:01 5.2 C 4.06 g/m*3 5.2 C 0 km/h
1470 21-02-2010 14:50:01 5.2 C 4.06 g/m*3 5.2 C 0 km/h
1471 21-02-2010 15:02:01 5.4 C 4.12 g/m*3 5.4 C 0 km/h
1472 21-02-2010 15:14:01 6.1 C 4.09 g/m*3 6.1 C 0 km/h
1473 21-02-2010 15:26:01 6.3 C 4.07 g/m*3 6.3 C 0 km/h
1474 21-02-2010 15:38:01 6.4 C 4.1 g/m*3 6.4 C 0 km/h
1475 21-02-2010 15:50:02 6.3 C 4.15 g/m*3 6.3 C 0 km/h
Sensor: Nr:Datum:Temp:Abs-Feuchte:Windchill:Wind:
Aussen-T/F 1476 21-02-2010 16:02:01 6.4 C 4.17 g/m*3 6.4 C 0 km/h
1477 21-02-2010 16:14:01 6.5 C 4.12 g/m*3 6.5 C 0 km/h
1478 21-02-2010 16:26:02 6.5 C 4.2 g/m*3 6.5 C 0 km/h
1479 21-02-2010 16:38:01 6.2 C 4.04 g/m*3 6.2 C 0 km/h
1480 21-02-2010 16:50:01 7.2 C 4.24 g/m*3 7.2 C 0 km/h
1481 21-02-2010 17:02:02 6.5 C 3.97 g/m*3 6.5 C 0 km/h
1482 21-02-2010 17:14:02 5.9 C 4.11 g/m*3 5.9 C 0 km/h
1483 21-02-2010 17:26:01 5.6 C 4.1 g/m*3 5.6 C 0 km/h
1484 21-02-2010 17:38:02 5.3 C 4.16 g/m*3 5.3 C 0 km/h
1485 21-02-2010 17:50:01 5.1 C 4.17 g/m*3 5.1 C 0 km/h
1486 21-02-2010 18:02:02 4.8 C 4.29 g/m*3 4.8 C 0 km/h
1487 21-02-2010 18:14:02 4.6 C 4.3 g/m*3 4.6 C 0 km/h
1488 21-02-2010 18:26:01 4.4 C 4.31 g/m*3 4.4 C 0 km/h
1489 21-02-2010 18:38:01 3.8 C 4.27 g/m*3 3.8 C 0 km/h
1490 21-02-2010 18:50:01 3.4 C 4.28 g/m*3 3.4 C 0 km/h
1491 21-02-2010 19:02:02 3 C 4.22 g/m*3 3 C 0 km/h
1492 21-02-2010 19:14:02 2.9 C 4.37 g/m*3 2.9 C 0 km/h
1493 21-02-2010 19:26:01 2.8 C 4.4 g/m*3 2.8 C 0 km/h
1494 21-02-2010 19:38:01 2.8 C 4.46 g/m*3 2.8 C 0 km/h
1495 21-02-2010 19:50:01 2.7 C 4.49 g/m*3 2.7 C 0 km/h
1496 21-02-2010 20:02:01 2.5 C 4.43 g/m*3 2.5 C 0 km/h
1497 21-02-2010 20:14:01 2.4 C 4.4 g/m*3 2.4 C 0 km/h
1498 21-02-2010 20:26:01 2.7 C 4.6 g/m*3 2.7 C 0 km/h
1499 21-02-2010 20:38:01 2.8 C 4.63 g/m*3 2.8 C 0 km/h
1500 21-02-2010 20:50:01 3 C 4.58 g/m*3 3 C 0 km/h
Sensor: Nr:Datum:Temp:Abs-Feuchte:Windchill:Wind:
Aussen-T/F 1501 21-02-2010 21:02:01 3 C 4.58 g/m*3 3 C 0 km/h
1502 21-02-2010 21:14:01 3 C 4.58 g/m*3 3 C 0 km/h
1503 21-02-2010 21:26:02 2.9 C 4.61 g/m*3 2.9 C 0 km/h
1504 21-02-2010 21:38:01 2.8 C 4.58 g/m*3 2.8 C 0 km/h
1505 21-02-2010 21:50:02 2.7 C 4.6 g/m*3 2.7 C 0 km/h
1506 21-02-2010 22:02:01 2.6 C 4.57 g/m*3 2.6 C 0 km/h
1507 21-02-2010 22:14:01 2.4 C 4.51 g/m*3 2.4 C 0 km/h
1508 21-02-2010 22:26:02 2.3 C 4.54 g/m*3 2.3 C 0 km/h
1509 21-02-2010 22:38:01 2.1 C 4.53 g/m*3 2.1 C 0 km/h
1510 21-02-2010 22:50:02 2.1 C 4.53 g/m*3 2.1 C 0 km/h
1511 21-02-2010 23:02:01 2.2 C 4.62 g/m*3 2.2 C 0 km/h
1512 21-02-2010 23:14:01 2.1 C 4.59 g/m*3 2.1 C 0 km/h
1513 21-02-2010 23:26:02 2 C 4.56 g/m*3 2 C 0 km/h
1514 21-02-2010 23:38:01 2 C 4.56 g/m*3 2 C 0 km/h
1515 21-02-2010 23:50:02 1.9 C 4.58 g/m*3 1.9 C 0 km/h
1516 22-02-2010 00:02:01 1.9 C 4.58 g/m*3 1.9 C 0 km/h
1517 22-02-2010 00:14:01 1.8 C 4.55 g/m*3 1.8 C 0 km/h
1518 22-02-2010 00:26:01 1.7 C 4.57 g/m*3 1.7 C 0 km/h
1519 22-02-2010 00:38:02 1.7 C 4.57 g/m*3 1.7 C 0 km/h
1520 22-02-2010 00:50:01 1.6 C 4.54 g/m*3 1.6 C 0 km/h
1521 22-02-2010 01:02:02 1.6 C 4.54 g/m*3 1.6 C 0 km/h
1522 22-02-2010 01:14:02 1.5 C 4.51 g/m*3 1.5 C 0 km/h
1523 22-02-2010 01:26:01 1.3 C 4.45 g/m*3 1.3 C 0 km/h
1524 22-02-2010 01:38:02 1.3 C 4.45 g/m*3 1.3 C 0 km/h
1525 22-02-2010 01:50:01 1.3 C 4.45 g/m*3 1.3 C 0 km/h
Sensor: Nr:Datum:Temp:Abs-Feuchte:Windchill:Wind:
Aussen-T/F 1526 22-02-2010 02:02:02 1.3 C 4.45 g/m*3 1.3 C 0 km/h
1527 22-02-2010 02:14:02 1.3 C 4.45 g/m*3 1.3 C 0 km/h
1528 22-02-2010 02:26:01 1 C 4.36 g/m*3 1 C 0 km/h
1529 22-02-2010 02:38:01 1 C 4.36 g/m*3 1 C 0 km/h
1530 22-02-2010 02:50:01 1 C 4.41 g/m*3 1 C 0 km/h
1531 22-02-2010 03:02:01 1.1 C 4.44 g/m*3 1.1 C 0 km/h
1532 22-02-2010 03:14:02 1.1 C 4.44 g/m*3 1.1 C 0 km/h
1533 22-02-2010 03:26:02 1 C 4.41 g/m*3 1 C 0 km/h
1534 22-02-2010 03:38:01 1.1 C 4.44 g/m*3 1.1 C 0 km/h
1535 22-02-2010 03:50:01 1.1 C 4.49 g/m*3 1.1 C 0 km/h
1536 22-02-2010 04:02:02 1.4 C 4.59 g/m*3 1.4 C 0 km/h
1537 22-02-2010 04:14:02 1.1 C 4.44 g/m*3 1.1 C 0 km/h
1538 22-02-2010 04:26:01 1 C 4.41 g/m*3 1 C 0 km/h
1539 22-02-2010 04:38:02 1.1 C 4.49 g/m*3 1.1 C 0 km/h
1540 22-02-2010 04:50:01 1.1 C 4.49 g/m*3 1.1 C 0 km/h
1541 22-02-2010 05:02:02 1.1 C 4.49 g/m*3 1.1 C 0 km/h
1542 22-02-2010 05:14:02 1.2 C 4.53 g/m*3 1.2 C 0 km/h
1543 22-02-2010 05:26:01 1.4 C 4.59 g/m*3 1.4 C 0 km/h
1544 22-02-2010 05:38:01 1.4 C 4.59 g/m*3 1.4 C 0 km/h
1545 22-02-2010 05:50:01 1.5 C 4.62 g/m*3 1.5 C 0 km/h
1546 22-02-2010 06:02:01 1.5 C 4.62 g/m*3 1.5 C 0 km/h
1547 22-02-2010 06:14:02 1.5 C 4.62 g/m*3 1.5 C 0 km/h
1548 22-02-2010 06:26:01 1.5 C 4.62 g/m*3 1.5 C 0 km/h
1549 22-02-2010 06:38:01 1.6 C 4.65 g/m*3 1.6 C 0 km/h
1550 22-02-2010 06:50:01 1.6 C 4.65 g/m*3 1.6 C 0 km/h
Sensor: Nr:Datum:Temp:Abs-Feuchte:Windchill:Wind:
Aussen-T/F 1551 22-02-2010 07:02:01 1.6 C 4.65 g/m*3 1.6 C 0 km/h
1552 22-02-2010 07:14:01 1.8 C 4.77 g/m*3 1.8 C 0 km/h
1553 22-02-2010 07:26:02 2.2 C 4.9 g/m*3 2.2 C 0 km/h
1554 22-02-2010 07:38:01 2.3 C 4.93 g/m*3 2.3 C 0 km/h
1555 22-02-2010 07:50:02 2.5 C 5 g/m*3 2.5 C 0 km/h
1556 22-02-2010 08:02:01 2.7 C 5.07 g/m*3 2.7 C 0 km/h
1557 22-02-2010 08:14:01 3 C 5.11 g/m*3 3 C 0 km/h
1558 22-02-2010 08:26:02 3.2 C 5.12 g/m*3 3.2 C 0 km/h
1559 22-02-2010 08:38:01 3.5 C 5.16 g/m*3 3.5 C 0 km/h
1560 22-02-2010 08:50:02 3.8 C 5.21 g/m*3 3.8 C 0 km/h
1561 22-02-2010 09:02:01 4.2 C 5.22 g/m*3 4.2 C 0 km/h
1562 22-02-2010 09:14:01 4.5 C 5.32 g/m*3 4.5 C 0 km/h
1563 22-02-2010 09:26:01 4.8 C 5.3 g/m*3 4.8 C 0 km/h
1564 22-02-2010 09:38:01 5.1 C 5.27 g/m*3 5.1 C 0 km/h
1565 22-02-2010 09:50:02 5.3 C 5.2 g/m*3 5.3 C 0 km/h
1566 22-02-2010 10:02:01 5.7 C 5.19 g/m*3 5.7 C 0 km/h
1567 22-02-2010 10:14:01 6.3 C 5.18 g/m*3 6.3 C 0 km/h
1568 22-02-2010 10:26:01 6.9 C 5.08 g/m*3 6.9 C 0 km/h
1569 22-02-2010 10:38:02 7.2 C 5.02 g/m*3 7.2 C 0 km/h
1570 22-02-2010 10:50:01 7.6 C 5.08 g/m*3 7.6 C 0 km/h
1571 22-02-2010 11:02:01 7.7 C 5.19 g/m*3 7.7 C 0 km/h
1572 22-02-2010 11:14:01 8 C 5.21 g/m*3 8 C 0 km/h
1573 22-02-2010 11:26:02 8.5 C 5.21 g/m*3 8.5 C 0 km/h
1574 22-02-2010 11:38:01 8.9 C 5.26 g/m*3 8.9 C 0 km/h
1575 22-02-2010 11:50:02 8.7 C 5.19 g/m*3 8.7 C 0 km/h
Sensor: Nr:Datum:Temp:Abs-Feuchte:Windchill:Wind:
Aussen-T/F 1576 22-02-2010 12:02:01 8.6 C 5.33 g/m*3 8.6 C 0 km/h
1577 22-02-2010 12:14:01 8.4 C 5.51 g/m*3 8.4 C 0 km/h
1578 22-02-2010 12:26:02 8.8 C 5.74 g/m*3 8.8 C 0 km/h
1579 22-02-2010 12:38:01 9.7 C 5.81 g/m*3 9.7 C 0 km/h
1580 22-02-2010 12:50:02 10.3 C 5.55 g/m*3 10.3 C 0 km/h
1581 22-02-2010 13:02:01 10.6 C 5.37 g/m*3 10.6 C 0 km/h
1582 22-02-2010 13:14:01 11.2 C 5.27 g/m*3 11.2 C 0 km/h
1583 22-02-2010 13:26:01 11.7 C 5.12 g/m*3 11.7 C 0 km/h
1584 22-02-2010 13:38:02 11.4 C 5.13 g/m*3 11.4 C 0 km/h
1585 22-02-2010 13:50:01 11.8 C 5.26 g/m*3 11.8 C 0 km/h
1586 22-02-2010 14:02:02 11.9 C 5.08 g/m*3 11.9 C 0 km/h
1587 22-02-2010 14:14:02 12.7 C 5.01 g/m*3 12.7 C 0 km/h
1588 22-02-2010 14:26:01 12.2 C 5.07 g/m*3 12.2 C 0 km/h
1589 22-02-2010 14:38:02 12.5 C 5.06 g/m*3 12.5 C 0 km/h
1590 22-02-2010 14:50:01 12.2 C 5.07 g/m*3 12.2 C 0 km/h
1591 22-02-2010 15:02:02 12.3 C 5.1 g/m*3 12.3 C 0 km/h
1592 22-02-2010 15:14:02 12.7 C 5.12 g/m*3 12.7 C 0 km/h
1593 22-02-2010 15:26:01 13.3 C 5.2 g/m*3 13.3 C 0 km/h
1594 22-02-2010 15:38:02 13.4 C 5 g/m*3 13.4 C 0 km/h
1595 22-02-2010 15:50:01 12.7 C 5.23 g/m*3 12.7 C 0 km/h
1596 22-02-2010 16:02:02 12.4 C 5.14 g/m*3 12.4 C 0 km/h
1597 22-02-2010 16:14:02 11.9 C 5.3 g/m*3 11.9 C 0 km/h
1598 22-02-2010 16:26:01 11.5 C 5.37 g/m*3 11.5 C 0 km/h
1599 22-02-2010 16:38:01 11.4 C 5.44 g/m*3 11.4 C 0 km/h
1600 22-02-2010 16:50:01 11.8 C 5.58 g/m*3 11.8 C 0 km/h
Sensor: Nr:Datum:Temp:Abs-Feuchte:Windchill:Wind:
Aussen-T/F 1601 22-02-2010 17:02:01 12.1 C 5.47 g/m*3 12.1 C 0 km/h
1602 22-02-2010 17:14:01 11.8 C 5.47 g/m*3 11.8 C 0 km/h
1603 22-02-2010 17:26:01 11.3 C 5.51 g/m*3 11.3 C 0 km/h
1604 22-02-2010 17:38:01 10.7 C 5.6 g/m*3 10.7 C 0 km/h
1605 22-02-2010 17:50:01 10.4 C 5.69 g/m*3 10.4 C 0 km/h
1606 22-02-2010 18:02:01 10.1 C 5.67 g/m*3 10.1 C 0 km/h
1607 22-02-2010 18:14:01 9.9 C 5.79 g/m*3 9.9 C 0 km/h
1608 22-02-2010 18:26:02 9.7 C 5.72 g/m*3 9.7 C 0 km/h
1609 22-02-2010 18:38:01 9.4 C 5.7 g/m*3 9.4 C 0 km/h
1610 22-02-2010 18:50:02 9.2 C 5.8 g/m*3 9.2 C 0 km/h
1611 22-02-2010 19:02:01 9 C 5.73 g/m*3 9 C 0 km/h
1612 22-02-2010 19:14:01 8.9 C 5.87 g/m*3 8.9 C 0 km/h
1613 22-02-2010 19:26:02 8.9 C 5.87 g/m*3 8.9 C 0 km/h
1614 22-02-2010 19:38:01 9 C 5.82 g/m*3 9 C 0 km/h
1615 22-02-2010 19:50:02 9.1 C 5.77 g/m*3 9.1 C 0 km/h
1616 22-02-2010 20:02:02 9.1 C 5.68 g/m*3 9.1 C 0 km/h
1617 22-02-2010 20:14:02 9.2 C 5.63 g/m*3 9.2 C 0 km/h
1618 22-02-2010 20:26:01 9.5 C 5.64 g/m*3 9.5 C 0 km/h
1619 22-02-2010 20:38:02 9.4 C 5.52 g/m*3 9.4 C 0 km/h
1620 22-02-2010 20:50:02 9 C 5.47 g/m*3 9 C 0 km/h
1621 22-02-2010 21:02:01 8.7 C 5.53 g/m*3 8.7 C 0 km/h
1622 22-02-2010 21:14:01 8.9 C 5.52 g/m*3 8.9 C 0 km/h
1623 22-02-2010 21:26:01 8.8 C 5.48 g/m*3 8.8 C 0 km/h
1624 22-02-2010 21:38:02 8.9 C 5.52 g/m*3 8.9 C 0 km/h
1625 22-02-2010 21:50:01 8.9 C 5.52 g/m*3 8.9 C 0 km/h
Sensor: Nr:Datum:Temp:Abs-Feuchte:Windchill:Wind:
Aussen-T/F 1626 22-02-2010 22:02:02 9.1 C 5.5 g/m*3 9.1 C 0 km/h
1627 22-02-2010 22:14:02 9.5 C 5.55 g/m*3 9.5 C 0 km/h
1628 22-02-2010 22:28:08 10.1 C 5.67 g/m*3 10.1 C 0 km/h
1629 22-02-2010 22:40:08 11.1 C 5.54 g/m*3 11.1 C 0 km/h
1630 22-02-2010 22:52:08 11.5 C 5.47 g/m*3 11.5 C 0 km/h
1631 22-02-2010 23:04:08 12 C 5.33 g/m*3 12 C 0 km/h
1632 22-02-2010 23:16:08 12.1 C 5.36 g/m*3 12.1 C 0 km/h
1633 22-02-2010 23:28:08 12.1 C 5.47 g/m*3 12.1 C 0 km/h
1634 22-02-2010 23:40:08 12 C 5.44 g/m*3 12 C 0 km/h
1635 22-02-2010 23:52:08 12.2 C 5.5 g/m*3 12.2 C 0 km/h
1636 23-02-2010 00:04:08 12.1 C 5.47 g/m*3 12.1 C 0 km/h
1637 23-02-2010 00:16:08 12.1 C 5.47 g/m*3 12.1 C 0 km/h
1638 23-02-2010 00:28:08 12.2 C 5.5 g/m*3 12.2 C 0 km/h
1639 23-02-2010 00:40:08 12.2 C 5.4 g/m*3 12.2 C 0 km/h
1640 23-02-2010 00:52:08 12.1 C 5.36 g/m*3 12.1 C 0 km/h
1641 23-02-2010 01:04:08 11.8 C 5.47 g/m*3 11.8 C 0 km/h
1642 23-02-2010 01:16:08 11.5 C 5.58 g/m*3 11.5 C 0 km/h
1643 23-02-2010 01:28:08 11.4 C 5.75 g/m*3 11.4 C 0 km/h
1644 23-02-2010 01:40:08 11.4 C 5.75 g/m*3 11.4 C 0 km/h
1645 23-02-2010 01:52:08 11.4 C 5.85 g/m*3 11.4 C 0 km/h
1646 23-02-2010 02:04:08 11.2 C 5.78 g/m*3 11.2 C 0 km/h
1647 23-02-2010 02:16:08 11.2 C 5.88 g/m*3 11.2 C 0 km/h
1648 23-02-2010 02:28:08 10.6 C 6.25 g/m*3 10.6 C 0 km/h
1649 23-02-2010 02:40:08 10.4 C 6.46 g/m*3 10.4 C 0 km/h
1650 23-02-2010 02:52:08 9.6 C 6.78 g/m*3 9.6 C 0 km/h
Sensor: Nr:Datum:Temp:Abs-Feuchte:Windchill:Wind:
Aussen-T/F 1651 23-02-2010 03:04:09 9.3 C 6.83 g/m*3 9.3 C 0 km/h
1652 23-02-2010 03:16:09 9.2 C 6.97 g/m*3 9.2 C 0 km/h
1653 23-02-2010 03:28:09 9.1 C 6.92 g/m*3 9.1 C 0 km/h
1654 23-02-2010 03:40:09 9.1 C 7.01 g/m*3 9.1 C 0 km/h
1655 23-02-2010 03:52:09 8.9 C 7.1 g/m*3 8.9 C 0 km/h
1656 23-02-2010 04:04:09 8.6 C 7.13 g/m*3 8.6 C 0 km/h
1657 23-02-2010 04:16:09 8.6 C 7.22 g/m*3 8.6 C 0 km/h
1658 23-02-2010 04:28:09 8.5 C 7.17 g/m*3 8.5 C 0 km/h
1659 23-02-2010 04:40:09 8.6 C 7.22 g/m*3 8.6 C 0 km/h
1660 23-02-2010 04:52:09 8.5 C 7.17 g/m*3 8.5 C 0 km/h
1661 23-02-2010 05:04:09 8.4 C 7.04 g/m*3 8.4 C 0 km/h
1662 23-02-2010 05:16:09 8.5 C 7.17 g/m*3 8.5 C 0 km/h
1663 23-02-2010 05:28:09 8.3 C 7.08 g/m*3 8.3 C 0 km/h
1664 23-02-2010 05:40:09 8.5 C 7.17 g/m*3 8.5 C 0 km/h
1665 23-02-2010 05:52:09 8.5 C 7.09 g/m*3 8.5 C 0 km/h
1666 23-02-2010 06:04:09 8.5 C 7.09 g/m*3 8.5 C 0 km/h
1667 23-02-2010 06:16:09 8.5 C 7.09 g/m*3 8.5 C 0 km/h
1668 23-02-2010 06:28:09 8.5 C 7.09 g/m*3 8.5 C 0 km/h
1669 23-02-2010 06:40:09 8.5 C 7.09 g/m*3 8.5 C 0 km/h
1670 23-02-2010 06:52:09 8.5 C 7.09 g/m*3 8.5 C 0 km/h
1671 23-02-2010 07:04:09 8.4 C 7.04 g/m*3 8.4 C 0 km/h
1672 23-02-2010 07:16:08 8.2 C 6.95 g/m*3 8.2 C 0 km/h
1673 23-02-2010 07:28:08 8.1 C 6.99 g/m*3 8.1 C 0 km/h
1674 23-02-2010 07:40:08 8.2 C 7.03 g/m*3 8.2 C 0 km/h
1675 23-02-2010 07:52:01 8.2 C 7.03 g/m*3 8.2 C 0 km/h
Sensor: Nr:Datum:Temp:Abs-Feuchte:Windchill:Wind:
Aussen-T/F 1676 23-02-2010 08:04:02 8.3 C 7.16 g/m*3 8.3 C 0 km/h
1677 23-02-2010 08:16:01 8.5 C 7.26 g/m*3 8.5 C 0 km/h
1678 23-02-2010 08:28:01 8.6 C 7.22 g/m*3 8.6 C 0 km/h
1679 23-02-2010 08:40:02 8.8 C 7.31 g/m*3 8.8 C 0 km/h
1680 23-02-2010 08:52:02 8.9 C 7.27 g/m*3 8.9 C 0 km/h
1681 23-02-2010 09:04:02 9 C 7.23 g/m*3 9 C 0 km/h
1682 23-02-2010 09:16:01 9.1 C 7.28 g/m*3 9.1 C 0 km/h
1683 23-02-2010 09:28:01 9.1 C 7.1 g/m*3 9.1 C 0 km/h
1684 23-02-2010 09:40:02 9.1 C 7.01 g/m*3 9.1 C 0 km/h
1685 23-02-2010 09:52:02 9.3 C 7.19 g/m*3 9.3 C 0 km/h
1686 23-02-2010 10:04:02 9.7 C 7.19 g/m*3 9.7 C 0 km/h
1687 23-02-2010 10:16:01 10.4 C 7.04 g/m*3 10.4 C 0 km/h
1688 23-02-2010 10:28:01 10.7 C 6.88 g/m*3 10.7 C 0 km/h
1689 23-02-2010 10:40:02 10.6 C 6.83 g/m*3 10.6 C 0 km/h
1690 23-02-2010 10:52:01 10.6 C 6.73 g/m*3 10.6 C 0 km/h
1691 23-02-2010 11:04:02 10.8 C 6.92 g/m*3 10.8 C 0 km/h
1692 23-02-2010 11:16:02 11 C 6.81 g/m*3 11 C 0 km/h
1693 23-02-2010 11:28:02 11.2 C 6.69 g/m*3 11.2 C 0 km/h
1694 23-02-2010 11:40:02 11.4 C 6.57 g/m*3 11.4 C 0 km/h
1695 23-02-2010 11:52:01 11.6 C 6.55 g/m*3 11.6 C 0 km/h
1696 23-02-2010 12:04:02 11.2 C 6.49 g/m*3 11.2 C 0 km/h
1697 23-02-2010 12:16:02 10.9 C 6.66 g/m*3 10.9 C 0 km/h
1698 23-02-2010 12:28:02 10.3 C 6.9 g/m*3 10.3 C 0 km/h
1699 23-02-2010 12:40:01 10.5 C 7.27 g/m*3 10.5 C 0 km/h
1700 23-02-2010 12:52:02 10.4 C 7.13 g/m*3 10.4 C 0 km/h
Sensor: Nr:Datum:Temp:Abs-Feuchte:Windchill:Wind:
Aussen-T/F 1701 23-02-2010 13:04:01 10.3 C 7.18 g/m*3 10.3 C 0 km/h
1702 23-02-2010 13:16:02 10.4 C 7.32 g/m*3 10.4 C 0 km/h
1703 23-02-2010 13:28:02 10.5 C 7.37 g/m*3 10.5 C 0 km/h
1704 23-02-2010 13:40:01 10.3 C 7.47 g/m*3 10.3 C 0 km/h
1705 23-02-2010 13:52:02 10.6 C 7.71 g/m*3 10.6 C 0 km/h
1706 23-02-2010 14:04:02 10.9 C 7.76 g/m*3 10.9 C 0 km/h
1707 23-02-2010 14:16:02 11 C 7.81 g/m*3 11 C 0 km/h
1708 23-02-2010 14:28:02 10.8 C 7.71 g/m*3 10.8 C 0 km/h
1709 23-02-2010 14:40:03 10.9 C 7.76 g/m*3 10.9 C 0 km/h
1710 23-02-2010 14:52:02 11 C 7.61 g/m*3 11 C 0 km/h
1711 23-02-2010 15:04:01 11 C 7.71 g/m*3 11 C 0 km/h
1712 23-02-2010 15:16:02 11 C 7.71 g/m*3 11 C 0 km/h
1713 23-02-2010 15:28:02 11 C 7.81 g/m*3 11 C 0 km/h
1714 23-02-2010 15:40:02 11.1 C 7.66 g/m*3 11.1 C 0 km/h
1715 23-02-2010 15:52:02 11 C 7.51 g/m*3 11 C 0 km/h
1716 23-02-2010 16:04:03 10.7 C 7.46 g/m*3 10.7 C 0 km/h
1717 23-02-2010 16:16:02 10.5 C 7.47 g/m*3 10.5 C 0 km/h
1718 23-02-2010 16:28:02 10.6 C 7.52 g/m*3 10.6 C 0 km/h
1719 23-02-2010 16:40:02 10.6 C 7.52 g/m*3 10.6 C 0 km/h
1720 23-02-2010 16:52:01 10.4 C 7.32 g/m*3 10.4 C 0 km/h
1721 23-02-2010 17:04:02 10.4 C 7.32 g/m*3 10.4 C 0 km/h
1722 23-02-2010 17:16:01 10.2 C 7.23 g/m*3 10.2 C 0 km/h
1723 23-02-2010 17:28:01 10.1 C 7.09 g/m*3 10.1 C 0 km/h
1724 23-02-2010 17:40:02 10.1 C 7.19 g/m*3 10.1 C 0 km/h
1725 23-02-2010 17:52:01 10 C 7.14 g/m*3 10 C 0 km/h
Sensor: Nr:Datum:Temp:Abs-Feuchte:Windchill:Wind:
Aussen-T/F 1726 23-02-2010 18:04:02 9.8 C 7.24 g/m*3 9.8 C 0 km/h
1727 23-02-2010 18:16:01 9.6 C 7.33 g/m*3 9.6 C 0 km/h
1728 23-02-2010 18:28:01 9.6 C 7.33 g/m*3 9.6 C 0 km/h
1729 23-02-2010 18:40:02 9.5 C 7.37 g/m*3 9.5 C 0 km/h
1730 23-02-2010 18:52:01 9.5 C 7.46 g/m*3 9.5 C 0 km/h
1731 23-02-2010 19:04:02 9.2 C 7.41 g/m*3 9.2 C 0 km/h
1732 23-02-2010 19:16:02 9.1 C 7.45 g/m*3 9.1 C 0 km/h
1733 23-02-2010 19:28:02 9.2 C 7.59 g/m*3 9.2 C 0 km/h
1734 23-02-2010 19:40:02 9.2 C 7.68 g/m*3 9.2 C 0 km/h
1735 23-02-2010 19:52:02 9.2 C 7.68 g/m*3 9.2 C 0 km/h
1736 23-02-2010 20:04:02 9 C 7.67 g/m*3 9 C 0 km/h
1737 23-02-2010 20:16:02 9.1 C 7.81 g/m*3 9.1 C 0 km/h
1738 23-02-2010 20:28:02 9 C 7.76 g/m*3 9 C 0 km/h
1739 23-02-2010 20:40:02 9 C 7.76 g/m*3 9 C 0 km/h
1740 23-02-2010 20:52:01 9.2 C 7.86 g/m*3 9.2 C 0 km/h
1741 23-02-2010 21:04:02 9.3 C 7.91 g/m*3 9.3 C 0 km/h
1742 23-02-2010 21:16:01 9.4 C 7.78 g/m*3 9.4 C 0 km/h
1743 23-02-2010 21:28:01 9.6 C 7.6 g/m*3 9.6 C 0 km/h
1744 23-02-2010 21:40:02 9.6 C 7.33 g/m*3 9.6 C 0 km/h
1745 23-02-2010 21:52:02 9.5 C 7.1 g/m*3 9.5 C 0 km/h
1746 23-02-2010 22:04:02 9.3 C 6.92 g/m*3 9.3 C 0 km/h
1747 23-02-2010 22:16:02 9.3 C 6.92 g/m*3 9.3 C 0 km/h
1748 23-02-2010 22:28:02 9.3 C 6.74 g/m*3 9.3 C 0 km/h
1749 23-02-2010 22:40:02 8.9 C 6.75 g/m*3 8.9 C 0 km/h
1750 23-02-2010 22:52:01 8.7 C 6.75 g/m*3 8.7 C 0 km/h
Sensor: Nr:Datum:Temp:Abs-Feuchte:Windchill:Wind:
Aussen-T/F 1751 23-02-2010 23:04:02 8.5 C 6.66 g/m*3 8.5 C 0 km/h
1752 23-02-2010 23:16:02 8.5 C 6.66 g/m*3 8.5 C 0 km/h
1753 23-02-2010 23:28:02 8.2 C 6.62 g/m*3 8.2 C 0 km/h
1754 23-02-2010 23:40:01 8.2 C 6.7 g/m*3 8.2 C 0 km/h
1755 23-02-2010 23:52:02 8.2 C 6.7 g/m*3 8.2 C 0 km/h
1756 24-02-2010 00:04:01 8.1 C 6.66 g/m*3 8.1 C 0 km/h
1757 24-02-2010 00:16:02 7.9 C 6.74 g/m*3 7.9 C 0 km/h
1758 24-02-2010 00:28:02 7.9 C 6.82 g/m*3 7.9 C 0 km/h
1759 24-02-2010 00:40:01 7.8 C 6.77 g/m*3 7.8 C 0 km/h
1760 24-02-2010 00:52:02 7.5 C 6.64 g/m*3 7.5 C 0 km/h
1761 24-02-2010 01:04:01 7.3 C 6.64 g/m*3 7.3 C 0 km/h
1762 24-02-2010 01:16:02 7.5 C 6.8 g/m*3 7.5 C 0 km/h
1763 24-02-2010 01:28:02 8.1 C 6.99 g/m*3 8.1 C 0 km/h
1764 24-02-2010 01:40:01 8.7 C 6.92 g/m*3 8.7 C 0 km/h
1765 24-02-2010 01:52:02 8.6 C 6.7 g/m*3 8.6 C 0 km/h
1766 24-02-2010 02:04:02 8.3 C 6.57 g/m*3 8.3 C 0 km/h
1767 24-02-2010 02:16:02 8.1 C 6.57 g/m*3 8.1 C 0 km/h
1768 24-02-2010 02:28:02 7.9 C 6.74 g/m*3 7.9 C 0 km/h
1769 24-02-2010 02:40:02 7.9 C 6.82 g/m*3 7.9 C 0 km/h
1770 24-02-2010 02:52:01 7.8 C 6.77 g/m*3 7.8 C 0 km/h
1771 24-02-2010 03:04:01 7.7 C 6.73 g/m*3 7.7 C 0 km/h
1772 24-02-2010 03:16:01 7.9 C 6.9 g/m*3 7.9 C 0 km/h
1773 24-02-2010 03:28:01 8 C 6.86 g/m*3 8 C 0 km/h
1774 24-02-2010 03:40:02 8 C 6.78 g/m*3 8 C 0 km/h
1775 24-02-2010 03:52:02 8 C 6.78 g/m*3 8 C 0 km/h
Sensor: Nr:Datum:Temp:Abs-Feuchte:Windchill:Wind:
Aussen-T/F 1776 24-02-2010 04:04:01 8 C 6.78 g/m*3 8 C 0 km/h
1777 24-02-2010 04:16:02 8 C 6.86 g/m*3 8 C 0 km/h
1778 24-02-2010 04:28:02 8 C 6.86 g/m*3 8 C 0 km/h
1779 24-02-2010 04:40:01 8 C 6.86 g/m*3 8 C 0 km/h
1780 24-02-2010 04:52:02 8.1 C 6.91 g/m*3 8.1 C 0 km/h
1781 24-02-2010 05:04:01 8.3 C 7 g/m*3 8.3 C 0 km/h
1782 24-02-2010 05:16:01 8.4 C 6.96 g/m*3 8.4 C 0 km/h
1783 24-02-2010 05:28:01 8.2 C 6.78 g/m*3 8.2 C 0 km/h
1784 24-02-2010 05:40:01 8.3 C 6.83 g/m*3 8.3 C 0 km/h
1785 24-02-2010 05:52:02 8.4 C 6.79 g/m*3 8.4 C 0 km/h
1786 24-02-2010 06:04:01 8.2 C 6.62 g/m*3 8.2 C 0 km/h
1787 24-02-2010 06:16:01 7.9 C 6.65 g/m*3 7.9 C 0 km/h
1788 24-02-2010 06:28:01 7.8 C 6.61 g/m*3 7.8 C 0 km/h
1789 24-02-2010 06:40:02 7.6 C 6.53 g/m*3 7.6 C 0 km/h
1790 24-02-2010 06:52:01 7.3 C 6.4 g/m*3 7.3 C 0 km/h
1791 24-02-2010 07:04:01 7.3 C 6.56 g/m*3 7.3 C 0 km/h
1792 24-02-2010 07:16:01 7.4 C 6.6 g/m*3 7.4 C 0 km/h
1793 24-02-2010 07:28:01 7.5 C 6.64 g/m*3 7.5 C 0 km/h
1794 24-02-2010 07:40:02 7.5 C 6.56 g/m*3 7.5 C 0 km/h
1795 24-02-2010 07:52:01 7.4 C 6.6 g/m*3 7.4 C 0 km/h
1796 24-02-2010 08:04:02 7.5 C 6.64 g/m*3 7.5 C 0 km/h
1797 24-02-2010 08:16:01 7.5 C 6.56 g/m*3 7.5 C 0 km/h
1798 24-02-2010 08:28:01 7.9 C 6.82 g/m*3 7.9 C 0 km/h
1799 24-02-2010 08:40:02 8.1 C 6.74 g/m*3 8.1 C 0 km/h
1800 24-02-2010 08:52:01 8.5 C 6.92 g/m*3 8.5 C 0 km/h
Sensor: Nr:Datum:Temp:Abs-Feuchte:Windchill:Wind:
Aussen-T/F 1801 24-02-2010 09:04:02 8.6 C 6.79 g/m*3 8.6 C 0 km/h
1802 24-02-2010 09:16:01 8.9 C 6.83 g/m*3 8.9 C 0 km/h
1803 24-02-2010 09:28:01 9.1 C 6.65 g/m*3 9.1 C 0 km/h
1804 24-02-2010 09:40:01 9.2 C 6.52 g/m*3 9.2 C 0 km/h
1805 24-02-2010 09:52:01 9.4 C 6.51 g/m*3 9.4 C 0 km/h
1806 24-02-2010 10:04:02 9.7 C 6.55 g/m*3 9.7 C 0 km/h
1807 24-02-2010 10:16:01 10 C 6.39 g/m*3 10 C 0 km/h
1808 24-02-2010 10:28:01 10.2 C 6.28 g/m*3 10.2 C 0 km/h
1809 24-02-2010 10:40:01 10.4 C 6.26 g/m*3 10.4 C 0 km/h
1810 24-02-2010 10:52:01 10.9 C 6.17 g/m*3 10.9 C 0 km/h
1811 24-02-2010 11:04:01 10.9 C 5.97 g/m*3 10.9 C 0 km/h
1812 24-02-2010 11:16:02 11.1 C 5.74 g/m*3 11.1 C 0 km/h
1813 24-02-2010 11:28:02 11.2 C 5.68 g/m*3 11.2 C 0 km/h
1814 24-02-2010 11:40:01 11.2 C 5.57 g/m*3 11.2 C 0 km/h
1815 24-02-2010 11:52:01 11.3 C 5.61 g/m*3 11.3 C 0 km/h
1816 24-02-2010 12:04:01 11.1 C 5.64 g/m*3 11.1 C 0 km/h
1817 24-02-2010 12:16:02 11.2 C 5.57 g/m*3 11.2 C 0 km/h
1818 24-02-2010 12:28:02 11.6 C 5.72 g/m*3 11.6 C 0 km/h
1819 24-02-2010 12:40:01 11.8 C 5.58 g/m*3 11.8 C 0 km/h
1820 24-02-2010 12:52:02 12 C 5.54 g/m*3 12 C 0 km/h
1821 24-02-2010 13:04:01 12 C 5.54 g/m*3 12 C 0 km/h
1822 24-02-2010 13:16:02 11.8 C 5.58 g/m*3 11.8 C 0 km/h
1823 24-02-2010 13:28:02 12 C 5.44 g/m*3 12 C 0 km/h
1824 24-02-2010 13:40:01 12.2 C 5.61 g/m*3 12.2 C 0 km/h
1825 24-02-2010 13:52:02 12.4 C 5.35 g/m*3 12.4 C 0 km/h
Sensor: Nr:Datum:Temp:Abs-Feuchte:Windchill:Wind:
Aussen-T/F 1826 24-02-2010 14:04:01 12.3 C 5.32 g/m*3 12.3 C 0 km/h
1827 24-02-2010 14:16:01 12.6 C 5.53 g/m*3 12.6 C 0 km/h
1828 24-02-2010 14:28:01 12.7 C 5.45 g/m*3 12.7 C 0 km/h
1829 24-02-2010 14:40:01 12.8 C 5.38 g/m*3 12.8 C 0 km/h
1830 24-02-2010 14:52:02 13.1 C 5.36 g/m*3 13.1 C 0 km/h
1831 24-02-2010 15:04:01 13.2 C 5.4 g/m*3 13.2 C 0 km/h
1832 24-02-2010 15:16:01 13.1 C 5.36 g/m*3 13.1 C 0 km/h
1833 24-02-2010 15:28:01 13.2 C 5.4 g/m*3 13.2 C 0 km/h
1834 24-02-2010 15:40:02 13.7 C 5.45 g/m*3 13.7 C 0 km/h
1835 24-02-2010 15:52:01 14.1 C 5.46 g/m*3 14.1 C 0 km/h
1836 24-02-2010 16:04:01 15.2 C 5.58 g/m*3 15.2 C 0 km/h
1837 24-02-2010 16:16:01 14.4 C 5.19 g/m*3 14.4 C 0 km/h
1838 24-02-2010 16:28:01 14 C 5.43 g/m*3 14 C 0 km/h
1839 24-02-2010 16:40:02 14.4 C 5.32 g/m*3 14.4 C 0 km/h
1840 24-02-2010 16:52:01 14.2 C 5.13 g/m*3 14.2 C 0 km/h
1841 24-02-2010 17:04:02 13.6 C 5.3 g/m*3 13.6 C 0 km/h
1842 24-02-2010 17:16:01 12.8 C 5.38 g/m*3 12.8 C 0 km/h
1843 24-02-2010 17:28:01 11.8 C 5.68 g/m*3 11.8 C 0 km/h
1844 24-02-2010 17:40:02 11.2 C 5.68 g/m*3 11.2 C 0 km/h
1845 24-02-2010 17:52:01 10.7 C 5.8 g/m*3 10.7 C 0 km/h
1846 24-02-2010 18:04:02 10.2 C 5.8 g/m*3 10.2 C 0 km/h
1847 24-02-2010 18:16:01 9.8 C 5.85 g/m*3 9.8 C 0 km/h
1848 24-02-2010 18:28:02 9.7 C 5.9 g/m*3 9.7 C 0 km/h
1849 24-02-2010 18:40:01 9.6 C 5.95 g/m*3 9.6 C 0 km/h
1850 24-02-2010 18:52:01 9.6 C 6.05 g/m*3 9.6 C 0 km/h
Sensor: Nr:Datum:Temp:Abs-Feuchte:Windchill:Wind:
Aussen-T/F 1851 24-02-2010 19:04:01 9.7 C 6.18 g/m*3 9.7 C 0 km/h
1852 24-02-2010 19:16:01 9.5 C 6.55 g/m*3 9.5 C 0 km/h
1853 24-02-2010 19:28:01 8.8 C 6.7 g/m*3 8.8 C 0 km/h
1854 24-02-2010 19:40:01 8.5 C 6.92 g/m*3 8.5 C 0 km/h
1855 24-02-2010 19:52:01 8.5 C 7.09 g/m*3 8.5 C 0 km/h
1856 24-02-2010 20:04:01 8.4 C 7.13 g/m*3 8.4 C 0 km/h
1857 24-02-2010 20:16:02 8.3 C 7.16 g/m*3 8.3 C 0 km/h
1858 24-02-2010 20:28:02 8.4 C 7.3 g/m*3 8.4 C 0 km/h
1859 24-02-2010 20:40:01 8.3 C 7.33 g/m*3 8.3 C 0 km/h
1860 24-02-2010 20:52:01 8.5 C 7.43 g/m*3 8.5 C 0 km/h
1861 24-02-2010 21:04:01 8.5 C 7.51 g/m*3 8.5 C 0 km/h
1862 24-02-2010 21:16:02 8.4 C 7.38 g/m*3 8.4 C 0 km/h
1863 24-02-2010 21:28:02 7.9 C 7.23 g/m*3 7.9 C 0 km/h
1864 24-02-2010 21:40:01 7.8 C 7.18 g/m*3 7.8 C 0 km/h
1865 24-02-2010 21:52:02 7.6 C 7.09 g/m*3 7.6 C 0 km/h
1866 24-02-2010 22:04:01 7.5 C 6.96 g/m*3 7.5 C 0 km/h
1867 24-02-2010 22:16:02 7.6 C 7.01 g/m*3 7.6 C 0 km/h
1868 24-02-2010 22:28:02 7.7 C 7.05 g/m*3 7.7 C 0 km/h
1869 24-02-2010 22:40:01 8 C 7.03 g/m*3 8 C 0 km/h
1870 24-02-2010 22:52:02 8.1 C 6.82 g/m*3 8.1 C 0 km/h
1871 24-02-2010 23:04:01 8.2 C 6.7 g/m*3 8.2 C 0 km/h
1872 24-02-2010 23:16:01 8.3 C 6.74 g/m*3 8.3 C 0 km/h
1873 24-02-2010 23:28:01 8.4 C 6.62 g/m*3 8.4 C 0 km/h
1874 24-02-2010 23:40:01 8.4 C 6.53 g/m*3 8.4 C 0 km/h
1875 24-02-2010 23:52:02 8.4 C 6.45 g/m*3 8.4 C 0 km/h
Sensor: Nr:Datum:Temp:Abs-Feuchte:Windchill:Wind:
Aussen-T/F 1876 25-02-2010 00:04:01 8.7 C 6.49 g/m*3 8.7 C 0 km/h
1877 25-02-2010 00:16:02 8.7 C 6.4 g/m*3 8.7 C 0 km/h
1878 25-02-2010 00:28:02 8.6 C 6.36 g/m*3 8.6 C 0 km/h
1879 25-02-2010 00:40:01 8.4 C 6.28 g/m*3 8.4 C 0 km/h
1880 25-02-2010 00:52:02 8.1 C 6.24 g/m*3 8.1 C 0 km/h
1881 25-02-2010 01:04:01 8.1 C 6.41 g/m*3 8.1 C 0 km/h
1882 25-02-2010 01:16:01 8.4 C 6.36 g/m*3 8.4 C 0 km/h
1883 25-02-2010 01:28:01 8.5 C 6.23 g/m*3 8.5 C 0 km/h
1884 25-02-2010 01:40:02 8.6 C 6.19 g/m*3 8.6 C 0 km/h
1885 25-02-2010 01:52:01 8.6 C 6.19 g/m*3 8.6 C 0 km/h
1886 25-02-2010 02:04:01 8.4 C 6.11 g/m*3 8.4 C 0 km/h
1887 25-02-2010 02:16:01 8 C 6.12 g/m*3 8 C 0 km/h
1888 25-02-2010 02:28:01 7.9 C 6.32 g/m*3 7.9 C 0 km/h
1889 25-02-2010 02:40:02 7.9 C 6.41 g/m*3 7.9 C 0 km/h
1890 25-02-2010 02:52:01 7.8 C 6.28 g/m*3 7.8 C 0 km/h
1891 25-02-2010 03:04:01 7.7 C 6.32 g/m*3 7.7 C 0 km/h
1892 25-02-2010 03:16:02 7.5 C 6.48 g/m*3 7.5 C 0 km/h
1893 25-02-2010 03:28:02 7.4 C 6.6 g/m*3 7.4 C 0 km/h
1894 25-02-2010 03:40:02 7.3 C 6.56 g/m*3 7.3 C 0 km/h
1895 25-02-2010 03:52:02 7.3 C 6.56 g/m*3 7.3 C 0 km/h
1896 25-02-2010 04:04:01 7.2 C 6.52 g/m*3 7.2 C 0 km/h
1897 25-02-2010 04:16:01 7.2 C 6.52 g/m*3 7.2 C 0 km/h
1898 25-02-2010 04:28:01 7.2 C 6.52 g/m*3 7.2 C 0 km/h
1899 25-02-2010 04:40:02 7.1 C 6.47 g/m*3 7.1 C 0 km/h
1900 25-02-2010 04:52:01 7.1 C 6.55 g/m*3 7.1 C 0 km/h
Sensor: Nr:Datum:Temp:Abs-Feuchte:Windchill:Wind:
Aussen-T/F 1901 25-02-2010 05:04:02 7.3 C 6.56 g/m*3 7.3 C 0 km/h
1902 25-02-2010 05:16:01 7.2 C 6.52 g/m*3 7.2 C 0 km/h
1903 25-02-2010 05:28:01 7.4 C 6.6 g/m*3 7.4 C 0 km/h
1904 25-02-2010 05:40:02 7.6 C 6.53 g/m*3 7.6 C 0 km/h
1905 25-02-2010 05:52:01 7.9 C 6.32 g/m*3 7.9 C 0 km/h
1906 25-02-2010 06:04:02 8.1 C 6.07 g/m*3 8.1 C 0 km/h
1907 25-02-2010 06:16:01 8.3 C 5.98 g/m*3 8.3 C 0 km/h
1908 25-02-2010 06:28:01 8.5 C 5.89 g/m*3 8.5 C 0 km/h
1909 25-02-2010 06:40:02 8.6 C 5.84 g/m*3 8.6 C 0 km/h
1910 25-02-2010 06:52:02 8.7 C 5.79 g/m*3 8.7 C 0 km/h
1911 25-02-2010 07:04:01 8.7 C 5.79 g/m*3 8.7 C 0 km/h
1912 25-02-2010 07:16:01 8.8 C 5.74 g/m*3 8.8 C 0 km/h
1913 25-02-2010 07:28:01 8.8 C 5.83 g/m*3 8.8 C 0 km/h
1914 25-02-2010 07:40:01 8.7 C 5.88 g/m*3 8.7 C 0 km/h
1915 25-02-2010 07:52:02 8.6 C 5.93 g/m*3 8.6 C 0 km/h
1916 25-02-2010 08:04:01 8.4 C 6.02 g/m*3 8.4 C 0 km/h
1917 25-02-2010 08:16:01 8.6 C 5.93 g/m*3 8.6 C 0 km/h
1918 25-02-2010 08:28:01 8.9 C 5.78 g/m*3 8.9 C 0 km/h
1919 25-02-2010 08:40:02 9 C 5.64 g/m*3 9 C 0 km/h
1920 25-02-2010 08:52:01 9.1 C 5.68 g/m*3 9.1 C 0 km/h
1921 25-02-2010 09:04:02 9.3 C 5.66 g/m*3 9.3 C 0 km/h
1922 25-02-2010 09:16:01 9.5 C 5.64 g/m*3 9.5 C 0 km/h
1923 25-02-2010 09:28:01 9.6 C 5.5 g/m*3 9.6 C 0 km/h
1924 25-02-2010 09:40:02 9.6 C 5.59 g/m*3 9.6 C 0 km/h
1925 25-02-2010 09:52:01 9.9 C 5.6 g/m*3 9.9 C 0 km/h
Sensor: Nr:Datum:Temp:Abs-Feuchte:Windchill:Wind:
Aussen-T/F 1926 25-02-2010 10:04:02 9.9 C 5.51 g/m*3 9.9 C 0 km/h
1927 25-02-2010 10:16:01 9.9 C 5.6 g/m*3 9.9 C 0 km/h
1928 25-02-2010 10:28:01 10.2 C 5.42 g/m*3 10.2 C 0 km/h
1929 25-02-2010 10:40:02 10.6 C 5.37 g/m*3 10.6 C 0 km/h
1930 25-02-2010 10:52:01 10.7 C 5.21 g/m*3 10.7 C 0 km/h
1931 25-02-2010 11:04:01 10.6 C 5.17 g/m*3 10.6 C 0 km/h
1932 25-02-2010 11:16:01 11.2 C 5.17 g/m*3 11.2 C 0 km/h
1933 25-02-2010 11:28:01 10.9 C 5.17 g/m*3 10.9 C 0 km/h
1934 25-02-2010 11:40:02 11.2 C 5.07 g/m*3 11.2 C 0 km/h
1935 25-02-2010 11:52:01 11.3 C 5.1 g/m*3 11.3 C 0 km/h
1936 25-02-2010 12:04:02 11.4 C 4.82 g/m*3 11.4 C 0 km/h
1937 25-02-2010 12:16:01 11.4 C 4.82 g/m*3 11.4 C 0 km/h
1938 25-02-2010 12:28:01 11.4 C 4.82 g/m*3 11.4 C 0 km/h
1939 25-02-2010 12:40:02 11.1 C 4.73 g/m*3 11.1 C 0 km/h
1940 25-02-2010 12:52:01 11.4 C 4.82 g/m*3 11.4 C 0 km/h
1941 25-02-2010 13:04:02 11.7 C 4.81 g/m*3 11.7 C 0 km/h
1942 25-02-2010 13:16:01 12.9 C 4.85 g/m*3 12.9 C 0 km/h
1943 25-02-2010 13:28:01 13 C 4.54 g/m*3 13 C 0 km/h
1944 25-02-2010 13:40:02 12.7 C 4.68 g/m*3 12.7 C 0 km/h
1945 25-02-2010 13:52:01 11.9 C 4.77 g/m*3 11.9 C 0 km/h
1946 25-02-2010 14:04:02 12.2 C 4.96 g/m*3 12.2 C 0 km/h
1947 25-02-2010 14:16:01 13 C 4.88 g/m*3 13 C 0 km/h
1948 25-02-2010 14:28:01 12.8 C 4.82 g/m*3 12.8 C 0 km/h
1949 25-02-2010 14:40:01 12.4 C 4.7 g/m*3 12.4 C 0 km/h
1950 25-02-2010 14:52:01 12.6 C 4.87 g/m*3 12.6 C 0 km/h
Sensor: Nr:Datum:Temp:Abs-Feuchte:Windchill:Wind:
Aussen-T/F 1951 25-02-2010 15:04:02 12.7 C 4.68 g/m*3 12.7 C 0 km/h
1952 25-02-2010 15:16:01 12.8 C 4.59 g/m*3 12.8 C 0 km/h
1953 25-02-2010 15:28:01 12.5 C 4.4 g/m*3 12.5 C 0 km/h
1954 25-02-2010 15:40:01 12.5 C 4.4 g/m*3 12.5 C 0 km/h
1955 25-02-2010 15:52:01 12.3 C 4.34 g/m*3 12.3 C 0 km/h
1956 25-02-2010 16:04:01 12.2 C 4.32 g/m*3 12.2 C 0 km/h
1957 25-02-2010 16:16:02 12 C 4.26 g/m*3 12 C 0 km/h
1958 25-02-2010 16:28:02 11.8 C 4.53 g/m*3 11.8 C 0 km/h
1959 25-02-2010 16:40:01 11.6 C 4.68 g/m*3 11.6 C 0 km/h
1960 25-02-2010 16:52:01 11.5 C 4.75 g/m*3 11.5 C 0 km/h
1961 25-02-2010 17:04:01 11.2 C 5.07 g/m*3 11.2 C 0 km/h
1962 25-02-2010 17:16:01 11.2 C 4.97 g/m*3 11.2 C 0 km/h
1963 25-02-2010 17:28:01 11 C 4.8 g/m*3 11 C 0 km/h
1964 25-02-2010 17:40:01 11 C 4.8 g/m*3 11 C 0 km/h
1965 25-02-2010 17:52:01 10.9 C 4.87 g/m*3 10.9 C 0 km/h
1966 25-02-2010 18:04:02 10.5 C 5.14 g/m*3 10.5 C 0 km/h
1967 25-02-2010 18:16:01 9.7 C 5.35 g/m*3 9.7 C 0 km/h
1968 25-02-2010 18:28:01 9.3 C 5.93 g/m*3 9.3 C 0 km/h
1969 25-02-2010 18:40:02 8.9 C 6.22 g/m*3 8.9 C 0 km/h
1970 25-02-2010 18:52:02 8.8 C 6.53 g/m*3 8.8 C 0 km/h
1971 25-02-2010 19:04:01 8.5 C 6.57 g/m*3 8.5 C 0 km/h
1972 25-02-2010 19:16:01 8.6 C 6.79 g/m*3 8.6 C 0 km/h
1973 25-02-2010 19:28:01 8.5 C 6.83 g/m*3 8.5 C 0 km/h
1974 25-02-2010 19:40:02 8.4 C 6.87 g/m*3 8.4 C 0 km/h
1975 25-02-2010 19:52:01 8.5 C 6.83 g/m*3 8.5 C 0 km/h
Sensor: Nr:Datum:Temp:Abs-Feuchte:Windchill:Wind:
Aussen-T/F 1976 25-02-2010 20:04:02 8.6 C 6.79 g/m*3 8.6 C 0 km/h
1977 25-02-2010 20:16:01 8.6 C 6.7 g/m*3 8.6 C 0 km/h
1978 25-02-2010 20:28:01 8.6 C 6.7 g/m*3 8.6 C 0 km/h
1979 25-02-2010 20:40:02 8.7 C 6.66 g/m*3 8.7 C 0 km/h
1980 25-02-2010 20:52:01 8.8 C 6.61 g/m*3 8.8 C 0 km/h
1981 25-02-2010 21:04:02 8.9 C 6.66 g/m*3 8.9 C 0 km/h
1982 25-02-2010 21:16:01 9 C 6.52 g/m*3 9 C 0 km/h
1983 25-02-2010 21:28:01 9.2 C 6.61 g/m*3 9.2 C 0 km/h
1984 25-02-2010 21:40:02 9.2 C 6.52 g/m*3 9.2 C 0 km/h
1985 25-02-2010 21:52:01 9.2 C 6.52 g/m*3 9.2 C 0 km/h
1986 25-02-2010 22:04:01 9.1 C 6.57 g/m*3 9.1 C 0 km/h
1987 25-02-2010 22:16:01 9.1 C 6.65 g/m*3 9.1 C 0 km/h
1988 25-02-2010 22:28:01 9.2 C 6.61 g/m*3 9.2 C 0 km/h
1989 25-02-2010 22:40:01 9.3 C 6.65 g/m*3 9.3 C 0 km/h
1990 25-02-2010 22:52:02 9.2 C 6.61 g/m*3 9.2 C 0 km/h
1991 25-02-2010 23:04:01 9.2 C 6.7 g/m*3 9.2 C 0 km/h
1992 25-02-2010 23:16:01 9.5 C 6.83 g/m*3 9.5 C 0 km/h
1993 25-02-2010 23:28:01 9.4 C 6.78 g/m*3 9.4 C 0 km/h
1994 25-02-2010 23:40:02 9.3 C 6.74 g/m*3 9.3 C 0 km/h
1995 25-02-2010 23:52:01 9.4 C 6.78 g/m*3 9.4 C 0 km/h
1996 26-02-2010 00:04:02 9.3 C 6.83 g/m*3 9.3 C 0 km/h
1997 26-02-2010 00:16:01 9.4 C 6.87 g/m*3 9.4 C 0 km/h
1998 26-02-2010 00:28:01 9.4 C 6.87 g/m*3 9.4 C 0 km/h
1999 26-02-2010 00:40:02 9.3 C 6.83 g/m*3 9.3 C 0 km/h
2000 26-02-2010 00:52:01 9.3 C 6.92 g/m*3 9.3 C 0 km/h
Sensor: Nr:Datum:Temp:Abs-Feuchte:Windchill:Wind:
Aussen-T/F 2001 26-02-2010 01:04:02 9.4 C 6.96 g/m*3 9.4 C 0 km/h
2002 26-02-2010 01:16:01 9.5 C 7.01 g/m*3 9.5 C 0 km/h
2003 26-02-2010 01:28:01 9.4 C 6.96 g/m*3 9.4 C 0 km/h
2004 26-02-2010 01:40:01 9.6 C 7.05 g/m*3 9.6 C 0 km/h
2005 26-02-2010 01:52:01 9.6 C 6.96 g/m*3 9.6 C 0 km/h
2006 26-02-2010 02:04:01 9.8 C 7.05 g/m*3 9.8 C 0 km/h
2007 26-02-2010 02:16:01 9.8 C 7.05 g/m*3 9.8 C 0 km/h
2008 26-02-2010 02:28:01 9.7 C 7.01 g/m*3 9.7 C 0 km/h
2009 26-02-2010 02:40:01 9.8 C 7.05 g/m*3 9.8 C 0 km/h
2010 26-02-2010 02:53:06 9.8 C 7.05 g/m*3 9.8 C 0 km/h
2011 26-02-2010 03:05:06 9.8 C 7.05 g/m*3 9.8 C 0 km/h
2012 26-02-2010 03:17:06 10 C 6.95 g/m*3 10 C 0 km/h
2013 26-02-2010 03:29:06 9.9 C 7 g/m*3 9.9 C 0 km/h
2014 26-02-2010 03:41:02 9.9 C 6.91 g/m*3 9.9 C 0 km/h
2015 26-02-2010 03:53:02 9.7 C 6.82 g/m*3 9.7 C 0 km/h
2016 26-02-2010 04:05:03 9.5 C 6.83 g/m*3 9.5 C 0 km/h
2017 26-02-2010 04:17:02 9.5 C 6.83 g/m*3 9.5 C 0 km/h
2018 26-02-2010 04:29:02 9.5 C 6.83 g/m*3 9.5 C 0 km/h
2019 26-02-2010 04:41:02 9.7 C 6.73 g/m*3 9.7 C 0 km/h
2020 26-02-2010 04:53:01 9.5 C 6.64 g/m*3 9.5 C 0 km/h
2021 26-02-2010 05:05:02 9.4 C 6.51 g/m*3 9.4 C 0 km/h
2022 26-02-2010 05:17:01 9.4 C 6.42 g/m*3 9.4 C 0 km/h
2023 26-02-2010 05:29:01 9.6 C 6.32 g/m*3 9.6 C 0 km/h
2024 26-02-2010 05:41:02 9.2 C 6.34 g/m*3 9.2 C 0 km/h
2025 26-02-2010 05:53:01 9.1 C 6.3 g/m*3 9.1 C 0 km/h
Sensor: Nr:Datum:Temp:Abs-Feuchte:Windchill:Wind:
Aussen-T/F 2026 26-02-2010 06:05:02 8.8 C 6.27 g/m*3 8.8 C 0 km/h
2027 26-02-2010 06:17:01 9 C 6.26 g/m*3 9 C 0 km/h
2028 26-02-2010 06:29:01 9.1 C 6.21 g/m*3 9.1 C 0 km/h
2029 26-02-2010 06:41:02 9.2 C 6.07 g/m*3 9.2 C 0 km/h
2030 26-02-2010 06:53:01 9.4 C 6.15 g/m*3 9.4 C 0 km/h
2031 26-02-2010 07:05:02 9.1 C 6.03 g/m*3 9.1 C 0 km/h
2032 26-02-2010 07:17:02 8.9 C 6.31 g/m*3 8.9 C 0 km/h
2033 26-02-2010 07:29:02 9 C 6.26 g/m*3 9 C 0 km/h
2034 26-02-2010 07:41:02 9.2 C 6.07 g/m*3 9.2 C 0 km/h
2035 26-02-2010 07:53:02 9.5 C 5.92 g/m*3 9.5 C 0 km/h
2036 26-02-2010 08:05:02 9.6 C 5.77 g/m*3 9.6 C 0 km/h
2037 26-02-2010 08:17:02 9.6 C 5.68 g/m*3 9.6 C 0 km/h
2038 26-02-2010 08:29:02 9.8 C 5.57 g/m*3 9.8 C 0 km/h
2039 26-02-2010 08:41:02 9.7 C 5.72 g/m*3 9.7 C 0 km/h
2040 26-02-2010 08:53:02 9.8 C 5.66 g/m*3 9.8 C 0 km/h
2041 26-02-2010 09:05:02 10.2 C 5.52 g/m*3 10.2 C 0 km/h
2042 26-02-2010 09:17:02 10.2 C 5.42 g/m*3 10.2 C 0 km/h
2043 26-02-2010 09:29:02 10.1 C 5.58 g/m*3 10.1 C 0 km/h
2044 26-02-2010 09:41:02 10.1 C 5.39 g/m*3 10.1 C 0 km/h
2045 26-02-2010 09:53:02 10.5 C 5.33 g/m*3 10.5 C 0 km/h
2046 26-02-2010 10:05:02 9.8 C 5.66 g/m*3 9.8 C 0 km/h
2047 26-02-2010 10:17:02 9.5 C 5.92 g/m*3 9.5 C 0 km/h
2048 26-02-2010 10:29:02 9.9 C 5.88 g/m*3 9.9 C 0 km/h
2049 26-02-2010 10:41:02 10.1 C 5.48 g/m*3 10.1 C 0 km/h
2050 26-02-2010 10:53:02 10.3 C 5.36 g/m*3 10.3 C 0 km/h
Sensor: Nr:Datum:Temp:Abs-Feuchte:Windchill:Wind:
Aussen-T/F 2051 26-02-2010 11:05:02 10.6 C 5.47 g/m*3 10.6 C 0 km/h
2052 26-02-2010 11:17:03 10.8 C 5.34 g/m*3 10.8 C 0 km/h
2053 26-02-2010 11:29:03 11 C 5.2 g/m*3 11 C 0 km/h
2054 26-02-2010 11:41:02 11.2 C 5.17 g/m*3 11.2 C 0 km/h
2055 26-02-2010 11:53:02 10.2 C 5.52 g/m*3 10.2 C 0 km/h
2056 26-02-2010 12:05:02 9.7 C 5.72 g/m*3 9.7 C 0 km/h
2057 26-02-2010 12:17:02 10 C 5.64 g/m*3 10 C 0 km/h
2058 26-02-2010 12:29:02 10.8 C 5.73 g/m*3 10.8 C 0 km/h
2059 26-02-2010 12:41:02 10.8 C 5.44 g/m*3 10.8 C 0 km/h
2060 26-02-2010 12:53:02 10.3 C 5.84 g/m*3 10.3 C 0 km/h
2061 26-02-2010 13:05:02 10.4 C 5.78 g/m*3 10.4 C 0 km/h
2062 26-02-2010 13:17:03 10.7 C 5.6 g/m*3 10.7 C 0 km/h
2063 26-02-2010 13:29:03 11.4 C 5.44 g/m*3 11.4 C 0 km/h
2064 26-02-2010 13:41:02 11.1 C 5.24 g/m*3 11.1 C 0 km/h
2065 26-02-2010 13:53:01 10.9 C 5.07 g/m*3 10.9 C 0 km/h
2066 26-02-2010 14:05:01 11.1 C 5.34 g/m*3 11.1 C 0 km/h
2067 26-02-2010 14:17:02 10.8 C 5.14 g/m*3 10.8 C 0 km/h
2068 26-02-2010 14:29:02 10.6 C 5.17 g/m*3 10.6 C 0 km/h
2069 26-02-2010 14:41:02 10.1 C 5.01 g/m*3 10.1 C 0 km/h
2070 26-02-2010 14:53:03 9.4 C 5.25 g/m*3 9.4 C 0 km/h
2071 26-02-2010 15:05:03 9.2 C 5.36 g/m*3 9.2 C 0 km/h
2072 26-02-2010 15:17:02 8.9 C 5.26 g/m*3 8.9 C 0 km/h
2073 26-02-2010 15:29:03 8.7 C 5.28 g/m*3 8.7 C 0 km/h
2074 26-02-2010 15:41:02 8.4 C 5.34 g/m*3 8.4 C 0 km/h
2075 26-02-2010 15:53:02 8.3 C 4.89 g/m*3 8.3 C 0 km/h
Sensor: Nr:Datum:Temp:Abs-Feuchte:Windchill:Wind:
Aussen-T/F 2076 26-02-2010 16:05:02 8.2 C 4.69 g/m*3 8.2 C 0 km/h
2077 26-02-2010 16:17:02 8 C 4.3 g/m*3 8 C 0 km/h
2078 26-02-2010 16:29:02 7.9 C 4.19 g/m*3 7.9 C 0 km/h
2079 26-02-2010 16:41:04 7.9 C 4.02 g/m*3 7.9 C 0 km/h
2080 26-02-2010 16:53:02 7.9 C 4.11 g/m*3 7.9 C 0 km/h
2081 26-02-2010 17:05:01 8.1 C 4.08 g/m*3 8.1 C 0 km/h
2082 26-02-2010 17:17:02 8 C 4.05 g/m*3 8 C 0 km/h
2083 26-02-2010 17:29:02 7.9 C 4.11 g/m*3 7.9 C 0 km/h
2084 26-02-2010 17:41:02 7.8 C 4.16 g/m*3 7.8 C 0 km/h
2085 26-02-2010 17:53:02 7.7 C 4.22 g/m*3 7.7 C 0 km/h
2086 26-02-2010 18:05:02 7.6 C 4.27 g/m*3 7.6 C 0 km/h
2087 26-02-2010 18:17:01 7.3 C 4.42 g/m*3 7.3 C 0 km/h
2088 26-02-2010 18:29:01 6.6 C 4.76 g/m*3 6.6 C 0 km/h
2089 26-02-2010 18:41:02 6.3 C 4.44 g/m*3 6.3 C 0 km/h
2090 26-02-2010 18:53:02 6.3 C 4.22 g/m*3 6.3 C 0 km/h
2091 26-02-2010 19:05:02 6.5 C 4.2 g/m*3 6.5 C 0 km/h
2092 26-02-2010 19:17:02 6.3 C 4.29 g/m*3 6.3 C 0 km/h
2093 26-02-2010 19:29:02 5.8 C 4.3 g/m*3 5.8 C 0 km/h
2094 26-02-2010 19:41:04 5.8 C 4.01 g/m*3 5.8 C 0 km/h
2095 26-02-2010 19:53:04 5.8 C 3.94 g/m*3 5.8 C 0 km/h
2096 26-02-2010 20:05:02 5.9 C 4.04 g/m*3 5.9 C 0 km/h
2097 26-02-2010 20:17:02 6 C 4.14 g/m*3 6 C 0 km/h
2098 26-02-2010 20:29:02 5.9 C 4.18 g/m*3 5.9 C 0 km/h
2099 26-02-2010 20:41:03 6 C 3.92 g/m*3 6 C 0 km/h
2100 26-02-2010 20:53:02 5.9 C 3.89 g/m*3 5.9 C 0 km/h
Sensor: Nr:Datum:Temp:Abs-Feuchte:Windchill:Wind:
Aussen-T/F 2101 26-02-2010 21:05:02 5.8 C 3.94 g/m*3 5.8 C 0 km/h
2102 26-02-2010 21:17:03 5.6 C 4.03 g/m*3 5.6 C 0 km/h
2103 26-02-2010 21:29:03 5.5 C 4 g/m*3 5.5 C 0 km/h
2104 26-02-2010 21:41:02 5.6 C 3.89 g/m*3 5.6 C 0 km/h
2105 26-02-2010 21:53:03 5.7 C 3.91 g/m*3 5.7 C 0 km/h
2106 26-02-2010 22:05:02 5.5 C 3.86 g/m*3 5.5 C 0 km/h
2107 26-02-2010 22:17:03 5.4 C 3.84 g/m*3 5.4 C 0 km/h
2108 26-02-2010 22:29:03 5.3 C 3.81 g/m*3 5.3 C 0 km/h
2109 26-02-2010 22:42:04 5.2 C 3.65 g/m*3 5.2 C 0 km/h
2110 26-02-2010 22:54:04 5.1 C 3.69 g/m*3 5.1 C 0 km/h
2111 26-02-2010 23:06:04 5.1 C 3.63 g/m*3 5.1 C 0 km/h
2112 26-02-2010 23:18:04 5.1 C 3.63 g/m*3 5.1 C 0 km/h
2113 26-02-2010 23:30:04 4.9 C 3.71 g/m*3 4.9 C 0 km/h
2114 26-02-2010 23:42:04 4.7 C 3.66 g/m*3 4.7 C 0 km/h
2115 26-02-2010 23:54:05 4.7 C 3.6 g/m*3 4.7 C 0 km/h
2116 27-02-2010 00:06:05 4.5 C 3.62 g/m*3 4.5 C 0 km/h
2117 27-02-2010 00:18:05 4.4 C 3.59 g/m*3 4.4 C 0 km/h
2118 27-02-2010 00:30:05 4.4 C 3.59 g/m*3 4.4 C 0 km/h
2119 27-02-2010 00:42:05 4.3 C 3.57 g/m*3 4.3 C 0 km/h
2120 27-02-2010 00:54:05 4.1 C 3.58 g/m*3 4.1 C 0 km/h
2121 27-02-2010 01:06:05 3.8 C 3.64 g/m*3 3.8 C 0 km/h
2122 27-02-2010 01:18:05 3.9 C 3.73 g/m*3 3.9 C 0 km/h
2123 27-02-2010 01:30:05 4 C 3.62 g/m*3 4 C 0 km/h
2124 27-02-2010 01:42:05 4.1 C 3.58 g/m*3 4.1 C 0 km/h
2125 27-02-2010 01:54:05 3.7 C 3.68 g/m*3 3.7 C 0 km/h
Sensor: Nr:Datum:Temp:Abs-Feuchte:Windchill:Wind:
Aussen-T/F 2126 27-02-2010 02:06:05 3.2 C 3.74 g/m*3 3.2 C 0 km/h
2127 27-02-2010 02:18:05 2.8 C 3.75 g/m*3 2.8 C 0 km/h
2128 27-02-2010 02:30:05 3.1 C 3.77 g/m*3 3.1 C 0 km/h
2129 27-02-2010 02:42:05 3.1 C 3.77 g/m*3 3.1 C 0 km/h
2130 27-02-2010 02:54:05 3.2 C 3.74 g/m*3 3.2 C 0 km/h
2131 27-02-2010 03:06:05 3.3 C 3.76 g/m*3 3.3 C 0 km/h
2132 27-02-2010 03:18:05 3.5 C 3.69 g/m*3 3.5 C 0 km/h
2133 27-02-2010 03:30:05 3.7 C 3.74 g/m*3 3.7 C 0 km/h
2134 27-02-2010 03:42:05 3.6 C 3.78 g/m*3 3.6 C 0 km/h
2135 27-02-2010 03:54:05 3.5 C 3.81 g/m*3 3.5 C 0 km/h
2136 27-02-2010 04:06:06 3.4 C 3.79 g/m*3 3.4 C 0 km/h
2137 27-02-2010 04:18:06 3.3 C 3.88 g/m*3 3.3 C 0 km/h
2138 27-02-2010 04:30:06 3.4 C 3.97 g/m*3 3.4 C 0 km/h
2139 27-02-2010 04:42:06 3.6 C 4.09 g/m*3 3.6 C 0 km/h
2140 27-02-2010 04:54:06 4.1 C 4.16 g/m*3 4.1 C 0 km/h
2141 27-02-2010 05:06:06 4 C 4.07 g/m*3 4 C 0 km/h
2142 27-02-2010 05:18:06 3.9 C 4.17 g/m*3 3.9 C 0 km/h
2143 27-02-2010 05:30:06 3.9 C 4.23 g/m*3 3.9 C 0 km/h
2144 27-02-2010 05:42:06 3.8 C 4.2 g/m*3 3.8 C 0 km/h
2145 27-02-2010 05:54:06 3.6 C 4.21 g/m*3 3.6 C 0 km/h
2146 27-02-2010 06:06:06 4 C 4.26 g/m*3 4 C 0 km/h
2147 27-02-2010 06:18:06 4.3 C 4.28 g/m*3 4.3 C 0 km/h
2148 27-02-2010 06:30:06 4.3 C 4.22 g/m*3 4.3 C 0 km/h
2149 27-02-2010 06:42:06 4.4 C 4.31 g/m*3 4.4 C 0 km/h
2150 27-02-2010 06:54:06 4.6 C 4.37 g/m*3 4.6 C 0 km/h
Sensor: Nr:Datum:Temp:Abs-Feuchte:Windchill:Wind:
Aussen-T/F 2151 27-02-2010 07:06:06 4.4 C 4.31 g/m*3 4.4 C 0 km/h
2152 27-02-2010 07:18:06 4.7 C 4.46 g/m*3 4.7 C 0 km/h
2153 27-02-2010 07:30:06 4.8 C 4.49 g/m*3 4.8 C 0 km/h
2154 27-02-2010 07:42:06 5.2 C 4.54 g/m*3 5.2 C 0 km/h
2155 27-02-2010 07:54:06 5.3 C 4.57 g/m*3 5.3 C 0 km/h
2156 27-02-2010 08:06:07 5.4 C 4.6 g/m*3 5.4 C 0 km/h
2157 27-02-2010 08:18:07 5.6 C 4.67 g/m*3 5.6 C 0 km/h
2158 27-02-2010 08:30:07 5.8 C 4.66 g/m*3 5.8 C 0 km/h
2159 27-02-2010 08:42:03 6.4 C 4.62 g/m*3 6.4 C 0 km/h
2160 27-02-2010 08:54:01 6.5 C 4.57 g/m*3 6.5 C 0 km/h
2161 27-02-2010 09:06:02 6.6 C 4.6 g/m*3 6.6 C 0 km/h
2162 27-02-2010 09:18:02 6.8 C 4.59 g/m*3 6.8 C 0 km/h
2163 27-02-2010 09:30:02 7 C 4.49 g/m*3 7 C 0 km/h
2164 27-02-2010 09:42:01 7.1 C 4.45 g/m*3 7.1 C 0 km/h
2165 27-02-2010 09:54:02 7.3 C 4.5 g/m*3 7.3 C 0 km/h
2166 27-02-2010 10:06:01 7.5 C 4.48 g/m*3 7.5 C 0 km/h
2167 27-02-2010 10:18:02 7.6 C 4.43 g/m*3 7.6 C 0 km/h
2168 27-02-2010 10:30:02 8.1 C 4.49 g/m*3 8.1 C 0 km/h
2169 27-02-2010 10:42:01 8.7 C 4.58 g/m*3 8.7 C 0 km/h
2170 27-02-2010 10:54:03 8.6 C 4.55 g/m*3 8.6 C 0 km/h
2171 27-02-2010 11:06:02 8.7 C 4.5 g/m*3 8.7 C 0 km/h
2172 27-02-2010 11:18:02 9.1 C 4.53 g/m*3 9.1 C 0 km/h
2173 27-02-2010 11:30:03 9.3 C 4.49 g/m*3 9.3 C 0 km/h
2174 27-02-2010 11:42:02 9.3 C 4.31 g/m*3 9.3 C 0 km/h
2175 27-02-2010 11:54:02 9.3 C 4.31 g/m*3 9.3 C 0 km/h
Sensor: Nr:Datum:Temp:Abs-Feuchte:Windchill:Wind:
Aussen-T/F 2176 27-02-2010 12:06:02 9.4 C 4.34 g/m*3 9.4 C 0 km/h
2177 27-02-2010 12:18:02 9.8 C 4.36 g/m*3 9.8 C 0 km/h
2178 27-02-2010 12:30:02 10.1 C 4.35 g/m*3 10.1 C 0 km/h
2179 27-02-2010 12:42:02 10.8 C 4.35 g/m*3 10.8 C 0 km/h
2180 27-02-2010 12:54:02 11.2 C 4.16 g/m*3 11.2 C 0 km/h
2181 27-02-2010 13:06:01 11.8 C 4.1 g/m*3 11.8 C 0 km/h
2182 27-02-2010 13:18:01 11.8 C 3.68 g/m*3 11.8 C 0 km/h
2183 27-02-2010 13:30:01 12.3 C 3.58 g/m*3 12.3 C 0 km/h
2184 27-02-2010 13:42:02 12.9 C 3.49 g/m*3 12.9 C 0 km/h
2185 27-02-2010 13:54:02 12.9 C 3.38 g/m*3 12.9 C 0 km/h
2186 27-02-2010 14:06:02 13.4 C 3.49 g/m*3 13.4 C 0 km/h
2187 27-02-2010 14:18:02 14.2 C 3.42 g/m*3 14.2 C 0 km/h
2188 27-02-2010 14:30:02 14.5 C 3.23 g/m*3 14.5 C 0 km/h
2189 27-02-2010 14:42:02 14.8 C 3.17 g/m*3 14.8 C 0 km/h
2190 27-02-2010 14:54:01 14.9 C 2.8 g/m*3 14.9 C 0 km/h
2191 27-02-2010 15:06:02 14.8 C 2.79 g/m*3 14.8 C 0 km/h
2192 27-02-2010 15:18:01 15.5 C 2.78 g/m*3 15.5 C 0 km/h
2193 27-02-2010 15:30:01 15.9 C 2.84 g/m*3 15.9 C 0 km/h
2194 27-02-2010 15:42:02 15.6 C 2.93 g/m*3 15.6 C 0 km/h
2195 27-02-2010 15:54:02 15.7 C 3.08 g/m*3 15.7 C 0 km/h
2196 27-02-2010 16:06:02 15.7 C 2.81 g/m*3 15.7 C 0 km/h
2197 27-02-2010 16:18:01 14.8 C 2.66 g/m*3 14.8 C 0 km/h
2198 27-02-2010 16:30:01 15 C 2.56 g/m*3 15 C 0 km/h
2199 27-02-2010 16:42:02 14.3 C 2.46 g/m*3 14.3 C 0 km/h
2200 27-02-2010 16:54:02 14.6 C 2.5 g/m*3 14.6 C 0 km/h
Sensor: Nr:Datum:Temp:Abs-Feuchte:Windchill:Wind:
Aussen-T/F 2201 27-02-2010 17:06:02 15.7 C 2.68 g/m*3 15.7 C 0 km/h
2202 27-02-2010 17:18:02 14.4 C 2.47 g/m*3 14.4 C 0 km/h
2203 27-02-2010 17:30:02 13.5 C 2.57 g/m*3 13.5 C 0 km/h
2204 27-02-2010 17:42:02 12.9 C 3.38 g/m*3 12.9 C 0 km/h
2205 27-02-2010 17:54:02 11.7 C 3.66 g/m*3 11.7 C 0 km/h
2206 27-02-2010 18:06:02 11 C 3.7 g/m*3 11 C 0 km/h
2207 27-02-2010 18:18:03 10.5 C 3.88 g/m*3 10.5 C 0 km/h
2208 27-02-2010 18:30:03 10.2 C 3.81 g/m*3 10.2 C 0 km/h
2209 27-02-2010 18:42:02 10 C 3.95 g/m*3 10 C 0 km/h
2210 27-02-2010 18:54:02 9.9 C 4.2 g/m*3 9.9 C 0 km/h
2211 27-02-2010 19:06:02 9.8 C 4.27 g/m*3 9.8 C 0 km/h
2212 27-02-2010 19:18:02 10 C 4.23 g/m*3 10 C 0 km/h
2213 27-02-2010 19:30:02 10 C 4.23 g/m*3 10 C 0 km/h
2214 27-02-2010 19:42:02 9.8 C 4.18 g/m*3 9.8 C 0 km/h
2215 27-02-2010 19:54:02 9.8 C 4.18 g/m*3 9.8 C 0 km/h
2216 27-02-2010 20:06:02 10 C 4.13 g/m*3 10 C 0 km/h
2217 27-02-2010 20:18:02 9.9 C 4.2 g/m*3 9.9 C 0 km/h
2218 27-02-2010 20:30:02 9.7 C 4.15 g/m*3 9.7 C 0 km/h
2219 27-02-2010 20:42:02 9.9 C 4.01 g/m*3 9.9 C 0 km/h
2220 27-02-2010 20:54:02 9.8 C 4.18 g/m*3 9.8 C 0 km/h
2221 27-02-2010 21:06:01 9.6 C 3.94 g/m*3 9.6 C 0 km/h
2222 27-02-2010 21:18:02 9.6 C 3.94 g/m*3 9.6 C 0 km/h
2223 27-02-2010 21:30:02 9.6 C 3.94 g/m*3 9.6 C 0 km/h
2224 27-02-2010 21:42:01 9.7 C 3.69 g/m*3 9.7 C 0 km/h
2225 27-02-2010 21:54:03 9.6 C 3.66 g/m*3 9.6 C 0 km/h
Sensor: Nr:Datum:Temp:Abs-Feuchte:Windchill:Wind:
Aussen-T/F 2226 27-02-2010 22:06:03 9.7 C 3.78 g/m*3 9.7 C 0 km/h
2227 27-02-2010 22:18:02 9.8 C 3.71 g/m*3 9.8 C 0 km/h
2228 27-02-2010 22:30:02 9.8 C 3.71 g/m*3 9.8 C 0 km/h
2229 27-02-2010 22:43:02 9.9 C 3.64 g/m*3 9.9 C 0 km/h
2230 27-02-2010 22:55:02 9.8 C 3.71 g/m*3 9.8 C 0 km/h
2231 27-02-2010 23:07:02 9.8 C 3.71 g/m*3 9.8 C 0 km/h
2232 27-02-2010 23:19:02 9.7 C 3.69 g/m*3 9.7 C 0 km/h
2233 27-02-2010 23:31:02 9.6 C 3.66 g/m*3 9.6 C 0 km/h
2234 27-02-2010 23:43:03 9.6 C 3.76 g/m*3 9.6 C 0 km/h
2235 27-02-2010 23:55:03 9.4 C 3.8 g/m*3 9.4 C 0 km/h
2236 28-02-2010 00:07:03 9.3 C 3.77 g/m*3 9.3 C 0 km/h
2237 28-02-2010 00:19:03 8.9 C 4.2 g/m*3 8.9 C 0 km/h
2238 28-02-2010 00:31:03 8.6 C 4.04 g/m*3 8.6 C 0 km/h
2239 28-02-2010 00:43:03 8.5 C 4.44 g/m*3 8.5 C 0 km/h
2240 28-02-2010 00:55:03 7.3 C 4.98 g/m*3 7.3 C 0 km/h
2241 28-02-2010 01:07:03 6.9 C 5.54 g/m*3 6.9 C 0 km/h
2242 28-02-2010 01:19:03 6.6 C 5.59 g/m*3 6.6 C 0 km/h
2243 28-02-2010 01:31:03 6.4 C 5.74 g/m*3 6.4 C 0 km/h
2244 28-02-2010 01:43:03 6.4 C 5.89 g/m*3 6.4 C 0 km/h
2245 28-02-2010 01:55:03 6.2 C 5.88 g/m*3 6.2 C 0 km/h
2246 28-02-2010 02:07:03 6.2 C 6.03 g/m*3 6.2 C 0 km/h
2247 28-02-2010 02:19:03 6.2 C 6.1 g/m*3 6.2 C 0 km/h
2248 28-02-2010 02:31:03 5.9 C 6.06 g/m*3 5.9 C 0 km/h
2249 28-02-2010 02:43:03 5.9 C 6.13 g/m*3 5.9 C 0 km/h
2250 28-02-2010 02:55:03 5.8 C 6.09 g/m*3 5.8 C 0 km/h
Sensor: Nr:Datum:Temp:Abs-Feuchte:Windchill:Wind:
Aussen-T/F 2251 28-02-2010 03:07:03 5.8 C 6.16 g/m*3 5.8 C 0 km/h
2252 28-02-2010 03:19:03 5.7 C 6.12 g/m*3 5.7 C 0 km/h
2253 28-02-2010 03:31:03 5.7 C 6.12 g/m*3 5.7 C 0 km/h
2254 28-02-2010 03:43:03 5.7 C 6.12 g/m*3 5.7 C 0 km/h
2255 28-02-2010 03:55:04 5.8 C 6.09 g/m*3 5.8 C 0 km/h
2256 28-02-2010 04:07:04 5.9 C 6.13 g/m*3 5.9 C 0 km/h
2257 28-02-2010 04:19:04 6 C 6.17 g/m*3 6 C 0 km/h
2258 28-02-2010 04:31:04 6.3 C 6.29 g/m*3 6.3 C 0 km/h
2259 28-02-2010 04:43:04 6.3 C 6.37 g/m*3 6.3 C 0 km/h
2260 28-02-2010 04:55:04 6.1 C 6.28 g/m*3 6.1 C 0 km/h
2261 28-02-2010 05:07:04 6.1 C 6.36 g/m*3 6.1 C 0 km/h
2262 28-02-2010 05:19:04 6.3 C 6.44 g/m*3 6.3 C 0 km/h
2263 28-02-2010 05:31:04 6.3 C 6.44 g/m*3 6.3 C 0 km/h
2264 28-02-2010 05:43:04 6.3 C 6.44 g/m*3 6.3 C 0 km/h
2265 28-02-2010 05:55:04 6.3 C 6.44 g/m*3 6.3 C 0 km/h
2266 28-02-2010 06:07:04 6.1 C 6.43 g/m*3 6.1 C 0 km/h
2267 28-02-2010 06:19:04 6.3 C 6.51 g/m*3 6.3 C 0 km/h
2268 28-02-2010 06:31:04 6.2 C 6.47 g/m*3 6.2 C 0 km/h
2269 28-02-2010 06:43:04 6.1 C 6.5 g/m*3 6.1 C 0 km/h
2270 28-02-2010 06:55:04 6.1 C 6.5 g/m*3 6.1 C 0 km/h
2271 28-02-2010 07:07:04 6.3 C 6.66 g/m*3 6.3 C 0 km/h
2272 28-02-2010 07:19:04 6.3 C 6.66 g/m*3 6.3 C 0 km/h
2273 28-02-2010 07:31:04 6.2 C 6.69 g/m*3 6.2 C 0 km/h
2274 28-02-2010 07:43:04 6.3 C 6.74 g/m*3 6.3 C 0 km/h
2275 28-02-2010 07:55:04 6.4 C 6.85 g/m*3 6.4 C 0 km/h
Sensor: Nr:Datum:Temp:Abs-Feuchte:Windchill:Wind:
Aussen-T/F 2276 28-02-2010 08:07:01 6.5 C 6.9 g/m*3 6.5 C 0 km/h
2277 28-02-2010 08:19:02 6.7 C 7.07 g/m*3 6.7 C 0 km/h
2278 28-02-2010 08:31:02 6.9 C 7.16 g/m*3 6.9 C 0 km/h
2279 28-02-2010 08:43:02 7 C 7.13 g/m*3 7 C 0 km/h
2280 28-02-2010 08:55:01 7.3 C 7.35 g/m*3 7.3 C 0 km/h
2281 28-02-2010 09:07:02 7.9 C 7.47 g/m*3 7.9 C 0 km/h
2282 28-02-2010 09:19:02 8.2 C 7.2 g/m*3 8.2 C 0 km/h
2283 28-02-2010 09:31:01 8.5 C 7.09 g/m*3 8.5 C 0 km/h
2284 28-02-2010 09:43:01 8.8 C 6.96 g/m*3 8.8 C 0 km/h
2285 28-02-2010 09:55:01 8.8 C 6.88 g/m*3 8.8 C 0 km/h
2286 28-02-2010 10:07:02 8.9 C 6.75 g/m*3 8.9 C 0 km/h
2287 28-02-2010 10:19:02 9.3 C 6.65 g/m*3 9.3 C 0 km/h
2288 28-02-2010 10:31:01 9.6 C 6.69 g/m*3 9.6 C 0 km/h
2289 28-02-2010 10:43:01 9.8 C 6.87 g/m*3 9.8 C 0 km/h
2290 28-02-2010 10:55:01 10.2 C 6.66 g/m*3 10.2 C 0 km/h
2291 28-02-2010 11:07:02 10.7 C 6.78 g/m*3 10.7 C 0 km/h
2292 28-02-2010 11:19:02 12.3 C 5.97 g/m*3 12.3 C 0 km/h
2293 28-02-2010 11:31:01 13.2 C 5.28 g/m*3 13.2 C 0 km/h
2294 28-02-2010 11:43:01 13 C 5.22 g/m*3 13 C 0 km/h
2295 28-02-2010 11:55:01 13 C 4.65 g/m*3 13 C 0 km/h
2296 28-02-2010 12:07:01 13 C 4.65 g/m*3 13 C 0 km/h
2297 28-02-2010 12:19:02 12.7 C 4.56 g/m*3 12.7 C 0 km/h
2298 28-02-2010 12:31:01 13 C 4.31 g/m*3 13 C 0 km/h
2299 28-02-2010 12:43:01 12.6 C 4.54 g/m*3 12.6 C 0 km/h
2300 28-02-2010 12:55:02 12.5 C 4.29 g/m*3 12.5 C 0 km/h
Sensor: Nr:Datum:Temp:Abs-Feuchte:Windchill:Wind:
Aussen-T/F 2301 28-02-2010 13:07:01 12.5 C 4.18 g/m*3 12.5 C 0 km/h
2302 28-02-2010 13:19:02 12.2 C 4.1 g/m*3 12.2 C 0 km/h
2303 28-02-2010 13:31:01 11.9 C 3.92 g/m*3 11.9 C 0 km/h
2304 28-02-2010 13:43:01 11.8 C 3.89 g/m*3 11.8 C 0 km/h
2305 28-02-2010 13:55:02 11.8 C 3.79 g/m*3 11.8 C 0 km/h
2306 28-02-2010 14:07:42 11.6 C 3.64 g/m*3 11.6 C 0 km/h
2307 28-02-2010 14:19:02 11.4 C 3.59 g/m*3 11.4 C 0 km/h
2308 28-02-2010 14:31:02 11.1 C 3.63 g/m*3 11.1 C 0 km/h
2309 28-02-2010 14:43:02 10.7 C 3.83 g/m*3 10.7 C 0 km/h
2310 28-02-2010 14:55:02 10.5 C 3.88 g/m*3 10.5 C 0 km/h
2311 28-02-2010 15:07:01 10.6 C 3.9 g/m*3 10.6 C 0 km/h
2312 28-02-2010 15:19:02 10.5 C 3.88 g/m*3 10.5 C 0 km/h
2313 28-02-2010 15:31:01 9.7 C 4.52 g/m*3 9.7 C 0 km/h
2314 28-02-2010 15:43:01 10 C 4.51 g/m*3 10 C 0 km/h
2315 28-02-2010 15:55:03 10 C 4.32 g/m*3 10 C 0 km/h
2316 28-02-2010 16:07:02 10 C 4.42 g/m*3 10 C 0 km/h
2317 28-02-2010 16:19:02 9.8 C 4.45 g/m*3 9.8 C 0 km/h
2318 28-02-2010 16:31:02 9.6 C 4.49 g/m*3 9.6 C 0 km/h
2319 28-02-2010 16:43:02 9.5 C 4.64 g/m*3 9.5 C 0 km/h
2320 28-02-2010 16:55:02 9.2 C 4.64 g/m*3 9.2 C 0 km/h
2321 28-02-2010 17:07:02 9.2 C 4.64 g/m*3 9.2 C 0 km/h
2322 28-02-2010 17:19:02 9.2 C 4.64 g/m*3 9.2 C 0 km/h
2323 28-02-2010 17:31:02 9.1 C 4.53 g/m*3 9.1 C 0 km/h
2324 28-02-2010 17:43:02 8.9 C 4.56 g/m*3 8.9 C 0 km/h
2325 28-02-2010 17:55:02 8.7 C 4.76 g/m*3 8.7 C 0 km/h
Sensor: Nr:Datum:Temp:Abs-Feuchte:Windchill:Wind:
Aussen-T/F 2326 28-02-2010 18:07:01 8.2 C 5.02 g/m*3 8.2 C 0 km/h
2327 28-02-2010 18:19:02 8.1 C 4.99 g/m*3 8.1 C 0 km/h
2328 28-02-2010 18:31:01 8.2 C 5.02 g/m*3 8.2 C 0 km/h
2329 28-02-2010 18:43:01 8.2 C 4.94 g/m*3 8.2 C 0 km/h
2330 28-02-2010 18:55:03 8 C 5.13 g/m*3 8 C 0 km/h
2331 28-02-2010 19:07:02 7.9 C 5.09 g/m*3 7.9 C 0 km/h
2332 28-02-2010 19:19:03 8 C 4.88 g/m*3 8 C 0 km/h
2333 28-02-2010 19:31:03 8.1 C 4.74 g/m*3 8.1 C 0 km/h
2334 28-02-2010 19:43:03 8 C 4.71 g/m*3 8 C 0 km/h
2335 28-02-2010 19:55:02 8.1 C 4.74 g/m*3 8.1 C 0 km/h
2336 28-02-2010 20:07:03 8 C 4.71 g/m*3 8 C 0 km/h
2337 28-02-2010 20:19:02 7.8 C 4.9 g/m*3 7.8 C 0 km/h
2338 28-02-2010 20:31:01 7.8 C 4.98 g/m*3 7.8 C 0 km/h
2339 28-02-2010 20:43:01 7.7 C 4.95 g/m*3 7.7 C 0 km/h
2340 28-02-2010 20:55:01 7.8 C 4.73 g/m*3 7.8 C 0 km/h
2341 28-02-2010 21:07:02 7.8 C 4.57 g/m*3 7.8 C 0 km/h
2342 28-02-2010 21:19:02 7.6 C 4.51 g/m*3 7.6 C 0 km/h
2343 28-02-2010 21:31:02 7.5 C 4.56 g/m*3 7.5 C 0 km/h
2344 28-02-2010 21:43:02 7.6 C 4.51 g/m*3 7.6 C 0 km/h
2345 28-02-2010 21:55:02 7.7 C 4.54 g/m*3 7.7 C 0 km/h
2346 28-02-2010 22:08:03 7.6 C 4.51 g/m*3 7.6 C 0 km/h
2347 28-02-2010 22:20:03 7.5 C 4.48 g/m*3 7.5 C 0 km/h
2348 28-02-2010 22:32:03 7.4 C 4.53 g/m*3 7.4 C 0 km/h
2349 28-02-2010 22:44:03 7.1 C 4.68 g/m*3 7.1 C 0 km/h
2350 28-02-2010 22:56:03 7 C 4.65 g/m*3 7 C 0 km/h
Sensor: Nr:Datum:Temp:Abs-Feuchte:Windchill:Wind:
Aussen-T/F 2351 28-02-2010 23:08:03 7 C 4.8 g/m*3 7 C 0 km/h
2352 28-02-2010 23:20:03 7 C 4.8 g/m*3 7 C 0 km/h
2353 28-02-2010 23:32:03 6.9 C 4.93 g/m*3 6.9 C 0 km/h
2354 28-02-2010 23:44:03 6.7 C 4.94 g/m*3 6.7 C 0 km/h
2355 28-02-2010 23:56:03 6.6 C 4.98 g/m*3 6.6 C 0 km/h
2356 01-03-2010 00:08:03 6.3 C 4.89 g/m*3 6.3 C 0 km/h
2357 01-03-2010 00:20:04 6.1 C 4.89 g/m*3 6.1 C 0 km/h
2358 01-03-2010 00:32:04 6.2 C 4.85 g/m*3 6.2 C 0 km/h
2359 01-03-2010 00:44:04 6.1 C 4.75 g/m*3 6.1 C 0 km/h
2360 01-03-2010 00:56:04 6.1 C 4.6 g/m*3 6.1 C 0 km/h
2361 01-03-2010 01:08:04 5.9 C 4.76 g/m*3 5.9 C 0 km/h
2362 01-03-2010 01:20:04 5.7 C 4.7 g/m*3 5.7 C 0 km/h
2363 01-03-2010 01:32:04 5.8 C 4.37 g/m*3 5.8 C 0 km/h
2364 01-03-2010 01:44:04 5.7 C 4.34 g/m*3 5.7 C 0 km/h
2365 01-03-2010 01:56:04 5.8 C 4.23 g/m*3 5.8 C 0 km/h
2366 01-03-2010 02:08:04 5.8 C 4.23 g/m*3 5.8 C 0 km/h
2367 01-03-2010 02:20:04 5.7 C 3.99 g/m*3 5.7 C 0 km/h
2368 01-03-2010 02:32:04 5.6 C 3.96 g/m*3 5.6 C 0 km/h
2369 01-03-2010 02:44:05 5.5 C 3.93 g/m*3 5.5 C 0 km/h
2370 01-03-2010 02:56:05 5.4 C 4.05 g/m*3 5.4 C 0 km/h
2371 01-03-2010 03:08:05 5.3 C 4.09 g/m*3 5.3 C 0 km/h
2372 01-03-2010 03:20:05 5 C 4.14 g/m*3 5 C 0 km/h
2373 01-03-2010 03:32:05 5 C 4.14 g/m*3 5 C 0 km/h
2374 01-03-2010 03:44:05 4.9 C 4.12 g/m*3 4.9 C 0 km/h
2375 01-03-2010 03:56:05 4.8 C 4.09 g/m*3 4.8 C 0 km/h
Sensor: Nr:Datum:Temp:Abs-Feuchte:Windchill:Wind:
Aussen-T/F 2376 01-03-2010 04:08:05 4.7 C 4.13 g/m*3 4.7 C 0 km/h
2377 01-03-2010 04:20:05 4.6 C 4.17 g/m*3 4.6 C 0 km/h
2378 01-03-2010 04:32:05 4.6 C 4.23 g/m*3 4.6 C 0 km/h
2379 01-03-2010 04:44:05 4.7 C 4.33 g/m*3 4.7 C 0 km/h
2380 01-03-2010 04:56:05 4.8 C 4.36 g/m*3 4.8 C 0 km/h
2381 01-03-2010 05:08:05 4.4 C 4.7 g/m*3 4.4 C 0 km/h
2382 01-03-2010 05:20:05 4.1 C 4.99 g/m*3 4.1 C 0 km/h
2383 01-03-2010 05:32:05 3.8 C 5.08 g/m*3 3.8 C 0 km/h
2384 01-03-2010 05:44:05 3.5 C 5.04 g/m*3 3.5 C 0 km/h
2385 01-03-2010 05:56:05 3.5 C 5.04 g/m*3 3.5 C 0 km/h
2386 01-03-2010 06:08:05 3.4 C 5.01 g/m*3 3.4 C 0 km/h
2387 01-03-2010 06:20:05 3.4 C 5.01 g/m*3 3.4 C 0 km/h
2388 01-03-2010 06:32:05 3.6 C 4.89 g/m*3 3.6 C 0 km/h
2389 01-03-2010 06:44:05 3.8 C 4.77 g/m*3 3.8 C 0 km/h
2390 01-03-2010 06:56:05 4 C 4.64 g/m*3 4 C 0 km/h
2391 01-03-2010 07:08:05 4.1 C 4.48 g/m*3 4.1 C 0 km/h
2392 01-03-2010 07:20:03 4.2 C 4.38 g/m*3 4.2 C 0 km/h
2393 01-03-2010 07:32:03 4.2 C 4.12 g/m*3 4.2 C 0 km/h
2394 01-03-2010 07:44:03 4.4 C 3.92 g/m*3 4.4 C 0 km/h
2395 01-03-2010 07:56:02 4.6 C 3.77 g/m*3 4.6 C 0 km/h
2396 01-03-2010 08:08:02 4.6 C 3.71 g/m*3 4.6 C 0 km/h
2397 01-03-2010 08:20:02 4.8 C 3.69 g/m*3 4.8 C 0 km/h
2398 01-03-2010 08:32:02 4.9 C 3.71 g/m*3 4.9 C 0 km/h
2399 01-03-2010 08:44:02 5 C 3.67 g/m*3 5 C 0 km/h
2400 01-03-2010 08:56:01 5.1 C 3.69 g/m*3 5.1 C 0 km/h
Sensor: Nr:Datum:Temp:Abs-Feuchte:Windchill:Wind:
Aussen-T/F 2401 01-03-2010 09:08:02 5.2 C 3.86 g/m*3 5.2 C 0 km/h
2402 01-03-2010 09:20:01 5.3 C 4.02 g/m*3 5.3 C 0 km/h
2403 01-03-2010 09:32:02 5.4 C 3.91 g/m*3 5.4 C 0 km/h
2404 01-03-2010 09:44:02 5.6 C 3.96 g/m*3 5.6 C 0 km/h
2405 01-03-2010 09:56:01 5.8 C 4.01 g/m*3 5.8 C 0 km/h
2406 01-03-2010 10:08:02 6 C 3.7 g/m*3 6 C 0 km/h
2407 01-03-2010 10:20:01 6.2 C 3.6 g/m*3 6.2 C 0 km/h
2408 01-03-2010 10:32:02 6.4 C 3.65 g/m*3 6.4 C 0 km/h
2409 01-03-2010 10:44:02 6.3 C 3.48 g/m*3 6.3 C 0 km/h
2410 01-03-2010 10:56:01 6.4 C 3.5 g/m*3 6.4 C 0 km/h
2411 01-03-2010 11:08:02 6.7 C 3.5 g/m*3 6.7 C 0 km/h
2412 01-03-2010 11:20:02 6.6 C 3.47 g/m*3 6.6 C 0 km/h
2413 01-03-2010 11:32:02 6.3 C 3.41 g/m*3 6.3 C 0 km/h
2414 01-03-2010 11:44:02 6.6 C 3.47 g/m*3 6.6 C 0 km/h
2415 01-03-2010 11:56:01 7 C 3.33 g/m*3 7 C 0 km/h
2416 01-03-2010 12:08:02 7 C 3.33 g/m*3 7 C 0 km/h
2417 01-03-2010 12:20:02 7.2 C 3.3 g/m*3 7.2 C 0 km/h
2418 01-03-2010 12:32:01 7.5 C 3.2 g/m*3 7.5 C 0 km/h
2419 01-03-2010 12:44:01 7.9 C 3.2 g/m*3 7.9 C 0 km/h
2420 01-03-2010 12:56:02 7.8 C 3.18 g/m*3 7.8 C 0 km/h
2421 01-03-2010 13:08:01 7.7 C 3.16 g/m*3 7.7 C 0 km/h
2422 01-03-2010 13:20:02 8 C 3.14 g/m*3 8 C 0 km/h
2423 01-03-2010 13:32:01 8 C 3.06 g/m*3 8 C 0 km/h
2424 01-03-2010 13:44:01 7.8 C 3.02 g/m*3 7.8 C 0 km/h
2425 01-03-2010 13:56:01 7.7 C 3 g/m*3 7.7 C 0 km/h
Sensor: Nr:Datum:Temp:Abs-Feuchte:Windchill:Wind:
Aussen-T/F 2426 01-03-2010 14:08:01 7.3 C 3.16 g/m*3 7.3 C 0 km/h
2427 01-03-2010 14:20:01 7.1 C 3.2 g/m*3 7.1 C 0 km/h
2428 01-03-2010 14:32:02 7.6 C 3.22 g/m*3 7.6 C 0 km/h
2429 01-03-2010 14:44:02 7.5 C 3.2 g/m*3 7.5 C 0 km/h
2430 01-03-2010 14:56:02 7.4 C 3.18 g/m*3 7.4 C 0 km/h
2431 01-03-2010 15:08:02 7.3 C 3.24 g/m*3 7.3 C 0 km/h
2432 01-03-2010 15:20:02 7.6 C 3.3 g/m*3 7.6 C 0 km/h
2433 01-03-2010 15:32:02 7.5 C 3.28 g/m*3 7.5 C 0 km/h
2434 01-03-2010 15:44:02 7.4 C 3.1 g/m*3 7.4 C 0 km/h
2435 01-03-2010 15:56:02 7.3 C 3 g/m*3 7.3 C 0 km/h
2436 01-03-2010 16:08:01 7.3 C 3.08 g/m*3 7.3 C 0 km/h
2437 01-03-2010 16:20:02 7.3 C 3.08 g/m*3 7.3 C 0 km/h
2438 01-03-2010 16:32:02 7.3 C 3.08 g/m*3 7.3 C 0 km/h
2439 01-03-2010 16:44:02 7.3 C 3.08 g/m*3 7.3 C 0 km/h
2440 01-03-2010 16:56:02 7.2 C 3.06 g/m*3 7.2 C 0 km/h
2441 01-03-2010 17:08:03 7.1 C 3.12 g/m*3 7.1 C 0 km/h
2442 01-03-2010 17:20:02 6.9 C 3.08 g/m*3 6.9 C 0 km/h
2443 01-03-2010 17:32:02 6.8 C 3.06 g/m*3 6.8 C 0 km/h
2444 01-03-2010 17:44:02 6.8 C 3.14 g/m*3 6.8 C 0 km/h
2445 01-03-2010 17:56:01 6.7 C 3.12 g/m*3 6.7 C 0 km/h
2446 01-03-2010 18:08:02 6.5 C 3.22 g/m*3 6.5 C 0 km/h
2447 01-03-2010 18:20:01 6.4 C 3.5 g/m*3 6.4 C 0 km/h
2448 01-03-2010 18:32:01 6 C 3.56 g/m*3 6 C 0 km/h
2449 01-03-2010 18:44:01 5.8 C 3.72 g/m*3 5.8 C 0 km/h
2450 01-03-2010 18:56:01 5.7 C 3.77 g/m*3 5.7 C 0 km/h
Sensor: Nr:Datum:Temp:Abs-Feuchte:Windchill:Wind:
Aussen-T/F 2451 01-03-2010 19:08:02 5.6 C 3.68 g/m*3 5.6 C 0 km/h
2452 01-03-2010 19:20:01 5.6 C 3.53 g/m*3 5.6 C 0 km/h
2453 01-03-2010 19:32:02 5.4 C 3.56 g/m*3 5.4 C 0 km/h
2454 01-03-2010 19:44:02 5.3 C 3.53 g/m*3 5.3 C 0 km/h
2455 01-03-2010 19:56:02 5.1 C 3.42 g/m*3 5.1 C 0 km/h
2456 01-03-2010 20:08:03 5 C 3.4 g/m*3 5 C 0 km/h
2457 01-03-2010 20:20:02 5.1 C 3.42 g/m*3 5.1 C 0 km/h
2458 01-03-2010 20:32:02 4.6 C 3.44 g/m*3 4.6 C 0 km/h
2459 01-03-2010 20:44:02 4.4 C 3.46 g/m*3 4.4 C 0 km/h
2460 01-03-2010 20:56:02 4.4 C 3.4 g/m*3 4.4 C 0 km/h
2461 01-03-2010 21:08:02 3.8 C 3.51 g/m*3 3.8 C 0 km/h
2462 01-03-2010 21:20:02 3.4 C 3.54 g/m*3 3.4 C 0 km/h
2463 01-03-2010 21:32:01 3.4 C 3.6 g/m*3 3.4 C 0 km/h
2464 01-03-2010 21:44:01 3.3 C 3.64 g/m*3 3.3 C 0 km/h
2465 01-03-2010 21:56:02 3.1 C 3.71 g/m*3 3.1 C 0 km/h
2466 01-03-2010 22:08:02 2.8 C 3.64 g/m*3 2.8 C 0 km/h
2467 01-03-2010 22:21:03 2.6 C 3.82 g/m*3 2.6 C 0 km/h
2468 01-03-2010 22:33:03 2.4 C 3.83 g/m*3 2.4 C 0 km/h
2469 01-03-2010 22:45:03 2.1 C 3.86 g/m*3 2.1 C 0 km/h
2470 01-03-2010 22:57:03 2 C 3.89 g/m*3 2 C 0 km/h
2471 01-03-2010 23:09:03 1.8 C 3.95 g/m*3 1.8 C 0 km/h
2472 01-03-2010 23:21:03 1.5 C 3.92 g/m*3 1.5 C 0 km/h
2473 01-03-2010 23:33:03 1.2 C 3.89 g/m*3 1.2 C 0 km/h
2474 01-03-2010 23:45:03 1.1 C 3.92 g/m*3 1.1 C 0 km/h
2475 01-03-2010 23:57:03 1.1 C 3.97 g/m*3 1.1 C 0 km/h
Sensor: Nr:Datum:Temp:Abs-Feuchte:Windchill:Wind:
Aussen-T/F 2476 02-03-2010 00:09:03 0.9 C 3.97 g/m*3 0.9 C 0 km/h
2477 02-03-2010 00:21:03 0.7 C 3.97 g/m*3 0.7 C 0 km/h
2478 02-03-2010 00:33:03 0.5 C 3.96 g/m*3 0.5 C 0 km/h
2479 02-03-2010 00:45:03 0.2 C 3.88 g/m*3 0.2 C 0 km/h
2480 02-03-2010 00:57:03 0.2 C 3.88 g/m*3 0.2 C 0 km/h
2481 02-03-2010 01:09:03 0.1 C 3.9 g/m*3 0.1 C 0 km/h
2482 02-03-2010 01:21:03 0.2 C 3.98 g/m*3 0.2 C 0 km/h
2483 02-03-2010 01:33:03 0.3 C 4.01 g/m*3 0.3 C 0 km/h
2484 02-03-2010 01:45:03 0 C 3.92 g/m*3 0 C 0 km/h
2485 02-03-2010 01:57:03 0 C 3.97 g/m*3 0 C 0 km/h
2486 02-03-2010 02:09:03 0 C 3.97 g/m*3 0 C 0 km/h
2487 02-03-2010 02:21:04 -0.2 C 3.92 g/m*3 -0.2 C 0 km/h
2488 02-03-2010 02:33:04 -0.2 C 3.97 g/m*3 -0.2 C 0 km/h
2489 02-03-2010 02:45:04 -0.4 C 3.91 g/m*3 -0.4 C 0 km/h
2490 02-03-2010 02:57:04 -0.6 C 3.86 g/m*3 -0.6 C 0 km/h
2491 02-03-2010 03:09:04 -0.7 C 3.83 g/m*3 -0.7 C 0 km/h
2492 02-03-2010 03:21:04 -0.6 C 3.86 g/m*3 -0.6 C 0 km/h
2493 02-03-2010 03:33:04 -0.7 C 3.83 g/m*3 -0.7 C 0 km/h
2494 02-03-2010 03:45:04 -0.9 C 3.82 g/m*3 -0.9 C 0 km/h
2495 02-03-2010 03:57:04 -1 C 3.8 g/m*3 -1 C 0 km/h
2496 02-03-2010 04:09:04 -1.3 C 3.72 g/m*3 -1.3 C 0 km/h
2497 02-03-2010 04:21:04 -1.3 C 3.72 g/m*3 -1.3 C 0 km/h
2498 02-03-2010 04:33:04 -1.4 C 3.69 g/m*3 -1.4 C 0 km/h
2499 02-03-2010 04:45:04 -1.2 C 3.79 g/m*3 -1.2 C 0 km/h
2500 02-03-2010 04:57:04 -1.2 C 3.79 g/m*3 -1.2 C 0 km/h
Sensor: Nr:Datum:Temp:Abs-Feuchte:Windchill:Wind:
Aussen-T/F 2501 02-03-2010 05:09:04 -1.1 C 3.86 g/m*3 -1.1 C 0 km/h
2502 02-03-2010 05:21:04 -1.1 C 3.86 g/m*3 -1.1 C 0 km/h
2503 02-03-2010 05:33:04 -1.1 C 3.86 g/m*3 -1.1 C 0 km/h
2504 02-03-2010 05:45:04 -1.1 C 3.86 g/m*3 -1.1 C 0 km/h
2505 02-03-2010 05:57:04 -1.4 C 3.74 g/m*3 -1.4 C 0 km/h
2506 02-03-2010 06:09:04 -1.6 C 3.68 g/m*3 -1.6 C 0 km/h
2507 02-03-2010 06:21:04 -1.7 C 3.66 g/m*3 -1.7 C 0 km/h
2508 02-03-2010 06:33:05 -1.8 C 3.63 g/m*3 -1.8 C 0 km/h
2509 02-03-2010 06:45:05 -1.9 C 3.65 g/m*3 -1.9 C 0 km/h
2510 02-03-2010 06:57:05 -1.9 C 3.65 g/m*3 -1.9 C 0 km/h
2511 02-03-2010 07:09:02 -2 C 3.63 g/m*3 -2 C 0 km/h
2512 02-03-2010 07:21:03 -1.8 C 3.72 g/m*3 -1.8 C 0 km/h
2513 02-03-2010 07:33:02 -1.8 C 3.72 g/m*3 -1.8 C 0 km/h
2514 02-03-2010 07:45:02 -1.6 C 3.77 g/m*3 -1.6 C 0 km/h
2515 02-03-2010 07:57:02 -1.2 C 3.92 g/m*3 -1.2 C 0 km/h
2516 02-03-2010 08:09:02 -0.9 C 4.01 g/m*3 -0.9 C 0 km/h
2517 02-03-2010 08:21:02 -0.7 C 4.06 g/m*3 -0.7 C 0 km/h
2518 02-03-2010 08:33:03 -0.7 C 4.06 g/m*3 -0.7 C 0 km/h
2519 02-03-2010 08:45:02 -0.6 C 4.09 g/m*3 -0.6 C 0 km/h
2520 02-03-2010 08:57:03 -0.6 C 4.09 g/m*3 -0.6 C 0 km/h
2521 02-03-2010 09:09:01 -0.5 C 4.07 g/m*3 -0.5 C 0 km/h
2522 02-03-2010 09:21:02 0 C 4.26 g/m*3 0 C 0 km/h
2523 02-03-2010 09:33:02 0.1 C 4.24 g/m*3 0.1 C 0 km/h
2524 02-03-2010 09:45:02 -0.1 C 4.14 g/m*3 -0.1 C 0 km/h
2525 02-03-2010 09:57:02 -0.1 C 4.14 g/m*3 -0.1 C 0 km/h
Sensor: Nr:Datum:Temp:Abs-Feuchte:Windchill:Wind:
Aussen-T/F 2526 02-03-2010 10:09:03 0.3 C 4.25 g/m*3 0.3 C 0 km/h
2527 02-03-2010 10:21:02 0.7 C 4.32 g/m*3 0.7 C 0 km/h
2528 02-03-2010 10:33:02 1.2 C 4.42 g/m*3 1.2 C 0 km/h
2529 02-03-2010 10:45:01 1.6 C 4.49 g/m*3 1.6 C 0 km/h
2530 02-03-2010 10:57:01 2.1 C 4.48 g/m*3 2.1 C 0 km/h
2531 02-03-2010 11:09:02 2.6 C 4.57 g/m*3 2.6 C 0 km/h
2532 02-03-2010 11:21:01 3.1 C 4.61 g/m*3 3.1 C 0 km/h
2533 02-03-2010 11:33:02 4 C 4.7 g/m*3 4 C 0 km/h
2534 02-03-2010 11:45:02 4 C 4.51 g/m*3 4 C 0 km/h
2535 02-03-2010 11:57:02 4.2 C 4.25 g/m*3 4.2 C 0 km/h
2536 02-03-2010 12:09:02 5.1 C 3.63 g/m*3 5.1 C 0 km/h
2537 02-03-2010 12:21:01 6.1 C 3.29 g/m*3 6.1 C 0 km/h
2538 02-03-2010 12:33:02 6.3 C 3.26 g/m*3 6.3 C 0 km/h
2539 02-03-2010 12:45:02 7 C 3.02 g/m*3 7 C 0 km/h
2540 02-03-2010 12:57:02 7.4 C 2.86 g/m*3 7.4 C 0 km/h
2541 02-03-2010 13:09:02 8.1 C 2.91 g/m*3 8.1 C 0 km/h
2542 02-03-2010 13:21:01 9.1 C 2.75 g/m*3 9.1 C 0 km/h
2543 02-03-2010 13:33:02 8.5 C 2.65 g/m*3 8.5 C 0 km/h
2544 02-03-2010 13:45:01 9.5 C 2.73 g/m*3 9.5 C 0 km/h
2545 02-03-2010 13:57:01 10.3 C 2.49 g/m*3 10.3 C 0 km/h
2546 02-03-2010 14:09:02 10.2 C 2.38 g/m*3 10.2 C 0 km/h
2547 02-03-2010 14:21:02 10.1 C 2.65 g/m*3 10.1 C 0 km/h
2548 02-03-2010 14:33:02 9.5 C 2.28 g/m*3 9.5 C 0 km/h
2549 02-03-2010 14:45:02 9.5 C 2.46 g/m*3 9.5 C 0 km/h
2550 02-03-2010 14:57:02 9 C 2.29 g/m*3 9 C 0 km/h
Sensor: Nr:Datum:Temp:Abs-Feuchte:Windchill:Wind:
Aussen-T/F 2551 02-03-2010 15:09:02 8.7 C 2.42 g/m*3 8.7 C 0 km/h
2552 02-03-2010 15:21:02 9.5 C 2.55 g/m*3 9.5 C 0 km/h
2553 02-03-2010 15:33:01 10.3 C 2.49 g/m*3 10.3 C 0 km/h
2554 02-03-2010 15:45:02 11 C 2.4 g/m*3 11 C 0 km/h
2555 02-03-2010 15:57:02 10.7 C 1.96 g/m*3 10.7 C 0 km/h
2556 02-03-2010 16:09:01 9.7 C 1.84 g/m*3 9.7 C 0 km/h
2557 02-03-2010 16:21:02 9.5 C 1.82 g/m*3 9.5 C 0 km/h
2558 02-03-2010 16:33:01 8.7 C 2.51 g/m*3 8.7 C 0 km/h
2559 02-03-2010 16:45:02 8.4 C 2.63 g/m*3 8.4 C 0 km/h
2560 02-03-2010 16:57:03 8.7 C 2.77 g/m*3 8.7 C 0 km/h
2561 02-03-2010 17:09:02 8.7 C 2.77 g/m*3 8.7 C 0 km/h
2562 02-03-2010 17:21:02 9 C 2.73 g/m*3 9 C 0 km/h
2563 02-03-2010 17:33:02 8.4 C 2.71 g/m*3 8.4 C 0 km/h
2564 02-03-2010 17:45:02 8.2 C 2.93 g/m*3 8.2 C 0 km/h
2565 02-03-2010 17:57:03 7.9 C 2.96 g/m*3 7.9 C 0 km/h
2566 02-03-2010 18:09:01 7.5 C 3.04 g/m*3 7.5 C 0 km/h
2567 02-03-2010 18:21:02 7 C 3.1 g/m*3 7 C 0 km/h
2568 02-03-2010 18:33:02 6.5 C 3.3 g/m*3 6.5 C 0 km/h
2569 02-03-2010 18:45:02 6.2 C 3.38 g/m*3 6.2 C 0 km/h
2570 02-03-2010 18:57:02 5.9 C 3.53 g/m*3 5.9 C 0 km/h
2571 02-03-2010 19:09:01 5.9 C 3.53 g/m*3 5.9 C 0 km/h
2572 02-03-2010 19:21:02 5.9 C 3.39 g/m*3 5.9 C 0 km/h
2573 02-03-2010 19:33:02 5.8 C 3.3 g/m*3 5.8 C 0 km/h
2574 02-03-2010 19:45:01 5.8 C 3.3 g/m*3 5.8 C 0 km/h
2575 02-03-2010 19:57:01 5.8 C 3.3 g/m*3 5.8 C 0 km/h
Sensor: Nr:Datum:Temp:Abs-Feuchte:Windchill:Wind:
Aussen-T/F 2576 02-03-2010 20:09:02 6 C 3.19 g/m*3 6 C 0 km/h
2577 02-03-2010 20:21:01 5.8 C 3.22 g/m*3 5.8 C 0 km/h
2578 02-03-2010 20:33:01 5.5 C 3.3 g/m*3 5.5 C 0 km/h
2579 02-03-2010 20:45:01 5 C 3.47 g/m*3 5 C 0 km/h
2580 02-03-2010 20:57:02 4.4 C 3.66 g/m*3 4.4 C 0 km/h
2581 02-03-2010 21:09:01 4.3 C 3.83 g/m*3 4.3 C 0 km/h
2582 02-03-2010 21:21:02 3.8 C 4.02 g/m*3 3.8 C 0 km/h
2583 02-03-2010 21:33:02 3.2 C 4.34 g/m*3 3.2 C 0 km/h
2584 02-03-2010 21:45:02 2.9 C 4.43 g/m*3 2.9 C 0 km/h
2585 02-03-2010 21:57:02 2.7 C 4.43 g/m*3 2.7 C 0 km/h
2586 02-03-2010 22:10:02 2.5 C 4.37 g/m*3 2.5 C 0 km/h
2587 02-03-2010 22:22:02 2.5 C 4.43 g/m*3 2.5 C 0 km/h
2588 02-03-2010 22:34:02 2.4 C 4.34 g/m*3 2.4 C 0 km/h
2589 02-03-2010 22:46:02 2.2 C 4.34 g/m*3 2.2 C 0 km/h
2590 02-03-2010 22:58:02 2 C 4.28 g/m*3 2 C 0 km/h
2591 02-03-2010 23:10:02 1.8 C 4.28 g/m*3 1.8 C 0 km/h
2592 02-03-2010 23:22:02 1.7 C 4.3 g/m*3 1.7 C 0 km/h
2593 02-03-2010 23:34:02 1.5 C 4.24 g/m*3 1.5 C 0 km/h
2594 02-03-2010 23:46:02 1.3 C 4.19 g/m*3 1.3 C 0 km/h
2595 02-03-2010 23:58:02 1.3 C 4.13 g/m*3 1.3 C 0 km/h
2596 03-03-2010 00:10:03 1.1 C 4.08 g/m*3 1.1 C 0 km/h
2597 03-03-2010 00:22:03 1.2 C 4.05 g/m*3 1.2 C 0 km/h
2598 03-03-2010 00:34:03 1.1 C 3.92 g/m*3 1.1 C 0 km/h
2599 03-03-2010 00:46:03 0.9 C 3.87 g/m*3 0.9 C 0 km/h
2600 03-03-2010 00:58:03 0.9 C 3.81 g/m*3 0.9 C 0 km/h
Sensor: Nr:Datum:Temp:Abs-Feuchte:Windchill:Wind:
Aussen-T/F 2601 03-03-2010 01:10:03 0.8 C 3.79 g/m*3 0.8 C 0 km/h
2602 03-03-2010 01:22:03 0.5 C 3.71 g/m*3 0.5 C 0 km/h
2603 03-03-2010 01:34:03 0.3 C 3.66 g/m*3 0.3 C 0 km/h
2604 03-03-2010 01:46:03 0.1 C 3.66 g/m*3 0.1 C 0 km/h
2605 03-03-2010 01:58:03 -0.1 C 3.66 g/m*3 -0.1 C 0 km/h
2606 03-03-2010 02:10:03 0 C 3.78 g/m*3 0 C 0 km/h
2607 03-03-2010 02:22:03 -0.1 C 3.8 g/m*3 -0.1 C 0 km/h
2608 03-03-2010 02:34:03 -0.4 C 3.72 g/m*3 -0.4 C 0 km/h
2609 03-03-2010 02:46:03 -0.5 C 3.74 g/m*3 -0.5 C 0 km/h
2610 03-03-2010 02:58:03 -0.6 C 3.76 g/m*3 -0.6 C 0 km/h
2611 03-03-2010 03:10:03 -0.7 C 3.74 g/m*3 -0.7 C 0 km/h
2612 03-03-2010 03:22:03 -0.9 C 3.69 g/m*3 -0.9 C 0 km/h
2613 03-03-2010 03:34:03 -0.9 C 3.73 g/m*3 -0.9 C 0 km/h
2614 03-03-2010 03:46:03 -1 C 3.71 g/m*3 -1 C 0 km/h
2615 03-03-2010 03:58:04 -1.1 C 3.68 g/m*3 -1.1 C 0 km/h
2616 03-03-2010 04:10:04 -1.2 C 3.7 g/m*3 -1.2 C 0 km/h
2617 03-03-2010 04:22:04 -1.3 C 3.67 g/m*3 -1.3 C 0 km/h
2618 03-03-2010 04:34:04 -1.5 C 3.62 g/m*3 -1.5 C 0 km/h
2619 03-03-2010 04:46:04 -1.4 C 3.69 g/m*3 -1.4 C 0 km/h
2620 03-03-2010 04:58:04 -1.6 C 3.64 g/m*3 -1.6 C 0 km/h
2621 03-03-2010 05:10:04 -1.7 C 3.62 g/m*3 -1.7 C 0 km/h
2622 03-03-2010 05:22:04 -2 C 3.54 g/m*3 -2 C 0 km/h
2623 03-03-2010 05:34:04 -2 C 3.54 g/m*3 -2 C 0 km/h
2624 03-03-2010 05:46:04 -2.1 C 3.52 g/m*3 -2.1 C 0 km/h
2625 03-03-2010 05:58:04 -2.1 C 3.56 g/m*3 -2.1 C 0 km/h
Sensor: Nr:Datum:Temp:Abs-Feuchte:Windchill:Wind:
Aussen-T/F 2626 03-03-2010 06:10:04 -2.2 C 3.53 g/m*3 -2.2 C 0 km/h
2627 03-03-2010 06:22:04 -1.8 C 3.68 g/m*3 -1.8 C 0 km/h
2628 03-03-2010 06:34:04 -1.4 C 3.82 g/m*3 -1.4 C 0 km/h
2629 03-03-2010 06:46:04 -1.1 C 3.91 g/m*3 -1.1 C 0 km/h
2630 03-03-2010 06:58:04 -1.1 C 3.91 g/m*3 -1.1 C 0 km/h
2631 03-03-2010 07:10:02 -1.1 C 3.86 g/m*3 -1.1 C 0 km/h
2632 03-03-2010 07:22:02 -1.1 C 3.86 g/m*3 -1.1 C 0 km/h
2633 03-03-2010 07:34:02 -1.1 C 3.82 g/m*3 -1.1 C 0 km/h
2634 03-03-2010 07:46:02 -1.3 C 3.72 g/m*3 -1.3 C 0 km/h
2635 03-03-2010 07:58:02 -1.5 C 3.67 g/m*3 -1.5 C 0 km/h
2636 03-03-2010 08:10:02 -1.4 C 3.69 g/m*3 -1.4 C 0 km/h
2637 03-03-2010 08:22:02 -1.3 C 3.72 g/m*3 -1.3 C 0 km/h
2638 03-03-2010 08:34:02 -1.2 C 3.79 g/m*3 -1.2 C 0 km/h
2639 03-03-2010 08:46:02 -0.7 C 3.92 g/m*3 -0.7 C 0 km/h
2640 03-03-2010 08:58:02 0.1 C 4.2 g/m*3 0.1 C 0 km/h
2641 03-03-2010 09:10:01 0.6 C 4.29 g/m*3 0.6 C 0 km/h
2642 03-03-2010 09:22:02 0.8 C 4.15 g/m*3 0.8 C 0 km/h
2643 03-03-2010 09:34:02 1 C 3.84 g/m*3 1 C 0 km/h
2644 03-03-2010 09:46:02 1.2 C 3.68 g/m*3 1.2 C 0 km/h
2645 03-03-2010 09:58:02 1.5 C 3.54 g/m*3 1.5 C 0 km/h
2646 03-03-2010 10:10:03 1.4 C 3.41 g/m*3 1.4 C 0 km/h
2647 03-03-2010 10:22:02 1.1 C 3.4 g/m*3 1.1 C 0 km/h
2648 03-03-2010 10:34:02 1.2 C 3.47 g/m*3 1.2 C 0 km/h
2649 03-03-2010 10:46:01 1.3 C 3.5 g/m*3 1.3 C 0 km/h
2650 03-03-2010 10:58:01 1.7 C 3.54 g/m*3 1.7 C 0 km/h
Sensor: Nr:Datum:Temp:Abs-Feuchte:Windchill:Wind:
Aussen-T/F 2651 03-03-2010 11:10:02 2.2 C 3.49 g/m*3 2.2 C 0 km/h
2652 03-03-2010 11:22:01 2.5 C 3.45 g/m*3 2.5 C 0 km/h
2653 03-03-2010 11:34:01 2.8 C 3.46 g/m*3 2.8 C 0 km/h
2654 03-03-2010 11:46:01 3.1 C 3.35 g/m*3 3.1 C 0 km/h
2655 03-03-2010 11:58:01 3.7 C 3.24 g/m*3 3.7 C 0 km/h
2656 03-03-2010 12:10:02 4.3 C 3.24 g/m*3 4.3 C 0 km/h
2657 03-03-2010 12:22:01 4.8 C 3.22 g/m*3 4.8 C 0 km/h
2658 03-03-2010 12:34:02 5.1 C 3.15 g/m*3 5.1 C 0 km/h
2659 03-03-2010 12:46:01 5.8 C 3.15 g/m*3 5.8 C 0 km/h
2660 03-03-2010 12:58:01 6.5 C 3 g/m*3 6.5 C 0 km/h
2661 03-03-2010 13:10:02 7 C 2.94 g/m*3 7 C 0 km/h
2662 03-03-2010 13:22:01 7.8 C 2.86 g/m*3 7.8 C 0 km/h
2663 03-03-2010 13:34:02 8.5 C 2.48 g/m*3 8.5 C 0 km/h
2664 03-03-2010 13:46:01 8.9 C 2.19 g/m*3 8.9 C 0 km/h
2665 03-03-2010 13:58:01 9.1 C 1.77 g/m*3 9.1 C 0 km/h
2666 03-03-2010 14:10:02 9.4 C 1.81 g/m*3 9.4 C 0 km/h
2667 03-03-2010 14:22:02 9.8 C 1.86 g/m*3 9.8 C 0 km/h
2668 03-03-2010 14:34:01 10.3 C 1.92 g/m*3 10.3 C 0 km/h
2669 03-03-2010 14:46:02 10.5 C 1.94 g/m*3 10.5 C 0 km/h
2670 03-03-2010 14:58:02 10.2 C 1.9 g/m*3 10.2 C 0 km/h
2671 03-03-2010 15:10:01 10.7 C 1.96 g/m*3 10.7 C 0 km/h
2672 03-03-2010 15:22:02 11 C 2 g/m*3 11 C 0 km/h
2673 03-03-2010 15:34:01 11 C 2 g/m*3 11 C 0 km/h
2674 03-03-2010 15:46:03 10.5 C 1.94 g/m*3 10.5 C 0 km/h
2675 03-03-2010 15:58:03 11 C 2 g/m*3 11 C 0 km/h
Sensor: Nr:Datum:Temp:Abs-Feuchte:Windchill:Wind:
Aussen-T/F 2676 03-03-2010 16:10:02 11.2 C 2.03 g/m*3 11.2 C 0 km/h
2677 03-03-2010 16:22:02 11.5 C 2.07 g/m*3 11.5 C 0 km/h
2678 03-03-2010 16:34:02 11.1 C 2.01 g/m*3 11.1 C 0 km/h
2679 03-03-2010 16:46:02 10.3 C 1.92 g/m*3 10.3 C 0 km/h
2680 03-03-2010 16:58:02 10.3 C 1.92 g/m*3 10.3 C 0 km/h
2681 03-03-2010 17:10:01 9.3 C 1.8 g/m*3 9.3 C 0 km/h
2682 03-03-2010 17:22:02 8.5 C 1.71 g/m*3 8.5 C 0 km/h
2683 03-03-2010 17:34:02 7.8 C 1.63 g/m*3 7.8 C 0 km/h
2684 03-03-2010 17:46:02 7.2 C 1.96 g/m*3 7.2 C 0 km/h
2685 03-03-2010 17:58:03 6.6 C 1.89 g/m*3 6.6 C 0 km/h
2686 03-03-2010 18:10:02 6.2 C 2.21 g/m*3 6.2 C 0 km/h
2687 03-03-2010 18:22:02 5.7 C 2.13 g/m*3 5.7 C 0 km/h
2688 03-03-2010 18:34:03 5.4 C 2.02 g/m*3 5.4 C 0 km/h
2689 03-03-2010 18:46:02 5.1 C 2.05 g/m*3 5.1 C 0 km/h
2690 03-03-2010 18:58:02 4.8 C 2.15 g/m*3 4.8 C 0 km/h
2691 03-03-2010 19:10:02 4.6 C 2.12 g/m*3 4.6 C 0 km/h
2692 03-03-2010 19:22:02 4.4 C 2.15 g/m*3 4.4 C 0 km/h
2693 03-03-2010 19:34:02 4.2 C 2.19 g/m*3 4.2 C 0 km/h
2694 03-03-2010 19:46:02 4.1 C 2.24 g/m*3 4.1 C 0 km/h
2695 03-03-2010 19:58:02 3.9 C 2.46 g/m*3 3.9 C 0 km/h
2696 03-03-2010 20:10:02 3.7 C 2.49 g/m*3 3.7 C 0 km/h
2697 03-03-2010 20:22:02 3.7 C 2.49 g/m*3 3.7 C 0 km/h
2698 03-03-2010 20:34:02 3.6 C 2.54 g/m*3 3.6 C 0 km/h
2699 03-03-2010 20:46:01 3.4 C 2.57 g/m*3 3.4 C 0 km/h
2700 03-03-2010 20:58:01 3.3 C 2.55 g/m*3 3.3 C 0 km/h
Sensor: Nr:Datum:Temp:Abs-Feuchte:Windchill:Wind:
Aussen-T/F 2701 03-03-2010 21:10:02 3.2 C 2.59 g/m*3 3.2 C 0 km/h
2702 03-03-2010 21:22:01 3 C 2.62 g/m*3 3 C 0 km/h
2703 03-03-2010 21:34:02 3 C 2.68 g/m*3 3 C 0 km/h
2704 03-03-2010 21:46:02 2.9 C 2.72 g/m*3 2.9 C 0 km/h
2705 03-03-2010 21:58:02 2.8 C 2.76 g/m*3 2.8 C 0 km/h
2706 03-03-2010 22:11:02 2.7 C 2.8 g/m*3 2.7 C 0 km/h
2707 03-03-2010 22:23:02 2.6 C 2.84 g/m*3 2.6 C 0 km/h
2708 03-03-2010 22:35:02 2.5 C 2.82 g/m*3 2.5 C 0 km/h
2709 03-03-2010 22:47:03 2.4 C 2.8 g/m*3 2.4 C 0 km/h
2710 03-03-2010 22:59:03 2.2 C 2.82 g/m*3 2.2 C 0 km/h
2711 03-03-2010 23:11:03 1.9 C 2.87 g/m*3 1.9 C 0 km/h
2712 03-03-2010 23:23:03 1.7 C 2.89 g/m*3 1.7 C 0 km/h
2713 03-03-2010 23:35:03 1.6 C 2.92 g/m*3 1.6 C 0 km/h
2714 03-03-2010 23:47:03 1.5 C 2.95 g/m*3 1.5 C 0 km/h
2715 03-03-2010 23:59:03 1.4 C 2.93 g/m*3 1.4 C 0 km/h

Legende:
   Min
   Max


Maximal/Minimal-Werte vom 01.02.2010 - 03.03.2010

Sensor Min Max Avg
Temp
(Aussen-T/F)
-8.1 °C
11-02-2010  01:46:20
15.9 °C
27-02-2010  15:30:01
3.53 °C
Abs-Feuchte
(Aussen-T/F)
1.63 g/m*3
03-03-2010  17:34:02
7.91 g/m*3
23-02-2010  21:04:02
4.29 g/m*3
Windchill
(Aussen-T/F)
-8.1 C
11-02-2010  01:46:20
15.9 C
27-02-2010  15:30:01
3.53 C

Die Daten stammen von einer Davis Vantage Pro 2 Wetter-Station und werden unter Linux mit der Software wview2wettercgi und aufbereitet. Alle Angaben erfolgen ohne Gewähr für ihre Vollständigkeit oder Richtigkeit.
Kontakt: Rainer Krienke krienke@uni-koblenz.de . Meine Webseiten an der Uni Koblenz oder privat.
Version: $Revision: 0.78 $